Provisional Data: South Branch Tunkhannock Creek near La Plume, PA


Please select a monitoring station.
Please select start date.
Please select start date.

Toggle Unit: C/F Toggle Unit: C/F
Sample Time Temperature (C) Temperature (F) Specific Conductivity (mS/cm) pH   Turbidity (NTU+) DO (mg/L)
12/23/2022 12:00:00 AM 2.42 36.356 0.344 7.47 13.78 13.18
12/23/2022 12:15:00 AM 2.38 36.284 0.342 7.46 14.17 13.2
12/23/2022 12:30:00 AM 2.35 36.23 0.33 7.45 16.24 13.2
12/23/2022 12:45:00 AM 2.33 36.194 0.322 7.43 17.08 13.22
12/23/2022 1:00:00 AM 2.3 36.14 0.316 7.42 18.72 13.22
12/23/2022 1:15:00 AM 2.28 36.104 0.316 7.4 16.73 13.23
12/23/2022 1:30:00 AM 2.27 36.086 0.316 7.38 19.97 13.22
12/23/2022 1:45:00 AM 2.25 36.05 0.314 7.37 20.9 13.23
12/23/2022 2:00:00 AM 2.23 36.014 0.308 7.36 21.25 13.23
12/23/2022 2:15:00 AM 2.19 35.942 0.301 7.35 22.72 13.23
12/23/2022 2:30:00 AM 2.16 35.888 0.294 7.34 29.24 13.26
12/23/2022 2:45:00 AM 2.12 35.816 0.289 7.34 21.31 13.27
12/23/2022 3:00:00 AM 2.08 35.744 0.288 7.33 22.06 13.28
12/23/2022 3:15:00 AM 2.07 35.726 0.289 7.32 25.49 13.27
12/23/2022 3:30:00 AM 2.06 35.708 0.291 7.31 25.33 13.27
12/23/2022 3:45:00 AM 2.07 35.726 0.296 7.3 29.5 13.26
12/23/2022 4:00:00 AM 2.07 35.726 0.303 7.29 32.11 13.26
12/23/2022 4:15:00 AM 2.08 35.744 0.311 7.29 28.53 13.26
12/23/2022 4:30:00 AM 2.08 35.744 0.319 7.29 29.98 13.24
12/23/2022 4:45:00 AM 2.07 35.726 0.328 7.29 40.48 13.24
12/23/2022 5:00:00 AM 2.07 35.726 0.345 7.29 31.3 13.24
12/23/2022 5:15:00 AM 2.07 35.726 0.366 7.3 35.76 13.23
12/23/2022 5:30:00 AM 2.07 35.726 0.388 7.3 29.65 13.22
12/23/2022 5:45:00 AM 2.08 35.744 0.4 7.29 32.04 13.21
12/23/2022 6:00:00 AM 2.08 35.744 0.401 7.3 343.32 13.2
12/23/2022 6:15:00 AM 2.1 35.78 0.395 7.3 39.5 13.21
12/23/2022 6:30:00 AM 2.13 35.834 0.383 7.31 38.32 13.21
12/23/2022 6:45:00 AM 2.15 35.87 0.372 7.32 38.54 13.21
12/23/2022 7:00:00 AM 2.17 35.906 0.362 7.32 31.42 13.2
12/23/2022 7:15:00 AM 2.18 35.924 0.352 7.32 37.33 13.2
12/23/2022 7:30:00 AM 2.2 35.96 0.341 7.3 131.24 13.2
12/23/2022 7:45:00 AM 2.21 35.978 0.332 7.31 29.15 13.2
12/23/2022 8:00:00 AM 2.22 35.996 0.324 7.32 29.97 13.2
12/23/2022 8:15:00 AM 2.23 36.014 0.317 7.31 248.19 13.2
12/23/2022 8:30:00 AM 2.25 36.05 0.312 7.31 28.5 13.21
12/23/2022 8:45:00 AM 2.28 36.104 0.306 7.31 42.47 13.2
12/23/2022 9:00:00 AM 2.3 36.14 0.301 7.31 281.37 13.2
12/23/2022 9:15:00 AM 2.32 36.176 0.297 7.3 68.6 13.2
12/23/2022 9:30:00 AM 2.34 36.212 0.294 7.31 33.53 13.2
12/23/2022 9:45:00 AM 2.36 36.248 0.291 7.3 29.31 13.2
12/23/2022 10:00:00 AM 2.36 36.248 0.288 7.31 21.95 13.19
12/23/2022 10:15:00 AM 2.38 36.284 0.281 7.31 29.85 13.19
12/23/2022 10:30:00 AM 2.38 36.284 0.286 7.3 29.7 13.19
12/23/2022 10:45:00 AM 2.38 36.284 0.287 7.29 33.69 13.18
12/23/2022 11:00:00 AM 2.37 36.266 0.281 7.29 35.88 13.2
12/23/2022 11:15:00 AM 2.36 36.248 0.276 7.29 44.52 13.21
12/23/2022 11:30:00 AM 2.35 36.23 0.271 7.29 32.2 13.22
12/23/2022 11:45:00 AM 2.34 36.212 0.269 7.3 43.57 13.24
12/23/2022 12:00:00 PM 2.33 36.194 0.269 7.3 42.59 13.24
12/23/2022 12:15:00 PM 2.31 36.158 0.15 7.27 41.71 13.26
12/23/2022 12:30:00 PM 2.28 36.104 0.272 7.29 40.53 13.27
12/23/2022 12:45:00 PM 2.26 36.068 0.273 7.27 40.98 13.28
12/23/2022 1:00:00 PM 2.23 36.014 0.273 7.27 41.33 13.28
12/23/2022 1:15:00 PM 2.2 35.96 0.272 7.25 38.87 13.29
12/23/2022 1:30:00 PM 2.17 35.906 0.271 7.25 37.5 13.3
12/23/2022 1:45:00 PM 2.15 35.87 0.266 7.25 35.79 13.31
12/23/2022 2:00:00 PM 2.13 35.834 0.264 7.26 33 13.31
12/23/2022 2:15:00 PM 2.11 35.798 0.262 7.26 31.07 13.34
12/23/2022 2:30:00 PM 2.08 35.744 0.258 7.25 29.12 13.35
12/23/2022 2:45:00 PM 2.05 35.69 0.256 7.26 27.53 13.36
12/23/2022 3:00:00 PM 2.04 35.672 0.254 7.27 26.72 13.37
12/23/2022 3:15:00 PM 2.01 35.618 0.253 7.26 25.71 13.38
12/23/2022 3:30:00 PM 2 35.6 0.253 7.26 24.22 13.39
12/23/2022 3:45:00 PM 1.98 35.564 0.254 7.25 22.79 13.39
12/23/2022 4:00:00 PM 1.96 35.528 0.253 7.27 20.14 13.41
12/23/2022 4:15:00 PM 1.94 35.492 0.254 7.29 20.44 13.42
12/23/2022 4:30:00 PM 1.92 35.456 0.253 7.27 19.63 13.42
12/23/2022 4:45:00 PM 1.89 35.402 0.254 7.28 18.99 13.43
12/23/2022 5:00:00 PM 1.87 35.366 0.254 7.28 17.94 13.44
12/23/2022 5:15:00 PM 1.86 35.348 0.254 7.29 16.97 13.44
12/23/2022 5:30:00 PM 1.83 35.294 0.254 7.32 17.07 13.46
12/23/2022 5:45:00 PM 1.8 35.24 0.255 7.34 15.42 13.47
12/23/2022 6:00:00 PM 1.77 35.186 0.256 7.35 15.24 13.48
12/23/2022 6:15:00 PM 1.74 35.132 0.257 7.36 14.52 13.5
12/23/2022 6:30:00 PM 1.72 35.096 0.258 7.34 14.13 13.51
12/23/2022 6:45:00 PM 1.7 35.06 0.258 7.34 14.4 13.51
12/23/2022 7:00:00 PM 1.67 35.006 0.258 7.36 13.67 13.53
12/23/2022 7:15:00 PM 1.65 34.97 0.258 7.36 13.3 13.54
12/23/2022 7:30:00 PM 1.62 34.916 0.257 7.36 13.58 13.55
12/23/2022 7:45:00 PM 1.59 34.862 0.257 7.36 13.04 13.56
12/23/2022 8:00:00 PM 1.57 34.826 0.256 7.36 12.74 13.57
12/23/2022 8:15:00 PM 1.54 34.772 0.256 7.36 12.59 13.59
12/23/2022 8:30:00 PM 1.51 34.718 0.256 7.38 12.34 13.6
12/23/2022 8:45:00 PM 1.47 34.646 0.256 7.37 11.86 13.62
12/23/2022 9:00:00 PM 1.45 34.61 0.256 7.38 11.41 13.64
12/23/2022 9:15:00 PM 1.42 34.556 0.255 7.38 10.8 13.64
12/23/2022 9:30:00 PM 1.4 34.52 0.255 7.39 10.39 13.66
12/23/2022 9:45:00 PM 1.39 34.502 0.255 7.39 10.17 13.67
12/23/2022 10:00:00 PM 1.37 34.466 0.255 7.4 9.83 13.68
12/23/2022 10:15:00 PM 1.37 34.466 0.255 7.4 10.41 13.69
12/23/2022 10:30:00 PM 1.36 34.448 0.254 7.4 9.69 13.68
12/23/2022 10:45:00 PM 1.35 34.43 0.253 7.41 9.88 13.69
12/23/2022 11:00:00 PM 1.33 34.394 0.253 7.41 9.9 13.69
12/23/2022 11:15:00 PM 1.31 34.358 0.253 7.41 9.51 13.7
12/23/2022 11:30:00 PM 1.31 34.358 0.253 7.41 9.51 13.7
12/23/2022 11:45:00 PM 1.29 34.322 0.252 7.41 9.72 13.71
12/24/2022 12:00:00 AM 1.26 34.268 0.252 7.41 9.68 13.71
12/24/2022 12:15:00 AM 1.25 34.25 0.252 7.42 9.49 13.72
12/24/2022 12:30:00 AM 1.24 34.232 0.252 7.41 9.5 13.73
12/24/2022 12:45:00 AM 1.22 34.196 0.252 7.41 9.63 13.73
12/24/2022 1:00:00 AM 1.2 34.16 0.253 7.39 9.54 13.74
12/24/2022 1:15:00 AM 1.17 34.106 0.253 7.39 9.88 13.75
12/24/2022 1:30:00 AM 1.16 34.088 0.253 7.38 9.79 13.76
12/24/2022 1:45:00 AM 1.13 34.034 0.254 7.38 9.66 13.76
12/24/2022 2:00:00 AM 1.1 33.98 0.255 7.36 9.65 13.77
12/24/2022 2:15:00 AM 1.08 33.944 0.255 7.35 9.89 13.78
12/24/2022 2:30:00 AM 1.06 33.908 0.255 7.36 9.92 13.78
12/24/2022 2:45:00 AM 1.04 33.872 0.255 7.35 9.64 13.79
12/24/2022 3:00:00 AM 1.03 33.854 0.255 7.34 9.64 13.8
12/24/2022 3:15:00 AM 1.02 33.836 0.256 7.34 9.27 13.8
12/24/2022 3:30:00 AM 1 33.8 0.256 7.35 9.83 13.81
12/24/2022 3:45:00 AM 0.98 33.764 0.256 7.33 9.25 13.81
12/24/2022 4:00:00 AM 0.97 33.746 0.256 7.33 9.45 13.82
12/24/2022 4:15:00 AM 0.95 33.71 0.256 7.34 9.93 13.82
12/24/2022 4:30:00 AM 0.92 33.656 0.256 7.33 9.57 13.83
12/24/2022 4:45:00 AM 0.9 33.62 0.256 7.33 9.49 13.84
12/24/2022 5:00:00 AM 0.88 33.584 0.256 7.33 9.71 13.84
12/24/2022 5:15:00 AM 0.85 33.53 0.257 7.33 9.54 13.85
12/24/2022 5:30:00 AM 0.83 33.494 0.257 7.32 9.31 13.85
12/24/2022 5:45:00 AM 0.8 33.44 0.258 7.31 9.77 13.86
12/24/2022 6:00:00 AM 0.78 33.404 0.258 7.31 9.5 13.87
12/24/2022 6:15:00 AM 0.76 33.368 0.258 7.31 9.46 13.88
12/24/2022 6:30:00 AM 0.73 33.314 0.259 7.32 9.14 13.88
12/24/2022 6:45:00 AM 0.71 33.278 0.259 7.32 9.09 13.89
12/24/2022 7:00:00 AM 0.69 33.242 0.259 7.32 9.85 13.89
12/24/2022 7:15:00 AM 0.67 33.206 0.259 7.32 9.1 13.9
12/24/2022 7:30:00 AM 0.65 33.17 0.259 7.31 8.83 13.91
12/24/2022 7:45:00 AM 0.64 33.152 0.259 7.31 8.96 13.92
12/24/2022 8:00:00 AM 0.63 33.134 0.26 7.31 8.92 13.93
12/24/2022 8:15:00 AM 0.62 33.116 0.259 7.31 9.02 13.94
12/24/2022 8:30:00 AM 0.63 33.134 0.259 7.33 9.02 13.97
12/24/2022 8:45:00 AM 0.63 33.134 0.26 7.33 9.17 13.99
12/24/2022 9:00:00 AM 0.62 33.116 0.259 7.33 9.19 14.01
12/24/2022 9:15:00 AM 0.64 33.152 0.26 7.34 9.21 14.04
12/24/2022 9:30:00 AM 0.64 33.152 0.26 7.35 9.09 14.06
12/24/2022 9:45:00 AM 0.64 33.152 0.26 7.35 9.14 14.07
12/24/2022 10:00:00 AM 0.64 33.152 0.26 7.34 8.93 14.08
12/24/2022 10:15:00 AM 0.65 33.17 0.26 7.35 9.07 14.1
12/24/2022 10:30:00 AM 0.67 33.206 0.26 7.37 9.71 14.11
12/24/2022 10:45:00 AM 0.69 33.242 0.26 7.36 9.07 14.12
12/24/2022 11:00:00 AM 0.74 33.332 0.261 7.38 8.87 14.13
12/24/2022 11:15:00 AM 0.74 33.332 0.261 7.37 8.78 14.15
12/24/2022 11:30:00 AM 0.76 33.368 0.262 7.38 8.85 14.15
12/24/2022 11:45:00 AM 0.78 33.404 0.262 7.38 8.47 14.15
12/24/2022 12:00:00 PM 0.8 33.44 0.262 7.38 8.67 14.15
12/24/2022 12:15:00 PM 0.84 33.512 0.263 7.4 8.14 14.16
12/24/2022 12:30:00 PM 0.85 33.53 0.263 7.39 8.5 14.16
12/24/2022 12:45:00 PM 0.85 33.53 0.264 7.39 8.41 14.16
12/24/2022 1:00:00 PM 0.86 33.548 0.265 7.4 8.53 14.16
12/24/2022 1:15:00 PM 0.86 33.548 0.264 7.4 8.65 14.16
12/24/2022 1:30:00 PM 0.86 33.548 0.264 7.4 8.52 14.16
12/24/2022 1:45:00 PM 0.86 33.548 0.264 7.4 8.38 14.15
12/24/2022 2:00:00 PM 0.86 33.548 0.264 7.41 8.58 14.16
12/24/2022 2:15:00 PM 0.88 33.584 0.264 7.42 8.59 14.15
12/24/2022 2:30:00 PM 0.86 33.548 0.264 7.41 8.49 14.16
12/24/2022 2:45:00 PM 0.84 33.512 0.263 7.42 8.6 14.15
12/24/2022 3:00:00 PM 0.81 33.458 0.263 7.4 8.57 14.14
12/24/2022 3:15:00 PM 0.79 33.422 0.262 7.41 8.61 14.14
12/24/2022 3:30:00 PM 0.77 33.386 0.262 7.41 8.59 14.14
12/24/2022 3:45:00 PM 0.75 33.35 0.262 7.4 8.32 14.13
12/24/2022 4:00:00 PM 0.73 33.314 0.261 7.4 8.18 14.11
12/24/2022 4:15:00 PM 0.7 33.26 0.261 7.4 8.71 14.1
12/24/2022 4:30:00 PM 0.68 33.224 0.261 7.39 8.59 14.09
12/24/2022 4:45:00 PM 0.65 33.17 0.261 7.38 8.4 14.07
12/24/2022 5:00:00 PM 0.63 33.134 0.261 7.38 8.7 14.06
12/24/2022 5:15:00 PM 0.61 33.098 0.261 7.38 8.47 14.04
12/24/2022 5:30:00 PM 0.59 33.062 0.261 7.37 8.96 14.03
12/24/2022 5:45:00 PM 0.58 33.044 0.261 7.36 8.65 14.02
12/24/2022 6:00:00 PM 0.56 33.008 0.261 7.36 8.34 14.02
12/24/2022 6:15:00 PM 0.55 32.99 0.261 7.36 8.61 14.02
12/24/2022 6:30:00 PM 0.54 32.972 0.26 7.35 8.64 14.03
12/24/2022 6:45:00 PM 0.53 32.954 0.26 7.35 9.12 14.02
12/24/2022 7:00:00 PM 0.52 32.936 0.26 7.35 8.68 14.02
12/24/2022 7:15:00 PM 0.5 32.9 0.26 7.35 8.84 14.03
12/24/2022 7:30:00 PM 0.49 32.882 0.26 7.35 8.92 14.03
12/24/2022 7:45:00 PM 0.48 32.864 0.26 7.34 8.8 14.04
12/24/2022 8:00:00 PM 0.48 32.864 0.259 7.34 8.86 14.04
12/24/2022 8:15:00 PM 0.48 32.864 0.259 7.35 8.26 14.04
12/24/2022 8:30:00 PM 0.48 32.864 0.259 7.35 9.21 14.03
12/24/2022 8:45:00 PM 0.47 32.846 0.259 7.34 9.39 14.03
12/24/2022 9:00:00 PM 0.46 32.828 0.258 7.35 8.98 14.04
12/24/2022 9:15:00 PM 0.45 32.81 0.258 7.34 9.24 14.03
12/24/2022 9:30:00 PM 0.45 32.81 0.258 7.34 8.86 14.05
12/24/2022 9:45:00 PM 0.44 32.792 0.258 7.34 9.24 14.05
12/24/2022 10:00:00 PM 0.43 32.774 0.258 7.34 9.01 14.05
12/24/2022 10:15:00 PM 0.42 32.756 0.258 7.34 9.27 14.05
12/24/2022 10:30:00 PM 0.41 32.738 0.258 7.35 9.15 14.05
12/24/2022 10:45:00 PM 0.41 32.738 0.258 7.34 9.48 14.05
12/24/2022 11:00:00 PM 0.4 32.72 0.257 7.34 8.9 14.06
12/24/2022 11:15:00 PM 0.39 32.702 0.258 7.34 9.97 14.07
12/24/2022 11:30:00 PM 0.38 32.684 0.258 7.35 9.03 14.06
12/24/2022 11:45:00 PM 0.37 32.666 0.258 7.33 9.48 14.07
12/25/2022 12:00:00 AM 0.35 32.63 0.258 7.35 8.96 14.06
12/25/2022 12:15:00 AM 0.34 32.612 0.258 7.33 9.37 14.07
12/25/2022 12:30:00 AM 0.34 32.612 0.258 7.34 9.08 14.07
12/25/2022 12:45:00 AM 0.33 32.594 0.258 7.33 9.41 14.08
12/25/2022 1:00:00 AM 0.32 32.576 0.258 7.33 9.39 14.09
12/25/2022 1:15:00 AM 0.32 32.576 0.258 7.34 9.63 14.07
12/25/2022 1:30:00 AM 0.31 32.558 0.258 7.33 9.27 14.08
12/25/2022 1:45:00 AM 0.32 32.576 0.258 7.34 10.17 14.08
12/25/2022 2:00:00 AM 0.31 32.558 0.258 7.33 9.3 14.07
12/25/2022 2:15:00 AM 0.3 32.54 0.258 7.33 9.46 14.07
12/25/2022 2:30:00 AM 0.29 32.522 0.258 7.33 9.52 14.08
12/25/2022 2:45:00 AM 0.29 32.522 0.259 7.34 9.56 14.1
12/25/2022 3:00:00 AM 0.28 32.504 0.259 7.33 9.76 14.08
12/25/2022 3:15:00 AM 0.27 32.486 0.26 7.34 9.55 14.09
12/25/2022 3:30:00 AM 0.27 32.486 0.259 7.34 9.24 14.09
12/25/2022 3:45:00 AM 0.27 32.486 0.26 7.33 9.75 14.09
12/25/2022 4:00:00 AM 0.26 32.468 0.26 7.34 9.82 14.09
12/25/2022 4:15:00 AM 0.27 32.486 0.26 7.34 9.3 14.1
12/25/2022 4:30:00 AM 0.27 32.486 0.26 7.34 10 14.09
12/25/2022 4:45:00 AM 0.27 32.486 0.26 7.34 10 14.09
12/25/2022 5:00:00 AM 0.27 32.486 0.26 7.34 9.48 14.08
12/25/2022 5:15:00 AM 0.27 32.486 0.26 7.34 9.82 14.09
12/25/2022 5:30:00 AM 0.26 32.468 0.26 7.34 9.77 14.09
12/25/2022 5:45:00 AM 0.27 32.486 0.26 7.34 9.85 14.08
12/25/2022 6:00:00 AM 0.27 32.486 0.26 7.34 9.77 14.09
12/25/2022 6:15:00 AM 0.28 32.504 0.26 7.34 10 14.09
12/25/2022 6:30:00 AM 0.28 32.504 0.26 7.34 9.85 14.09
12/25/2022 6:45:00 AM 0.28 32.504 0.26 7.34 10.24 14.09
12/25/2022 7:00:00 AM 0.27 32.486 0.26 7.35 9.7 14.09
12/25/2022 7:15:00 AM 0.26 32.468 0.261 7.34 8.89 14.1
12/25/2022 7:30:00 AM 0.26 32.468 0.261 7.34 9.78 14.1
12/25/2022 7:45:00 AM 0.26 32.468 0.261 7.34 9.71 14.11
12/25/2022 8:00:00 AM 0.26 32.468 0.261 7.35 9.68 14.12
12/25/2022 8:15:00 AM 0.26 32.468 0.261 7.35 10.51 14.13
12/25/2022 8:30:00 AM 0.27 32.486 0.261 7.33 10.83 14.15
12/25/2022 8:45:00 AM 0.27 32.486 0.261 7.35 10.36 14.17
12/25/2022 9:00:00 AM 0.28 32.504 0.26 7.36 9.85 14.18
12/25/2022 9:15:00 AM 0.29 32.522 0.261 7.37 10.5 14.2
12/25/2022 9:30:00 AM 0.31 32.558 0.261 7.37 10.38 14.22
12/25/2022 9:45:00 AM 0.32 32.576 0.261 7.37 10.75 14.24
12/25/2022 10:00:00 AM 0.33 32.594 0.261 7.37 10.77 14.25
12/25/2022 10:15:00 AM 0.36 32.648 0.261 7.37 9.77 14.27
12/25/2022 10:30:00 AM 0.38 32.684 0.261 7.38 10.66 14.28
12/25/2022 10:45:00 AM 0.41 32.738 0.261 7.38 9.54 14.31
12/25/2022 11:00:00 AM 0.44 32.792 0.261 7.38 10.63 14.32
12/25/2022 11:15:00 AM 0.48 32.864 0.261 7.39 10.79 14.33
12/25/2022 11:30:00 AM 0.5 32.9 0.262 7.39 10.27 14.31
12/25/2022 11:45:00 AM 0.52 32.936 0.262 7.4 10.57 14.32
12/25/2022 12:00:00 PM 0.54 32.972 0.263 7.41 10.54 14.33
12/25/2022 12:15:00 PM 0.58 33.044 0.263 7.41 835.42 14.33
12/25/2022 12:30:00 PM 0.62 33.116 0.263 7.41 9.85 14.33
12/25/2022 12:45:00 PM 0.65 33.17 0.263 7.42 9.98 14.32
12/25/2022 1:00:00 PM 0.7 33.26 0.264 7.42 10.19 14.31
12/25/2022 1:15:00 PM 0.71 33.278 0.264 7.41 9.72 14.31
12/25/2022 1:30:00 PM 0.74 33.332 0.264 7.42 9.57 14.31
12/25/2022 1:45:00 PM 0.74 33.332 0.264 7.43 10.13 14.31
12/25/2022 2:00:00 PM 0.73 33.314 0.264 7.43 9.29 14.3
12/25/2022 2:15:00 PM 0.72 33.296 0.265 7.43 9.51 14.29
12/25/2022 2:30:00 PM 0.74 33.332 0.264 7.43 10.16 14.29
12/25/2022 2:45:00 PM 0.74 33.332 0.264 7.43 10.35 14.29
12/25/2022 3:00:00 PM 0.71 33.278 0.265 7.43 10.52 14.29
12/25/2022 3:15:00 PM 0.69 33.242 0.265 7.42 9.91 14.29
12/25/2022 3:30:00 PM 0.66 33.188 0.265 7.43 9.37 14.29
12/25/2022 3:45:00 PM 0.64 33.152 0.265 7.43 9.93 14.28
12/25/2022 4:00:00 PM 0.6 33.08 0.265 7.43 10.35 14.27
12/25/2022 4:15:00 PM 0.58 33.044 0.265 7.42 10.14 14.25
12/25/2022 4:30:00 PM 0.54 32.972 0.265 7.41 10.04 14.23
12/25/2022 4:45:00 PM 0.52 32.936 0.265 7.41 10.43 14.21
12/25/2022 5:00:00 PM 0.5 32.9 0.265 7.41 9.05 14.19
12/25/2022 5:15:00 PM 0.48 32.864 0.265 7.4 10.19 14.18
12/25/2022 5:30:00 PM 0.46 32.828 0.265 7.4 10.48 14.17
12/25/2022 5:45:00 PM 0.44 32.792 0.265 7.39 10.53 14.16
12/25/2022 6:00:00 PM 0.41 32.738 0.265 7.39 10.14 14.15
12/25/2022 6:15:00 PM 0.4 32.72 0.264 7.38 9.76 14.14
12/25/2022 6:30:00 PM 0.38 32.684 0.264 7.38 10.84 14.14
12/25/2022 6:45:00 PM 0.36 32.648 0.264 7.37 11.97 14.15
12/25/2022 7:00:00 PM 0.35 32.63 0.264 7.37 10.26 14.15
12/25/2022 7:15:00 PM 0.33 32.594 0.264 7.37 11.65 14.14
12/25/2022 7:30:00 PM 0.32 32.576 0.264 7.37 10.38 14.14
12/25/2022 7:45:00 PM 0.31 32.558 0.263 7.37 11.17 14.14
12/25/2022 8:00:00 PM 0.3 32.54 0.263 7.37 11.26 14.15
12/25/2022 8:15:00 PM 0.29 32.522 0.263 7.36 10.19 14.16
12/25/2022 8:30:00 PM 0.29 32.522 0.263 7.36 11.17 14.16
12/25/2022 8:45:00 PM 0.28 32.504 0.263 7.35 10.61 14.16
12/25/2022 9:00:00 PM 0.28 32.504 0.262 7.37 10.89 14.16
12/25/2022 9:15:00 PM 0.28 32.504 0.262 7.36 12.72 14.17
12/25/2022 9:30:00 PM 0.28 32.504 0.262 7.36 11.21 14.16
12/25/2022 9:45:00 PM 0.27 32.486 0.261 7.37 11.35 14.17
12/25/2022 10:00:00 PM 0.27 32.486 0.261 7.37 9.91 14.18
12/25/2022 10:15:00 PM 0.27 32.486 0.261 7.38 12.06 14.18
12/25/2022 10:30:00 PM 0.26 32.468 0.261 7.37 11.68 14.18
12/25/2022 10:45:00 PM 0.26 32.468 0.261 7.36 10.83 14.18
12/25/2022 11:00:00 PM 0.25 32.45 0.26 7.36 10.76 14.18
12/25/2022 11:15:00 PM 0.24 32.432 0.26 7.36 10.55 14.19
12/25/2022 11:30:00 PM 0.23 32.414 0.26 7.35 10.61 14.18
12/25/2022 11:45:00 PM 0.21 32.378 0.26 7.35 11.26 14.2
12/26/2022 12:00:00 AM 0.2 32.36 0.26 7.35 10.88 14.21
12/26/2022 12:15:00 AM 0.19 32.342 0.26 7.35 10.49 14.21
12/26/2022 12:30:00 AM 0.18 32.324 0.26 7.35 12.98 14.22
12/26/2022 12:45:00 AM 0.17 32.306 0.259 7.35 11.41 14.21
12/26/2022 1:00:00 AM 0.16 32.288 0.26 7.35 11.18 14.23
12/26/2022 1:15:00 AM 0.14 32.252 0.259 7.35 13.24 14.24
12/26/2022 1:30:00 AM 0.13 32.234 0.259 7.34 13.29 14.23
12/26/2022 1:45:00 AM 0.12 32.216 0.259 7.35 11.49 14.24
12/26/2022 2:00:00 AM 0.11 32.198 0.259 7.35 11.71 14.25
12/26/2022 2:15:00 AM 0.1 32.18 0.259 7.34 12.27 14.26
12/26/2022 2:30:00 AM 0.08 32.144 0.259 7.34 12.52 14.27
12/26/2022 2:45:00 AM 0.07 32.126 0.259 7.34 10.58 14.27
12/26/2022 3:00:00 AM 0.06 32.108 0.259 7.34 14.16 14.26
12/26/2022 3:15:00 AM 0.05 32.09 0.259 7.34 11.07 14.26
12/26/2022 3:30:00 AM 0.04 32.072 0.259 7.33 11.17 14.27
12/26/2022 3:45:00 AM 0.03 32.054 0.259 7.33 11.02 14.3
12/26/2022 4:00:00 AM 0.02 32.036 0.26 7.33 10.84 14.3
12/26/2022 4:15:00 AM 0.01 32.018 0.259 7.34 12.8 14.3
12/26/2022 4:30:00 AM 0 32 0.259 7.33 12 14.3
12/26/2022 4:45:00 AM -0.02 31.964 0.26 7.33 10.61 14.31
12/26/2022 5:00:00 AM -0.03 31.946 0.259 7.33 10.25 14.31
12/26/2022 5:15:00 AM -0.04 31.928 0.259 7.34 11.36 14.33
12/26/2022 5:30:00 AM -0.06 31.892 0.259 7.33 12.04 14.34
12/26/2022 5:45:00 AM -0.07 31.874 0.258 7.34 10.25 14.34
12/26/2022 6:00:00 AM -0.08 31.856 0.241 7.34 12.53 14.35
12/26/2022 6:15:00 AM -0.1 31.82 0.244 7.34 13.43 14.36
12/26/2022 6:30:00 AM -0.11 31.802 0.245 7.34 10.89 14.36
12/26/2022 6:45:00 AM -0.13 31.766 0.244 7.34 11.51 14.37
12/26/2022 7:00:00 AM -0.14 31.748 0.248 7.33 12.13 14.37
12/26/2022 7:15:00 AM -0.16 31.712 0.257 7.33 10.97 14.39
12/26/2022 7:30:00 AM -0.17 31.694 0.259 7.33 12.08 14.39
12/26/2022 7:45:00 AM -0.17 31.694 0.259 7.34 11.21 14.41
12/26/2022 8:00:00 AM -0.17 31.694 0.259 7.34 11.48 14.43
12/26/2022 8:15:00 AM -0.17 31.694 0.259 7.34 10.41 14.47
12/26/2022 8:30:00 AM -0.16 31.712 0.259 7.34 11.65 14.51
12/26/2022 8:45:00 AM -0.16 31.712 0.259 7.34 10.55 14.53
12/26/2022 9:00:00 AM -0.15 31.73 0.259 7.35 12.43 14.56
12/26/2022 9:15:00 AM -0.14 31.748 0.26 7.35 11.56 14.55
12/26/2022 9:30:00 AM -0.12 31.784 0.259 7.36 11.88 14.57
12/26/2022 9:45:00 AM -0.07 31.874 0.259 7.36 11.43 14.6
12/26/2022 10:00:00 AM -0.02 31.964 0.259 7.37 10.88 14.61
12/26/2022 10:15:00 AM 0.03 32.054 0.26 7.37 11.18 14.61
12/26/2022 10:30:00 AM 0.07 32.126 0.26 7.38 13.19 14.63
12/26/2022 10:45:00 AM 0.1 32.18 0.261 7.38 14.18 14.63
12/26/2022 11:00:00 AM 0.15 32.27 0.261 7.38 12 14.64
12/26/2022 11:15:00 AM 0.16 32.288 0.262 7.39 11.52 14.63
12/26/2022 11:30:00 AM 0.2 32.36 0.262 7.39 13.06 14.64
12/26/2022 11:45:00 AM 0.24 32.432 0.262 7.4 13.54 14.63
12/26/2022 12:00:00 PM 0.28 32.504 0.263 7.4 12.26 14.61
12/26/2022 12:15:00 PM 0.32 32.576 0.263 7.41 12.94 14.59
12/26/2022 12:30:00 PM 0.38 32.684 0.264 7.4 12.48 14.59
12/26/2022 12:45:00 PM 0.4 32.72 0.264 7.41 11.58 14.57
12/26/2022 1:00:00 PM 0.43 32.774 0.264 7.41 11.16 14.56
12/26/2022 1:15:00 PM 0.44 32.792 0.265 7.41 13.11 14.55
12/26/2022 1:30:00 PM 0.44 32.792 0.266 7.41 10.39 14.54
12/26/2022 1:45:00 PM 0.43 32.774 0.266 7.41 11.3 14.52
12/26/2022 2:00:00 PM 0.43 32.774 0.266 7.42 11.37 14.52
12/26/2022 2:15:00 PM 0.42 32.756 0.266 7.42 13.2 14.51
12/26/2022 2:30:00 PM 0.41 32.738 0.267 7.42 12.1 14.49
12/26/2022 2:45:00 PM 0.41 32.738 0.266 7.42 10.92 14.48
12/26/2022 3:00:00 PM 0.41 32.738 0.266 7.41 12.01 14.47
12/26/2022 3:15:00 PM 0.38 32.684 0.264 7.41 14.33 14.47
12/26/2022 3:30:00 PM 0.38 32.684 0.264 7.4 12.6 14.45
12/26/2022 3:45:00 PM 0.37 32.666 0.265 7.4 12.01 14.45
12/26/2022 4:00:00 PM 0.36 32.648 0.265 7.4 11.08 14.44
12/26/2022 4:15:00 PM 0.35 32.63 0.265 7.4 10.23 14.42
12/26/2022 4:30:00 PM 0.33 32.594 0.264 7.39 11.03 14.39
12/26/2022 4:45:00 PM 0.32 32.576 0.263 7.38 11.39 14.38
12/26/2022 5:00:00 PM 0.31 32.558 0.263 7.38 11.72 14.37
12/26/2022 5:15:00 PM 0.3 32.54 0.263 7.38 12.27 14.35
12/26/2022 5:30:00 PM 0.3 32.54 0.262 7.38 11.06 14.32
12/26/2022 5:45:00 PM 0.29 32.522 0.263 7.37 11.54 14.33
12/26/2022 6:00:00 PM 0.28 32.504 0.263 7.37 12.16 14.32
12/26/2022 6:15:00 PM 0.26 32.468 0.263 7.36 11.54 14.32
12/26/2022 6:30:00 PM 0.25 32.45 0.263 7.36 10.92 14.32
12/26/2022 6:45:00 PM 0.25 32.45 0.264 7.36 11.84 14.31
12/26/2022 7:00:00 PM 0.25 32.45 0.265 7.36 12.64 14.3
12/26/2022 7:15:00 PM 0.24 32.432 0.264 7.36 11.78 14.29
12/26/2022 7:30:00 PM 0.24 32.432 0.264 7.35 11.44 14.29
12/26/2022 7:45:00 PM 0.25 32.45 0.264 7.36 11.9 14.27
12/26/2022 8:00:00 PM 0.25 32.45 0.264 7.35 12.73 14.27
12/26/2022 8:15:00 PM 0.25 32.45 0.264 7.35 13.4 14.27
12/26/2022 8:30:00 PM 0.26 32.468 0.264 7.35 12.21 14.28
12/26/2022 8:45:00 PM 0.26 32.468 0.263 7.35 11.2 14.27
12/26/2022 9:00:00 PM 0.26 32.468 0.263 7.35 13.03 14.28
12/26/2022 9:15:00 PM 0.26 32.468 0.263 7.35 12.34 14.28
12/26/2022 9:30:00 PM 0.26 32.468 0.263 7.34 12.28 14.27
12/26/2022 9:45:00 PM 0.25 32.45 0.263 7.34 12.03 14.27
12/26/2022 10:00:00 PM 0.25 32.45 0.262 7.35 12.39 14.27
12/26/2022 10:15:00 PM 0.25 32.45 0.262 7.34 12.3 14.27
12/26/2022 10:30:00 PM 0.26 32.468 0.261 7.34 11.68 14.29
12/26/2022 10:45:00 PM 0.26 32.468 0.261 7.34 12.43 14.27
12/26/2022 11:00:00 PM 0.26 32.468 0.261 7.34 11.29 14.28
12/26/2022 11:15:00 PM 0.27 32.486 0.261 7.34 11.6 14.28
12/26/2022 11:30:00 PM 0.28 32.504 0.26 7.35 11.08 14.27
12/26/2022 11:45:00 PM 0.28 32.504 0.26 7.34 10.69 14.28
12/27/2022 12:00:00 AM 0.29 32.522 0.26 7.34 11.6 14.27
12/27/2022 12:15:00 AM 0.29 32.522 0.259 7.34 11.38 14.26
12/27/2022 12:30:00 AM 0.3 32.54 0.259 7.35 11.65 14.26
12/27/2022 12:45:00 AM 0.3 32.54 0.259 7.34 11.15 14.26
12/27/2022 1:00:00 AM 0.3 32.54 0.259 7.34 11.83 14.25
12/27/2022 1:15:00 AM 0.31 32.558 0.259 7.34 11.25 14.25
12/27/2022 1:30:00 AM 0.31 32.558 0.259 7.34 10.98 14.25
12/27/2022 1:45:00 AM 0.31 32.558 0.259 7.34 11.09 14.24
12/27/2022 2:00:00 AM 0.32 32.576 0.259 7.34 12.51 14.23
12/27/2022 2:15:00 AM 0.33 32.594 0.259 7.34 11.81 14.24
12/27/2022 2:30:00 AM 0.33 32.594 0.259 7.34 14.17 14.23
12/27/2022 2:45:00 AM 0.34 32.612 0.259 7.34 11.99 14.23
12/27/2022 3:00:00 AM 0.34 32.612 0.259 7.33 12.65 14.23
12/27/2022 3:15:00 AM 0.35 32.63 0.259 7.33 12.02 14.22
12/27/2022 3:30:00 AM 0.35 32.63 0.259 7.34 12.04 14.24
12/27/2022 3:45:00 AM 0.35 32.63 0.258 7.34 12.27 14.23
12/27/2022 4:00:00 AM 0.35 32.63 0.259 7.33 12.67 14.25
12/27/2022 4:15:00 AM 0.35 32.63 0.259 7.34 12.2 14.22
12/27/2022 4:30:00 AM 0.36 32.648 0.258 7.34 11.18 14.21
12/27/2022 4:45:00 AM 0.36 32.648 0.258 7.34 12.1 14.23
12/27/2022 5:00:00 AM 0.36 32.648 0.258 7.33 11.48 14.22
12/27/2022 5:15:00 AM 0.36 32.648 0.258 7.33 11.77 14.22
12/27/2022 5:30:00 AM 0.36 32.648 0.258 7.33 11.06 14.22
12/27/2022 5:45:00 AM 0.36 32.648 0.258 7.33 11.68 14.22
12/27/2022 6:00:00 AM 0.36 32.648 0.258 7.33 11.93 14.23
12/27/2022 6:15:00 AM 0.37 32.666 0.258 7.33 12.23 14.23
12/27/2022 6:30:00 AM 0.37 32.666 0.258 7.33 11.94 14.23
12/27/2022 6:45:00 AM 0.38 32.684 0.257 7.34 11.8 14.22
12/27/2022 7:00:00 AM 0.38 32.684 0.257 7.33 12.05 14.23
12/27/2022 7:15:00 AM 0.38 32.684 0.258 7.33 12.16 14.23
12/27/2022 7:30:00 AM 0.38 32.684 0.258 7.33 12.12 14.24
12/27/2022 7:45:00 AM 0.38 32.684 0.257 7.33 12.75 14.24
12/27/2022 8:00:00 AM 0.39 32.702 0.257 7.34 13.2 14.25
12/27/2022 8:15:00 AM 0.4 32.72 0.257 7.34 11.61 14.26
12/27/2022 8:30:00 AM 0.41 32.738 0.257 7.34 12.86 14.28
12/27/2022 8:45:00 AM 0.42 32.756 0.257 7.34 11.96 14.31
12/27/2022 9:00:00 AM 0.43 32.774 0.257 7.34 12.11 14.32
12/27/2022 9:15:00 AM 0.44 32.792 0.257 7.35 12.87 14.35
12/27/2022 9:30:00 AM 0.45 32.81 0.257 7.35 12.5 14.36
12/27/2022 9:45:00 AM 0.47 32.846 0.257 7.35 12.36 14.38
12/27/2022 10:00:00 AM 0.49 32.882 0.257 7.36 12.56 14.39
12/27/2022 10:15:00 AM 0.51 32.918 0.256 7.37 12.1 14.39
12/27/2022 10:30:00 AM 0.54 32.972 0.257 7.37 12.04 14.41
12/27/2022 10:45:00 AM 0.57 33.026 0.256 7.37 12.21 14.43
12/27/2022 11:00:00 AM 0.61 33.098 0.256 7.38 12.68 14.46
12/27/2022 11:15:00 AM 0.64 33.152 0.256 7.39 11.81 14.47
12/27/2022 11:30:00 AM 0.66 33.188 0.257 7.39 11.36 14.47
12/27/2022 11:45:00 AM 0.68 33.224 0.257 7.39 12.14 14.48
12/27/2022 12:00:00 PM 0.7 33.26 0.257 7.4 12.04 14.48
12/27/2022 12:15:00 PM 0.73 33.314 0.257 7.4 13.19 14.46
12/27/2022 12:30:00 PM 0.74 33.332 0.257 7.4 11.75 14.48
12/27/2022 12:45:00 PM 0.76 33.368 0.256 7.41 12.29 14.47
12/27/2022 1:00:00 PM 0.77 33.386 0.257 7.4 12.43 14.48
12/27/2022 1:15:00 PM 0.8 33.44 0.256 7.41 12.4 14.47
12/27/2022 1:30:00 PM 0.82 33.476 0.256 7.41 12.86 14.46
12/27/2022 1:45:00 PM 0.84 33.512 0.256 7.41 12.17 14.46
12/27/2022 2:00:00 PM 0.87 33.566 0.256 7.42 12.36 14.44
12/27/2022 2:15:00 PM 0.85 33.53 0.257 7.42 13.47 14.43
12/27/2022 2:30:00 PM 0.88 33.584 0.257 7.42 13.45 14.43
12/27/2022 2:45:00 PM 0.89 33.602 0.258 7.42 14 14.42
12/27/2022 3:00:00 PM 0.88 33.584 0.257 7.42 11.57 14.41
12/27/2022 3:15:00 PM 0.89 33.602 0.257 7.42 12.55 14.4
12/27/2022 3:30:00 PM 0.88 33.584 0.257 7.42 12.51 14.38
12/27/2022 3:45:00 PM 0.88 33.584 0.257 7.41 12.4 14.36
12/27/2022 4:00:00 PM 0.86 33.548 0.257 7.42 12.02 14.34
12/27/2022 4:15:00 PM 0.85 33.53 0.257 7.41 13.1 14.31
12/27/2022 4:30:00 PM 0.84 33.512 0.256 7.41 12.69 14.26
12/27/2022 4:45:00 PM 0.83 33.494 0.256 7.4 12.76 14.24
12/27/2022 5:00:00 PM 0.82 33.476 0.256 7.4 12.9 14.21
12/27/2022 5:15:00 PM 0.81 33.458 0.256 7.39 12.87 14.19
12/27/2022 5:30:00 PM 0.8 33.44 0.256 7.39 13.01 14.19
12/27/2022 5:45:00 PM 0.79 33.422 0.256 7.39 13.49 14.16
12/27/2022 6:00:00 PM 0.78 33.404 0.256 7.38 13.44 14.16
12/27/2022 6:15:00 PM 0.76 33.368 0.256 7.38 11.89 14.14
12/27/2022 6:30:00 PM 0.75 33.35 0.256 7.38 13.22 14.14
12/27/2022 6:45:00 PM 0.74 33.332 0.256 7.37 12.29 14.14
12/27/2022 7:00:00 PM 0.74 33.332 0.255 7.37 13.25 14.14
12/27/2022 7:15:00 PM 0.73 33.314 0.255 7.37 13.73 14.13
12/27/2022 7:30:00 PM 0.72 33.296 0.256 7.36 13.4 14.12
12/27/2022 7:45:00 PM 0.71 33.278 0.255 7.36 12.15 14.13
12/27/2022 8:00:00 PM 0.7 33.26 0.255 7.36 12.61 14.12
12/27/2022 8:15:00 PM 0.7 33.26 0.255 7.35 12.34 14.13
12/27/2022 8:30:00 PM 0.69 33.242 0.256 7.35 14.08 14.12
12/27/2022 8:45:00 PM 0.68 33.224 0.256 7.35 12.27 14.12
12/27/2022 9:00:00 PM 0.66 33.188 0.256 7.35 12.83 14.12
12/27/2022 9:15:00 PM 0.66 33.188 0.255 7.35 13.07 14.13
12/27/2022 9:30:00 PM 0.64 33.152 0.256 7.35 13.35 14.13
12/27/2022 9:45:00 PM 0.62 33.116 0.256 7.35 12.58 14.13
12/27/2022 10:00:00 PM 0.61 33.098 0.256 7.34 13.3 14.14
12/27/2022 10:15:00 PM 0.6 33.08 0.256 7.35 14.43 14.15
12/27/2022 10:30:00 PM 0.58 33.044 0.256 7.35 10.97 14.15
12/27/2022 10:45:00 PM 0.57 33.026 0.256 7.34 12.77 14.15
12/27/2022 11:00:00 PM 0.58 33.044 0.256 7.34 13.87 14.16
12/27/2022 11:15:00 PM 0.58 33.044 0.256 7.35 11.66 14.16
12/27/2022 11:30:00 PM 0.58 33.044 0.256 7.34 31.25 14.16
12/27/2022 11:45:00 PM 0.58 33.044 0.256 7.34 10.73 14.16
12/28/2022 12:00:00 AM 0.58 33.044 0.256 7.34 13.38 14.18
12/28/2022 12:15:00 AM 0.58 33.044 0.256 7.34 13.42 14.17
12/28/2022 12:30:00 AM 0.58 33.044 0.256 7.34 11.96 14.17
12/28/2022 12:45:00 AM 0.58 33.044 0.256 7.34 12.12 14.16
12/28/2022 1:00:00 AM 0.59 33.062 0.256 7.34 12.99 14.16
12/28/2022 1:15:00 AM 0.59 33.062 0.256 7.34 23.66 14.16
12/28/2022 1:30:00 AM 0.59 33.062 0.257 7.34 13.05 14.16
12/28/2022 1:45:00 AM 0.6 33.08 0.256 7.34 11.68 14.16
12/28/2022 2:00:00 AM 0.61 33.098 0.256 7.34 15.31 14.15
12/28/2022 2:15:00 AM 0.62 33.116 0.256 7.34 16.42 14.15
12/28/2022 2:30:00 AM 0.62 33.116 0.257 7.34 54.7 14.15
12/28/2022 2:45:00 AM 0.63 33.134 0.257 7.34 12.32 14.14
12/28/2022 3:00:00 AM 0.64 33.152 0.256 7.34 14.64 14.14
12/28/2022 3:15:00 AM 0.65 33.17 0.256 7.34 13.28 14.12
12/28/2022 3:30:00 AM 0.66 33.188 0.256 7.34 14.79 14.13
12/28/2022 3:45:00 AM 0.67 33.206 0.256 7.34 11.66 14.12
12/28/2022 4:00:00 AM 0.67 33.206 0.257 7.34 17.26 14.12
12/28/2022 4:15:00 AM 0.68 33.224 0.256 7.34 11.04 14.1
12/28/2022 4:30:00 AM 0.69 33.242 0.256 7.34 18.46 14.11
12/28/2022 4:45:00 AM 0.7 33.26 0.256 7.34 14.06 14.11
12/28/2022 5:00:00 AM 0.7 33.26 0.256 7.34 13.17 14.1
12/28/2022 5:15:00 AM 0.7 33.26 0.256 7.34 14.85 14.09
12/28/2022 5:30:00 AM 0.7 33.26 0.255 7.34 53.9 14.11
12/28/2022 5:45:00 AM 0.69 33.242 0.255 7.34 14.39 14.11
12/28/2022 6:00:00 AM 0.68 33.224 0.256 7.34 28.31 14.11
12/28/2022 6:15:00 AM 0.67 33.206 0.256 7.34 15.93 14.11
12/28/2022 6:30:00 AM 0.67 33.206 0.255 7.34 13.58 14.11
12/28/2022 6:45:00 AM 0.66 33.188 0.256 7.34 16.2 14.11
12/28/2022 7:00:00 AM 0.65 33.17 0.255 7.34 13.33 14.11
12/28/2022 7:15:00 AM 0.65 33.17 0.256 7.34 13.73 14.1
12/28/2022 7:30:00 AM 0.64 33.152 0.255 7.34 14.2 14.11
12/28/2022 7:45:00 AM 0.64 33.152 0.255 7.34 52.87 14.13
12/28/2022 8:00:00 AM 0.63 33.134 0.255 7.34 13.76 14.15
12/28/2022 8:15:00 AM 0.63 33.134 0.255 7.34 11.74 14.18
12/28/2022 8:30:00 AM 0.62 33.116 0.255 7.34 12.68 14.2
12/28/2022 8:45:00 AM 0.61 33.098 0.255 7.35 14.62 14.22
12/28/2022 9:00:00 AM 0.62 33.116 0.255 7.35 12.58 14.25
12/28/2022 9:15:00 AM 0.63 33.134 0.255 7.35 24.7 14.28
12/28/2022 9:30:00 AM 0.64 33.152 0.255 7.36 18.48 14.3
12/28/2022 9:45:00 AM 0.66 33.188 0.255 7.36 15.78 14.32
12/28/2022 10:00:00 AM 0.69 33.242 0.255 7.37 14.28 14.35
12/28/2022 10:15:00 AM 0.71 33.278 0.256 7.37 11.77 14.35
12/28/2022 10:30:00 AM 0.74 33.332 0.255 7.37 16.03 14.37
12/28/2022 10:45:00 AM 0.79 33.422 0.256 7.38 11.61 14.39
12/28/2022 11:00:00 AM 0.89 33.602 0.256 7.39 12.16 14.4
12/28/2022 11:15:00 AM 1 33.8 0.255 7.39 13.69 14.41
12/28/2022 11:30:00 AM 1.07 33.926 0.256 7.4 17 14.41
12/28/2022 11:45:00 AM 1.12 34.016 0.256 7.41 10.15 14.42
12/28/2022 12:00:00 PM 1.1 33.98 0.255 7.41 15.7 14.39
12/28/2022 12:15:00 PM 1.12 34.016 0.256 7.42 14.35 14.39
12/28/2022 12:30:00 PM 1.19 34.142 0.255 7.42 21.74 14.37
12/28/2022 12:45:00 PM 1.24 34.232 0.255 7.43 13.03 14.36
12/28/2022 1:00:00 PM 1.29 34.322 0.256 7.43 17.46 14.33
12/28/2022 1:15:00 PM 1.33 34.394 0.255 7.43 12.76 14.3
12/28/2022 1:30:00 PM 1.36 34.448 0.256 7.43 29.74 14.26
12/28/2022 1:45:00 PM 1.39 34.502 0.255 7.43 17.88 14.23
12/28/2022 2:00:00 PM 1.39 34.502 0.256 7.43 15.8 14.2
12/28/2022 2:15:00 PM 1.41 34.538 0.256 7.44 14.61 14.18
12/28/2022 2:30:00 PM 1.44 34.592 0.255 7.44 15.48 14.18
12/28/2022 2:45:00 PM 1.46 34.628 0.255 7.44 15.55 14.17
12/28/2022 3:00:00 PM 1.47 34.646 0.255 7.44 17.18 14.14
12/28/2022 3:15:00 PM 1.48 34.664 0.254 7.45 17 14.15
12/28/2022 3:30:00 PM 1.47 34.646 0.254 7.44 16.23 14.13
12/28/2022 3:45:00 PM 1.45 34.61 0.253 7.44 17.68 14.11
12/28/2022 4:00:00 PM 1.43 34.574 0.252 7.44 19.77 14.09
12/28/2022 4:15:00 PM 1.37 34.466 0.254 7.44 16.03 14.06
12/28/2022 4:30:00 PM 1.32 34.376 0.253 7.44 12.82 14.04
12/28/2022 4:45:00 PM 1.28 34.304 0.255 7.43 13.7 14.02
12/28/2022 5:00:00 PM 1.24 34.232 0.255 7.42 11.18 13.97
12/28/2022 5:15:00 PM 1.23 34.214 0.254 7.42 11.87 13.95
12/28/2022 5:30:00 PM 1.21 34.178 0.254 7.41 19.2 13.95
12/28/2022 5:45:00 PM 1.18 34.124 0.254 7.41 24.01 13.94
12/28/2022 6:00:00 PM 1.16 34.088 0.254 7.4 14.79 13.93
12/28/2022 6:15:00 PM 1.14 34.052 0.253 7.4 41.67 13.92
12/28/2022 6:30:00 PM 1.12 34.016 0.253 7.39 14.88 13.93
12/28/2022 6:45:00 PM 1.1 33.98 0.253 7.39 19.87 13.94
12/28/2022 7:00:00 PM 1.08 33.944 0.254 7.39 55.28 13.94
12/28/2022 7:15:00 PM 1.06 33.908 0.254 7.38 14.06 13.95
12/28/2022 7:30:00 PM 1.06 33.908 0.254 7.38 12.32 13.96
12/28/2022 7:45:00 PM 1.04 33.872 0.254 7.37 13.2 13.96
12/28/2022 8:00:00 PM 1.03 33.854 0.254 7.37 29.4 13.96
12/28/2022 8:15:00 PM 1.01 33.818 0.254 7.37 16.07 13.97
12/28/2022 8:30:00 PM 1 33.8 0.254 7.37 12.08 13.97
12/28/2022 8:45:00 PM 0.98 33.764 0.254 7.37 14.39 13.98
12/28/2022 9:00:00 PM 0.97 33.746 0.254 7.36 15.93 13.98
12/28/2022 9:15:00 PM 0.96 33.728 0.254 7.37 12.4 13.99
12/28/2022 9:30:00 PM 0.95 33.71 0.254 7.36 13.6 13.99
12/28/2022 9:45:00 PM 0.94 33.692 0.255 7.36 13.7 14.01
12/28/2022 10:00:00 PM 0.92 33.656 0.255 7.36 16.31 14.01
12/28/2022 10:15:00 PM 0.91 33.638 0.255 7.36 13.59 14.01
12/28/2022 10:30:00 PM 0.9 33.62 0.255 7.36 29.62 14.01
12/28/2022 10:45:00 PM 0.89 33.602 0.255 7.36 56.65 14.01
12/28/2022 11:00:00 PM 0.87 33.566 0.255 7.35 14.2 14.02
12/28/2022 11:15:00 PM 0.86 33.548 0.255 7.36 13.72 14.03
12/28/2022 11:30:00 PM 0.85 33.53 0.255 7.35 12.4 14.04
12/28/2022 11:45:00 PM 0.83 33.494 0.255 7.35 14.61 14.05
12/29/2022 12:00:00 AM 0.82 33.476 0.255 7.35 13.92 14.05
12/29/2022 12:15:00 AM 0.81 33.458 0.256 7.35 14.02 14.05
12/29/2022 12:30:00 AM 0.79 33.422 0.255 7.35 23.59 14.06
12/29/2022 12:45:00 AM 0.78 33.404 0.255 7.35 17.89 14.06
12/29/2022 1:00:00 AM 0.77 33.386 0.255 7.35 14.63 14.07
12/29/2022 1:15:00 AM 0.75 33.35 0.255 7.35 51.77 14.08
12/29/2022 1:30:00 AM 0.74 33.332 0.255 7.35 23.89 14.08
12/29/2022 1:45:00 AM 0.72 33.296 0.255 7.35 28.53 14.09
12/29/2022 2:00:00 AM 0.71 33.278 0.255 7.35 12.9 14.1
12/29/2022 2:15:00 AM 0.69 33.242 0.255 7.35 16.39 14.11
12/29/2022 2:30:00 AM 0.68 33.224 0.255 7.35 13.31 14.12
12/29/2022 2:45:00 AM 0.66 33.188 0.255 7.35 16.89 14.13
12/29/2022 3:00:00 AM 0.64 33.152 0.255 7.35 14.56 14.12
12/29/2022 3:15:00 AM 0.63 33.134 0.255 7.35 22.06 14.12
12/29/2022 3:30:00 AM 0.61 33.098 0.255 7.35 12.16 14.13
12/29/2022 3:45:00 AM 0.6 33.08 0.255 7.35 38.01 14.14
12/29/2022 4:00:00 AM 0.58 33.044 0.255 7.35 41.83 14.14
12/29/2022 4:15:00 AM 0.57 33.026 0.255 7.35 25.31 14.15
12/29/2022 4:30:00 AM 0.55 32.99 0.256 7.35 10.83 14.15
12/29/2022 4:45:00 AM 0.54 32.972 0.255 7.35 16.02 14.16
12/29/2022 5:00:00 AM 0.53 32.954 0.255 7.35 44.55 14.17
12/29/2022 5:15:00 AM 0.51 32.918 0.255 7.35 13.49 14.17
12/29/2022 5:30:00 AM 0.5 32.9 0.254 7.35 12.08 14.17
12/29/2022 5:45:00 AM 0.49 32.882 0.254 7.35 13.22 14.18
12/29/2022 6:00:00 AM 0.47 32.846 0.254 7.35 40.21 14.19
12/29/2022 6:15:00 AM 0.46 32.828 0.254 7.35 17.58 14.19
12/29/2022 6:30:00 AM 0.45 32.81 0.254 7.35 13.78 14.19
12/29/2022 6:45:00 AM 0.44 32.792 0.253 7.35 34.83 14.2
12/29/2022 7:00:00 AM 0.43 32.774 0.253 7.35 28.59 14.19
12/29/2022 7:15:00 AM 0.42 32.756 0.253 7.35 9.91 14.21
12/29/2022 7:30:00 AM 0.41 32.738 0.253 7.35 19.72 14.22
12/29/2022 7:45:00 AM 0.4 32.72 0.252 7.34 17.29 14.22
12/29/2022 8:00:00 AM 0.4 32.72 0.252 7.35 10.38 14.24
12/29/2022 8:15:00 AM 0.4 32.72 0.252 7.35 16 14.24
12/29/2022 8:30:00 AM 0.41 32.738 0.251 7.35 16.5 14.28
12/29/2022 8:45:00 AM 0.42 32.756 0.251 7.35 15.16 14.31
12/29/2022 9:00:00 AM 0.45 32.81 0.251 7.36 12.57 14.35
12/29/2022 9:15:00 AM 0.49 32.882 0.251 7.36 14.59 14.38
12/29/2022 9:30:00 AM 0.53 32.954 0.252 7.37 13.42 14.41
12/29/2022 9:45:00 AM 0.58 33.044 0.251 7.37 12.7 14.43
12/29/2022 10:00:00 AM 0.65 33.17 0.251 7.38 12.46 14.44
12/29/2022 10:15:00 AM 0.72 33.296 0.251 7.39 70.17 14.44
12/29/2022 10:30:00 AM 0.79 33.422 0.251 7.39 13.2 14.43
12/29/2022 10:45:00 AM 0.85 33.53 0.25 7.4 14.83 14.44
12/29/2022 11:00:00 AM 0.92 33.656 0.25 7.4 12.99 14.43
12/29/2022 11:15:00 AM 1 33.8 0.25 7.41 12.72 14.44
12/29/2022 11:30:00 AM 1.1 33.98 0.25 7.41 16.01 14.41
12/29/2022 11:45:00 AM 1.2 34.16 0.25 7.42 12.97 14.39
12/29/2022 12:00:00 PM 1.31 34.358 0.249 7.42 36.49 14.34
12/29/2022 12:15:00 PM 1.42 34.556 0.25 7.43 12.79 14.32
12/29/2022 12:30:00 PM 1.53 34.754 0.249 7.43 16.29 14.28
12/29/2022 12:45:00 PM 1.63 34.934 0.249 7.43 31.55 14.25
12/29/2022 1:00:00 PM 1.72 35.096 0.249 7.44 15.54 14.23
12/29/2022 1:15:00 PM 1.8 35.24 0.249 7.44 12.33 14.18
12/29/2022 1:30:00 PM 1.86 35.348 0.25 7.45 35.26 14.15
12/29/2022 1:45:00 PM 1.91 35.438 0.25 7.45 27.49 14.09
12/29/2022 2:00:00 PM 1.97 35.546 0.249 7.45 32.97 14.06
12/29/2022 2:15:00 PM 2.02 35.636 0.25 7.45 16.31 14.03
12/29/2022 2:30:00 PM 2.07 35.726 0.249 7.45 26.78 13.99
12/29/2022 2:45:00 PM 2.12 35.816 0.25 7.45 13.91 13.96
12/29/2022 3:00:00 PM 2.16 35.888 0.25 7.45 10.84 13.93
12/29/2022 3:15:00 PM 2.19 35.942 0.25 7.45 12.53 13.9
12/29/2022 3:30:00 PM 2.21 35.978 0.25 7.45 18.52 13.88
12/29/2022 3:45:00 PM 2.21 35.978 0.25 7.45 15.07 13.85
12/29/2022 4:00:00 PM 2.19 35.942 0.25 7.45 13.92 13.82
12/29/2022 4:15:00 PM 2.17 35.906 0.25 7.45 14.15 13.8
12/29/2022 4:30:00 PM 2.14 35.852 0.25 7.45 14.64 13.77
12/29/2022 4:45:00 PM 2.09 35.762 0.251 7.44 14.49 13.75
12/29/2022 5:00:00 PM 2.05 35.69 0.251 7.44 51.2 13.74
12/29/2022 5:15:00 PM 2.02 35.636 0.251 7.43 34.96 13.71
12/29/2022 5:30:00 PM 1.97 35.546 0.251 7.43 12.64 13.69
12/29/2022 5:45:00 PM 1.93 35.474 0.252 7.42 15.27 13.71
12/29/2022 6:00:00 PM 1.89 35.402 0.252 7.42 13.13 13.7
12/29/2022 6:15:00 PM 1.84 35.312 0.253 7.41 16.12 13.7
12/29/2022 6:30:00 PM 1.79 35.222 0.253 7.41 52.93 13.71
12/29/2022 6:45:00 PM 1.75 35.15 0.253 7.41 10.29 13.71
12/29/2022 7:00:00 PM 1.72 35.096 0.253 7.4 15.53 13.73
12/29/2022 7:15:00 PM 1.68 35.024 0.253 7.4 16.01 13.74
12/29/2022 7:30:00 PM 1.64 34.952 0.253 7.4 15.43 13.76
12/29/2022 7:45:00 PM 1.6 34.88 0.253 7.4 13.28 13.77
12/29/2022 8:00:00 PM 1.57 34.826 0.254 7.39 57.55 13.77
12/29/2022 8:15:00 PM 1.54 34.772 0.253 7.39 13.16 13.78
12/29/2022 8:30:00 PM 1.51 34.718 0.253 7.39 16.34 13.79
12/29/2022 8:45:00 PM 1.48 34.664 0.253 7.39 12.18 13.81
12/29/2022 9:00:00 PM 1.47 34.646 0.253 7.38 18.41 13.81
12/29/2022 9:15:00 PM 1.47 34.646 0.253 7.38 18.63 13.82
12/29/2022 9:30:00 PM 1.47 34.646 0.253 7.38 13.05 13.84
12/29/2022 9:45:00 PM 1.48 34.664 0.253 7.38 35.18 13.83
12/29/2022 10:00:00 PM 1.48 34.664 0.252 7.38 31.29 13.83
12/29/2022 10:15:00 PM 1.49 34.682 0.252 7.38 16.77 13.84
12/29/2022 10:30:00 PM 1.5 34.7 0.252 7.38 25.56 13.83
12/29/2022 10:45:00 PM 1.51 34.718 0.252 7.37 13.77 13.82
12/29/2022 11:00:00 PM 1.53 34.754 0.252 7.37 12.27 13.83
12/29/2022 11:15:00 PM 1.55 34.79 0.252 7.37 49.57 13.77
12/29/2022 11:30:00 PM 1.56 34.808 0.252 7.37 13 13.75
12/29/2022 11:45:00 PM 1.57 34.826 0.252 7.37 11.65 13.81
12/30/2022 12:00:00 AM 1.59 34.862 0.252 7.37 13.51 13.82
12/30/2022 12:15:00 AM 1.61 34.898 0.252 7.37 13.65 13.81
12/30/2022 12:30:00 AM 1.63 34.934 0.252 7.37 17.54 13.81
12/30/2022 12:45:00 AM 1.66 34.988 0.251 7.37 17.99 13.79
12/30/2022 1:00:00 AM 1.68 35.024 0.251 7.36 12.84 13.79
12/30/2022 1:15:00 AM 1.71 35.078 0.251 7.36 16.23 13.78
12/30/2022 1:30:00 AM 1.73 35.114 0.251 7.37 18.03 13.78
12/30/2022 1:45:00 AM 1.75 35.15 0.251 7.36 15.12 13.76
12/30/2022 2:00:00 AM 1.78 35.204 0.251 7.36 16.14 13.76
12/30/2022 2:15:00 AM 1.8 35.24 0.251 7.36 16.39 13.75
12/30/2022 2:30:00 AM 1.81 35.258 0.251 7.36 17.83 13.74
12/30/2022 2:45:00 AM 1.82 35.276 0.251 7.36 18.31 13.73
12/30/2022 3:00:00 AM 1.82 35.276 0.251 7.36 16.22 13.72
12/30/2022 3:15:00 AM 1.83 35.294 0.251 7.36 15.5 13.71
12/30/2022 3:30:00 AM 1.84 35.312 0.251 7.36 14.87 13.71
12/30/2022 3:45:00 AM 1.86 35.348 0.251 7.36 16.54 13.71
12/30/2022 4:00:00 AM 1.87 35.366 0.252 7.36 15.19 13.72
12/30/2022 4:15:00 AM 1.88 35.384 0.251 7.36 16.36 13.71
12/30/2022 4:30:00 AM 1.87 35.366 0.251 7.36 18.81 13.72
12/30/2022 4:45:00 AM 1.87 35.366 0.251 7.36 17.53 13.71
12/30/2022 5:00:00 AM 1.88 35.384 0.251 7.36 16.76 13.7
12/30/2022 5:15:00 AM 1.88 35.384 0.251 7.36 18.37 13.7
12/30/2022 5:30:00 AM 1.89 35.402 0.252 7.36 13.22 13.7
12/30/2022 5:45:00 AM 1.89 35.402 0.247 7.36 15.47 13.71
12/30/2022 6:00:00 AM 1.89 35.402 0.25 7.36 16.4 13.69
12/30/2022 6:15:00 AM 1.88 35.384 0.245 7.36 17.79 13.69
12/30/2022 6:30:00 AM 1.89 35.402 0.251 7.36 15.39 13.68
12/30/2022 6:45:00 AM 1.89 35.402 0.251 7.36 16.67 13.69
12/30/2022 7:00:00 AM 1.9 35.42 0.251 7.36 17.19 13.7
12/30/2022 7:15:00 AM 1.9 35.42 0.25 7.36 17.09 13.7
12/30/2022 7:30:00 AM 1.9 35.42 0.25 7.36 14.88 13.69
12/30/2022 7:45:00 AM 1.91 35.438 0.25 7.36 16.34 13.69
12/30/2022 8:00:00 AM 1.92 35.456 0.249 7.36 16.75 13.71
12/30/2022 8:15:00 AM 1.94 35.492 0.249 7.36 17.91 13.71
12/30/2022 8:30:00 AM 1.95 35.51 0.249 7.36 16.55 13.72
12/30/2022 8:45:00 AM 1.97 35.546 0.249 7.36 16.7 13.77
12/30/2022 9:00:00 AM 1.98 35.564 0.249 7.37 16.1 13.8
12/30/2022 9:15:00 AM 2 35.6 0.248 7.37 18.72 13.81
12/30/2022 9:30:00 AM 2.07 35.726 0.248 7.38 20.2 13.86
12/30/2022 9:45:00 AM 2.12 35.816 0.248 7.39 13.87 13.88
12/30/2022 10:00:00 AM 2.18 35.924 0.248 7.39 15.21 13.89
12/30/2022 10:15:00 AM 2.24 36.032 0.248 7.4 16.96 13.94
12/30/2022 10:30:00 AM 2.31 36.158 0.248 7.41 15.86 13.95
12/30/2022 10:45:00 AM 2.38 36.284 0.248 7.42 17.25 13.97
12/30/2022 11:00:00 AM 2.44 36.392 0.247 7.43 15.11 13.98
12/30/2022 11:15:00 AM 2.5 36.5 0.247 7.43 15.06 13.97
12/30/2022 11:30:00 AM 2.55 36.59 0.247 7.44 17.52 13.98
12/30/2022 11:45:00 AM 2.62 36.716 0.247 7.44 16.93 13.97
12/30/2022 12:00:00 PM 2.69 36.842 0.247 7.45 16.94 13.97
12/30/2022 12:15:00 PM 2.76 36.968 0.247 7.46 12.66 13.92
12/30/2022 12:30:00 PM 2.81 37.058 0.247 7.47 17.16 13.91
12/30/2022 12:45:00 PM 2.88 37.184 0.247 7.47 18.33 13.93
12/30/2022 1:00:00 PM 2.94 37.292 0.247 7.47 15.48 13.89
12/30/2022 1:15:00 PM 3.01 37.418 0.247 7.48 14.89 13.86
12/30/2022 1:30:00 PM 3.07 37.526 0.247 7.48 13.79 13.86
12/30/2022 1:45:00 PM 3.13 37.634 0.247 7.49 16.85 13.83
12/30/2022 2:00:00 PM 3.17 37.706 0.247 7.49 15.2 13.81
12/30/2022 2:15:00 PM 3.17 37.706 0.247 7.49 50.87 13.78
12/30/2022 2:30:00 PM 3.16 37.688 0.248 7.5 54.19 13.75
12/30/2022 2:45:00 PM 3.19 37.742 0.248 7.5 23.96 13.73
12/30/2022 3:00:00 PM 3.23 37.814 0.249 7.5 16.41 13.71
12/30/2022 3:15:00 PM 3.24 37.832 0.249 7.5 17.53 13.69
12/30/2022 3:30:00 PM 3.24 37.832 0.249 7.5 15.17 13.66
12/30/2022 3:45:00 PM 3.24 37.832 0.249 7.5 14.82 13.62
12/30/2022 4:00:00 PM 3.22 37.796 0.25 7.5 15.6 13.58
12/30/2022 4:15:00 PM 3.19 37.742 0.25 7.5 24.66 13.54
12/30/2022 4:30:00 PM 3.15 37.67 0.25 7.49 12.7 13.51
12/30/2022 4:45:00 PM 3.1 37.58 0.251 7.48 16.78 13.47
12/30/2022 5:00:00 PM 3.04 37.472 0.251 7.48 17.71 13.43
12/30/2022 5:15:00 PM 2.97 37.346 0.251 7.47 15.77 13.41
12/30/2022 5:30:00 PM 2.9 37.22 0.251 7.45 15.77 13.41
12/30/2022 5:45:00 PM 2.83 37.094 0.252 7.45 16.79 13.41
12/30/2022 6:00:00 PM 2.75 36.95 0.253 7.44 33.94 13.4
12/30/2022 6:15:00 PM 2.67 36.806 0.253 7.44 472.54 13.42
12/30/2022 6:30:00 PM 2.59 36.662 0.253 7.42 13.91 13.45
12/30/2022 6:45:00 PM 2.51 36.518 0.254 7.43 13.97 13.45
12/30/2022 7:00:00 PM 2.44 36.392 0.247 7.42 12.71 13.48
12/30/2022 7:15:00 PM 2.37 36.266 0.251 7.42 12.42 13.52
12/30/2022 7:30:00 PM 2.3 36.14 0.242 7.41 12.67 13.54
12/30/2022 7:45:00 PM 2.24 36.032 0.236 7.41 13.12 13.56
12/30/2022 8:00:00 PM 2.18 35.924 0.243 7.4 13.86 13.58
12/30/2022 8:15:00 PM 2.14 35.852 0.257 7.4 13.2 13.6
12/30/2022 8:30:00 PM 2.09 35.762 0.254 7.4 12.62 13.61
12/30/2022 8:45:00 PM 2.06 35.708 0.256 7.39 13.01 13.62
12/30/2022 9:00:00 PM 2.03 35.654 0.258 7.4 12.89 13.64
12/30/2022 9:15:00 PM 2 35.6 0.257 7.39 13.09 13.66
12/30/2022 9:30:00 PM 1.97 35.546 0.257 7.39 13.34 13.67
12/30/2022 9:45:00 PM 1.94 35.492 0.257 7.39 13.68 13.67
12/30/2022 10:00:00 PM 1.92 35.456 0.256 7.39 12.38 13.68
12/30/2022 10:15:00 PM 1.89 35.402 0.257 7.39 14.36 13.7
12/30/2022 10:30:00 PM 1.87 35.366 0.256 7.39 13.49 13.7
12/30/2022 10:45:00 PM 1.85 35.33 0.256 7.39 13.19 13.71
12/30/2022 11:00:00 PM 1.83 35.294 0.253 7.39 13.25 13.72
12/30/2022 11:15:00 PM 1.81 35.258 0.255 7.38 13.43 13.73
12/30/2022 11:30:00 PM 1.79 35.222 0.254 7.38 14.26 13.74
12/30/2022 11:45:00 PM 1.77 35.186 0.252 7.38 13.28 13.74
12/31/2022 12:00:00 AM 1.75 35.15 0.251 7.38 14.13 13.76
12/31/2022 12:15:00 AM 1.74 35.132 0.249 7.38 13.74 13.75
12/31/2022 12:30:00 AM 1.72 35.096 0.246 7.37 14.33 13.76
12/31/2022 12:45:00 AM 1.71 35.078 0.252 7.37 11.9 13.76
12/31/2022 1:00:00 AM 1.69 35.042 0.251 7.37 13.05 13.77
12/31/2022 1:15:00 AM 1.68 35.024 0.251 7.37 14.33 13.79
12/31/2022 1:30:00 AM 1.67 35.006 0.251 7.37 12.3 13.77
12/31/2022 1:45:00 AM 1.66 34.988 0.25 7.37 14.03 13.79
12/31/2022 2:00:00 AM 1.66 34.988 0.25 7.36 12.8 13.78
12/31/2022 2:15:00 AM 1.66 34.988 0.241 7.37 14.89 13.77
12/31/2022 2:30:00 AM 1.65 34.97 0.248 7.36 12.9 13.77
12/31/2022 2:45:00 AM 1.65 34.97 0.233 7.37 13.72 13.77
12/31/2022 3:00:00 AM 1.65 34.97 0.228 7.36 13.52 13.78
12/31/2022 3:15:00 AM 1.65 34.97 0.243 7.37 11.88 13.78
12/31/2022 3:30:00 AM 1.65 34.97 0.235 7.36 12.99 13.79
12/31/2022 3:45:00 AM 1.66 34.988 0.244 7.36 14.18 13.78
12/31/2022 4:00:00 AM 1.66 34.988 0.246 7.36 13.79 13.76
12/31/2022 4:15:00 AM 1.66 34.988 0.242 7.36 16.27 13.78
12/31/2022 4:30:00 AM 1.67 35.006 0.242 7.37 14.38 13.78
12/31/2022 4:45:00 AM 1.68 35.024 0.244 7.36 14.1 13.78
12/31/2022 5:00:00 AM 1.7 35.06 0.247 7.36 13.66 13.75
12/31/2022 5:15:00 AM 1.71 35.078 0.247 7.36 13.92 13.75
12/31/2022 5:30:00 AM 1.73 35.114 0.247 7.36 13.66 13.74
12/31/2022 5:45:00 AM 1.75 35.15 0.247 7.36 13.4 13.74
12/31/2022 6:00:00 AM 1.77 35.186 0.247 7.36 13.57 13.74
12/31/2022 6:15:00 AM 1.79 35.222 0.247 7.36 14.24 13.73
12/31/2022 6:30:00 AM 1.81 35.258 0.247 7.36 13.42 13.73
12/31/2022 6:45:00 AM 1.82 35.276 0.247 7.36 14.01 13.71
12/31/2022 7:00:00 AM 1.84 35.312 0.247 7.36 13.91 13.71
12/31/2022 7:15:00 AM 1.85 35.33 0.247 7.36 13.36 13.71
12/31/2022 7:30:00 AM 1.86 35.348 0.246 7.36 13.64 13.7
12/31/2022 7:45:00 AM 1.88 35.384 0.246 7.36 14.93 13.7
12/31/2022 8:00:00 AM 1.89 35.402 0.246 7.36 13.99 13.7
12/31/2022 8:15:00 AM 1.91 35.438 0.246 7.36 14.59 13.71
12/31/2022 8:30:00 AM 1.93 35.474 0.246 7.36 13.74 13.72
12/31/2022 8:45:00 AM 1.96 35.528 0.246 7.36 13.42 13.72
12/31/2022 9:00:00 AM 1.98 35.564 0.246 7.37 13.51 13.73
12/31/2022 9:15:00 AM 2 35.6 0.246 7.37 13.47 13.73
12/31/2022 9:30:00 AM 2.03 35.654 0.245 7.37 14.49 13.74
12/31/2022 9:45:00 AM 2.05 35.69 0.246 7.38 13.77 13.76
12/31/2022 10:00:00 AM 2.08 35.744 0.246 7.38 14.49 13.76
12/31/2022 10:15:00 AM 2.1 35.78 0.246 7.38 15.96 13.77
12/31/2022 10:30:00 AM 2.14 35.852 0.246 7.38 14.48 13.78
12/31/2022 10:45:00 AM 2.18 35.924 0.245 7.39 13.85 13.8
12/31/2022 11:00:00 AM 2.22 35.996 0.245 7.39 15.44 13.81
12/31/2022 11:15:00 AM 2.26 36.068 0.245 7.4 15.14 13.82
12/31/2022 11:30:00 AM 2.3 36.14 0.245 7.41 14.88 13.83
12/31/2022 11:45:00 AM 2.32 36.176 0.245 7.42 15.95 13.82
12/31/2022 12:00:00 PM 2.35 36.23 0.246 7.42 16.73 13.8
12/31/2022 12:15:00 PM 2.39 36.302 0.245 7.42 12.3 13.79
12/31/2022 12:30:00 PM 2.41 36.338 0.245 7.41 13.75 13.77
12/31/2022 12:45:00 PM 2.43 36.374 0.246 7.42 15.62 13.73
12/31/2022 1:00:00 PM 2.45 36.41 0.246 7.42 14.46 13.71
12/31/2022 1:15:00 PM 2.48 36.464 0.246 7.42 13.79 13.69
12/31/2022 1:30:00 PM 2.51 36.518 0.246 7.42 14.33 13.69
12/31/2022 1:45:00 PM 2.54 36.572 0.246 7.43 13.58 13.69
12/31/2022 2:00:00 PM 2.56 36.608 0.246 7.43 14.6 13.7
12/31/2022 2:15:00 PM 2.58 36.644 0.246 7.43 15 13.65
12/31/2022 2:30:00 PM 2.6 36.68 0.246 7.43 16.77 13.62
12/31/2022 2:45:00 PM 2.61 36.698 0.247 7.43 15.84 13.61
12/31/2022 3:00:00 PM 2.61 36.698 0.247 7.43 15.14 13.59
12/31/2022 3:15:00 PM 2.62 36.716 0.247 7.43 16.66 13.56
12/31/2022 3:30:00 PM 2.62 36.716 0.247 7.43 16.39 13.54
12/31/2022 3:45:00 PM 2.63 36.734 0.247 7.43 14.35 13.52
12/31/2022 4:00:00 PM 2.63 36.734 0.248 7.42 13.59 13.48
12/31/2022 4:15:00 PM 2.62 36.716 0.248 7.41 13.65 13.49
12/31/2022 4:30:00 PM 2.62 36.716 0.248 7.41 14.7 13.47
12/31/2022 4:45:00 PM 2.61 36.698 0.248 7.41 13.62 13.45
12/31/2022 5:00:00 PM 2.6 36.68 0.249 7.41 13.17 13.44
12/31/2022 5:15:00 PM 2.59 36.662 0.249 7.4 13.5 13.38
12/31/2022 5:30:00 PM 2.58 36.644 0.249 7.41 13.25 13.41
12/31/2022 5:45:00 PM 2.57 36.626 0.249 7.4 13.28 13.42
12/31/2022 6:00:00 PM 2.56 36.608 0.249 7.4 14.76 13.4
12/31/2022 6:15:00 PM 2.55 36.59 0.25 7.4 15.43 13.4
12/31/2022 6:30:00 PM 2.54 36.572 0.25 7.39 14.79 13.39
12/31/2022 6:45:00 PM 2.53 36.554 0.25 7.39 13.39 13.38
12/31/2022 7:00:00 PM 2.52 36.536 0.25 7.38 13.43 13.39
12/31/2022 7:15:00 PM 2.52 36.536 0.25 7.38 14.49 13.4
12/31/2022 7:30:00 PM 2.51 36.518 0.25 7.38 12.53 13.38
12/31/2022 7:45:00 PM 2.5 36.5 0.25 7.38 13.93 13.39
12/31/2022 8:00:00 PM 2.5 36.5 0.25 7.38 15.85 13.38
12/31/2022 8:15:00 PM 2.5 36.5 0.25 7.38 13.22 13.38
12/31/2022 8:30:00 PM 2.5 36.5 0.25 7.38 14.61 13.39
12/31/2022 8:45:00 PM 2.49 36.482 0.25 7.38 13.39 13.4
12/31/2022 9:00:00 PM 2.5 36.5 0.25 7.38 13.81 13.4
12/31/2022 9:15:00 PM 2.5 36.5 0.249 7.38 14.2 13.4
12/31/2022 9:30:00 PM 2.5 36.5 0.25 7.38 13.73 13.38
12/31/2022 9:45:00 PM 2.5 36.5 0.251 7.38 13.7 13.4
12/31/2022 10:00:00 PM 2.49 36.482 0.252 7.37 14.17 13.39
12/31/2022 10:15:00 PM 2.5 36.5 0.251 7.36 15.38 13.39
12/31/2022 10:30:00 PM 2.51 36.518 0.252 7.37 13.21 13.39
12/31/2022 10:45:00 PM 2.51 36.518 0.253 7.37 13.1 13.38
12/31/2022 11:00:00 PM 2.51 36.518 0.252 7.37 14.81 13.37
12/31/2022 11:15:00 PM 2.5 36.5 0.252 7.38 14.57 13.37
12/31/2022 11:30:00 PM 2.5 36.5 0.252 7.37 15.26 13.37
12/31/2022 11:45:00 PM 2.49 36.482 0.253 7.37 15.52 13.37
1/1/2023 12:00:00 AM 2.47 36.446 0.254 7.37 13.64 13.38
1/1/2023 12:15:00 AM 2.46 36.428 0.254 7.37 13.77 13.39
1/1/2023 12:30:00 AM 2.44 36.392 0.254 7.37 15.23 13.39
1/1/2023 12:45:00 AM 2.43 36.374 0.255 7.37 15.66 13.4
1/1/2023 1:00:00 AM 2.41 36.338 0.255 7.37 14.74 13.4
1/1/2023 1:15:00 AM 2.39 36.302 0.246 7.36 14.91 13.41
1/1/2023 1:30:00 AM 2.38 36.284 0.236 7.36 15.54 13.41
1/1/2023 1:45:00 AM 2.37 36.266 0.227 7.36 14.07 13.41
1/1/2023 2:00:00 AM 2.35 36.23 0.233 7.37 13.59 13.42
1/1/2023 2:15:00 AM 2.32 36.176 0.236 7.36 13.91 13.44
1/1/2023 2:30:00 AM 2.3 36.14 0.239 7.36 14.89 13.44
1/1/2023 2:45:00 AM 2.26 36.068 0.243 7.36 14.32 13.46
1/1/2023 3:00:00 AM 2.24 36.032 0.247 7.36 15.13 13.46
1/1/2023 3:15:00 AM 2.21 35.978 0.249 7.36 14.45 13.47
1/1/2023 3:30:00 AM 2.19 35.942 0.239 7.36 14.23 13.48
1/1/2023 3:45:00 AM 2.16 35.888 0.225 7.36 15.2 13.5
1/1/2023 4:00:00 AM 2.13 35.834 0.237 7.36 13.39 13.5
1/1/2023 4:15:00 AM 2.11 35.798 0.245 7.36 13.85 13.52
1/1/2023 4:30:00 AM 2.08 35.744 0.244 7.36 15.53 13.53
1/1/2023 4:45:00 AM 2.05 35.69 0.24 7.36 13.15 13.54
1/1/2023 5:00:00 AM 2.02 35.636 0.249 7.36 11.17 13.56
1/1/2023 5:15:00 AM 1.99 35.582 0.244 7.35 14.42 13.57
1/1/2023 5:30:00 AM 1.97 35.546 0.25 7.36 18.45 13.58
1/1/2023 5:45:00 AM 1.95 35.51 0.25 7.36 14.36 13.59
1/1/2023 6:00:00 AM 1.92 35.456 0.25 7.35 12.74 13.6
1/1/2023 6:15:00 AM 1.9 35.42 0.249 7.35 12.98 13.61
1/1/2023 6:30:00 AM 1.88 35.384 0.248 7.36 13.2 13.62
1/1/2023 6:45:00 AM 1.86 35.348 0.248 7.36 12.64 13.62
1/1/2023 7:00:00 AM 1.85 35.33 0.248 7.35 13.23 13.63
1/1/2023 7:15:00 AM 1.85 35.33 0.247 7.36 12.76 13.64
1/1/2023 7:30:00 AM 1.84 35.312 0.247 7.36 13.03 13.66
1/1/2023 7:45:00 AM 1.84 35.312 0.248 7.36 13.09 13.67
1/1/2023 8:00:00 AM 1.84 35.312 0.248 7.36 13.31 13.68
1/1/2023 8:15:00 AM 1.84 35.312 0.248 7.37 13.41 13.7
1/1/2023 8:30:00 AM 1.85 35.33 0.248 7.37 12.97 13.73
1/1/2023 8:45:00 AM 1.86 35.348 0.248 7.38 13.56 13.76
1/1/2023 9:00:00 AM 1.89 35.402 0.248 7.38 13.32 13.8
1/1/2023 9:15:00 AM 1.92 35.456 0.248 7.39 11.58 13.83
1/1/2023 9:30:00 AM 1.96 35.528 0.248 7.4 13.2 13.86
1/1/2023 9:45:00 AM 1.99 35.582 0.247 7.4 13.07 13.88
1/1/2023 10:00:00 AM 2.04 35.672 0.247 7.42 13.5 13.9
1/1/2023 10:15:00 AM 2.06 35.708 0.247 7.42 14.4 13.91
1/1/2023 10:30:00 AM 2.1 35.78 0.247 7.43 13.35 13.92
1/1/2023 10:45:00 AM 2.15 35.87 0.246 7.44 13.22 13.94
1/1/2023 11:00:00 AM 2.23 36.014 0.246 7.45 13 13.94
1/1/2023 11:15:00 AM 2.29 36.122 0.246 7.45 12.05 13.94
1/1/2023 11:30:00 AM 2.32 36.176 0.246 7.46 13.48 13.93
1/1/2023 11:45:00 AM 2.38 36.284 0.246 7.47 13.05 13.91
1/1/2023 12:00:00 PM 2.44 36.392 0.245 7.47 11.9 13.9
1/1/2023 12:15:00 PM 2.5 36.5 0.245 7.47 12.15 13.9
1/1/2023 12:30:00 PM 2.56 36.608 0.245 7.48 14.9 13.89
1/1/2023 12:45:00 PM 2.61 36.698 0.245 7.48 13.4 13.87
1/1/2023 1:00:00 PM 2.65 36.77 0.245 7.49 11.79 13.88
1/1/2023 1:15:00 PM 2.67 36.806 0.246 7.48 12.27 13.85
1/1/2023 1:30:00 PM 2.7 36.86 0.245 7.5 12.27 13.85
1/1/2023 1:45:00 PM 2.71 36.878 0.245 7.5 12.48 13.83
1/1/2023 2:00:00 PM 2.75 36.95 0.245 7.49 13.09 13.83
1/1/2023 2:15:00 PM 2.77 36.986 0.245 7.5 13.41 13.81
1/1/2023 2:30:00 PM 2.78 37.004 0.246 7.5 12.75 13.81
1/1/2023 2:45:00 PM 2.78 37.004 0.246 7.5 13.74 13.78
1/1/2023 3:00:00 PM 2.77 36.986 0.245 7.5 13.83 13.77
1/1/2023 3:15:00 PM 2.76 36.968 0.246 7.5 12.57 13.74
1/1/2023 3:30:00 PM 2.74 36.932 0.246 7.5 13.59 13.71
1/1/2023 3:45:00 PM 2.71 36.878 0.246 7.49 12.66 13.7
1/1/2023 4:00:00 PM 2.69 36.842 0.246 7.49 13.73 13.68
1/1/2023 4:15:00 PM 2.68 36.824 0.245 7.47 12.68 13.66
1/1/2023 4:30:00 PM 2.65 36.77 0.245 7.48 14.56 13.62
1/1/2023 4:45:00 PM 2.62 36.716 0.244 7.46 12.63 13.6
1/1/2023 5:00:00 PM 2.58 36.644 0.245 7.46 15.33 13.57
1/1/2023 5:15:00 PM 2.54 36.572 0.246 7.45 13.04 13.56
1/1/2023 5:30:00 PM 2.51 36.518 0.246 7.45 13.5 13.53
1/1/2023 5:45:00 PM 2.48 36.464 0.246 7.44 15.21 13.53
1/1/2023 6:00:00 PM 2.46 36.428 0.244 7.43 13.5 13.52
1/1/2023 6:15:00 PM 2.43 36.374 0.233 7.43 14.27 13.51
1/1/2023 6:30:00 PM 2.41 36.338 0.232 7.41 13.38 13.51
1/1/2023 6:45:00 PM 2.39 36.302 0.232 7.41 14.31 13.52
1/1/2023 7:00:00 PM 2.38 36.284 0.235 7.41 13.63 13.51
1/1/2023 7:15:00 PM 2.37 36.266 0.235 7.41 12.8 13.52
1/1/2023 7:30:00 PM 2.37 36.266 0.235 7.4 13.13 13.52
1/1/2023 7:45:00 PM 2.36 36.248 0.234 7.4 13.65 13.51
1/1/2023 8:00:00 PM 2.36 36.248 0.233 7.39 15.25 13.52
1/1/2023 8:15:00 PM 2.35 36.23 0.228 7.39 13.7 13.52
1/1/2023 8:30:00 PM 2.35 36.23 0.232 7.39 12.98 13.52
1/1/2023 8:45:00 PM 2.35 36.23 0.234 7.38 13.54 13.52
1/1/2023 9:00:00 PM 2.35 36.23 0.236 7.39 12.87 13.52
1/1/2023 9:15:00 PM 2.35 36.23 0.237 7.38 13.8 13.53
1/1/2023 9:30:00 PM 2.34 36.212 0.237 7.38 13.61 13.53
1/1/2023 9:45:00 PM 2.34 36.212 0.237 7.38 12.77 13.53
1/1/2023 10:00:00 PM 2.34 36.212 0.237 7.37 13.69 13.52
1/1/2023 10:15:00 PM 2.34 36.212 0.238 7.38 16.02 13.53
1/1/2023 10:30:00 PM 2.34 36.212 0.239 7.38 14 13.53
1/1/2023 10:45:00 PM 2.34 36.212 0.24 7.37 13.6 13.53
1/1/2023 11:00:00 PM 2.33 36.194 0.241 7.37 15.15 13.53
1/1/2023 11:15:00 PM 2.33 36.194 0.237 7.37 14.01 13.53
1/1/2023 11:30:00 PM 2.32 36.176 0.236 7.37 13.05 13.54
1/1/2023 11:45:00 PM 2.32 36.176 0.236 7.36 15.11 13.54
1/2/2023 12:00:00 AM 2.31 36.158 0.237 7.36 13.77 13.54
1/2/2023 12:15:00 AM 2.31 36.158 0.243 7.37 14.23 13.54
1/2/2023 12:30:00 AM 2.31 36.158 0.245 7.36 14.17 13.54
1/2/2023 12:45:00 AM 2.3 36.14 0.228 7.36 13.26 13.54
1/2/2023 1:00:00 AM 2.29 36.122 0.227 7.37 14.47 13.55
1/2/2023 1:15:00 AM 2.28 36.104 0.227 7.36 14.18 13.55
1/2/2023 1:30:00 AM 2.27 36.086 0.227 7.36 13.89 13.54
1/2/2023 1:45:00 AM 2.26 36.068 0.227 7.36 14.21 13.55
1/2/2023 2:00:00 AM 2.25 36.05 0.227 7.35 15.09 13.56
1/2/2023 2:15:00 AM 2.22 35.996 0.227 7.36 12.95 13.57
1/2/2023 2:30:00 AM 2.2 35.96 0.228 7.35 13.64 13.57
1/2/2023 2:45:00 AM 2.18 35.924 0.228 7.36 14.34 13.58
1/2/2023 3:00:00 AM 2.16 35.888 0.237 7.35 13.67 13.58
1/2/2023 3:15:00 AM 2.15 35.87 0.222 7.35 14.79 13.59
1/2/2023 3:30:00 AM 2.13 35.834 0.235 7.36 13.92 13.6
1/2/2023 3:45:00 AM 2.12 35.816 0.242 7.36 14.38 13.6
1/2/2023 4:00:00 AM 2.11 35.798 0.243 7.36 15.97 13.61
1/2/2023 4:15:00 AM 2.1 35.78 0.243 7.36 13.15 13.61
1/2/2023 4:30:00 AM 2.09 35.762 0.243 7.36 14.85 13.61
1/2/2023 4:45:00 AM 2.08 35.744 0.243 7.35 13.98 13.62
1/2/2023 5:00:00 AM 2.07 35.726 0.243 7.36 13.8 13.63
1/2/2023 5:15:00 AM 2.06 35.708 0.243 7.36 14.65 13.64
1/2/2023 5:30:00 AM 2.06 35.708 0.242 7.36 13.75 13.64
1/2/2023 5:45:00 AM 2.06 35.708 0.242 7.35 13.55 13.64
1/2/2023 6:00:00 AM 2.06 35.708 0.242 7.36 12.65 13.63
1/2/2023 6:15:00 AM 2.06 35.708 0.242 7.35 14.62 13.64
1/2/2023 6:30:00 AM 2.06 35.708 0.242 7.36 13.34 13.65
1/2/2023 6:45:00 AM 2.07 35.726 0.242 7.35 14.43 13.65
1/2/2023 7:00:00 AM 2.07 35.726 0.242 7.36 15.32 13.64
1/2/2023 7:15:00 AM 2.07 35.726 0.242 7.36 11.79 13.65
1/2/2023 7:30:00 AM 2.06 35.708 0.242 7.36 14.24 13.66
1/2/2023 7:45:00 AM 2.05 35.69 0.242 7.35 14.22 13.67
1/2/2023 8:00:00 AM 2.05 35.69 0.242 7.36 13.53 13.68
1/2/2023 8:15:00 AM 2.06 35.708 0.241 7.36 13.82 13.7
1/2/2023 8:30:00 AM 2.06 35.708 0.241 7.37 14.42 13.74
1/2/2023 8:45:00 AM 2.08 35.744 0.241 7.36 14.75 13.76
1/2/2023 9:00:00 AM 2.09 35.762 0.241 7.38 14.88 13.81
1/2/2023 9:15:00 AM 2.1 35.78 0.241 7.38 14.31 13.83
1/2/2023 9:30:00 AM 2.11 35.798 0.241 7.38 13.6 13.84
1/2/2023 9:45:00 AM 2.14 35.852 0.241 7.4 13.45 13.87
1/2/2023 10:00:00 AM 2.15 35.87 0.241 7.4 15.45 13.89
1/2/2023 10:15:00 AM 2.19 35.942 0.241 7.41 14.65 13.92
1/2/2023 10:30:00 AM 2.25 36.05 0.241 7.42 13.35 13.95
1/2/2023 10:45:00 AM 2.28 36.104 0.241 7.43 16 13.95
1/2/2023 11:00:00 AM 2.36 36.248 0.241 7.44 14.35 13.96
1/2/2023 11:15:00 AM 2.4 36.32 0.241 7.45 13.33 13.96
1/2/2023 11:30:00 AM 2.43 36.374 0.241 7.46 13.01 13.95
1/2/2023 11:45:00 AM 2.49 36.482 0.241 7.46 12.87 13.94
1/2/2023 12:00:00 PM 2.57 36.626 0.241 7.47 14 13.94
1/2/2023 12:15:00 PM 2.63 36.734 0.241 7.48 13.9 13.93
1/2/2023 12:30:00 PM 2.68 36.824 0.24 7.48 13.67 13.93
1/2/2023 12:45:00 PM 2.72 36.896 0.24 7.49 13.13 13.9
1/2/2023 1:00:00 PM 2.8 37.04 0.24 7.49 13.92 13.87
1/2/2023 1:15:00 PM 2.86 37.148 0.24 7.5 14.07 13.83
1/2/2023 1:30:00 PM 2.92 37.256 0.24 7.5 12.85 13.82
1/2/2023 1:45:00 PM 2.99 37.382 0.24 7.5 13.62 13.8
1/2/2023 2:00:00 PM 3.04 37.472 0.24 7.51 14.56 13.78
1/2/2023 2:15:00 PM 3.05 37.49 0.24 7.51 16.55 13.76
1/2/2023 2:30:00 PM 3.09 37.562 0.239 7.51 15.08 13.75
1/2/2023 2:45:00 PM 3.12 37.616 0.239 7.51 14.55 13.73
1/2/2023 3:00:00 PM 3.11 37.598 0.24 7.51 15.08 13.71
1/2/2023 3:15:00 PM 3.11 37.598 0.24 7.52 14.8 13.7
1/2/2023 3:30:00 PM 3.1 37.58 0.24 7.51 13.02 13.68
1/2/2023 3:45:00 PM 3.08 37.544 0.24 7.5 16.15 13.66
1/2/2023 4:00:00 PM 3.06 37.508 0.24 7.49 15.62 13.63
1/2/2023 4:15:00 PM 3.03 37.454 0.24 7.49 14.18 13.59
1/2/2023 4:30:00 PM 3 37.4 0.24 7.49 13.98 13.56
1/2/2023 4:45:00 PM 2.98 37.364 0.24 7.47 13.49 13.53
1/2/2023 5:00:00 PM 2.97 37.346 0.241 7.47 14.82 13.48
1/2/2023 5:15:00 PM 2.95 37.31 0.24 7.45 16.67 13.45
1/2/2023 5:30:00 PM 2.93 37.274 0.24 7.45 20.53 13.44
1/2/2023 5:45:00 PM 2.91 37.238 0.241 7.44 14.31 13.42
1/2/2023 6:00:00 PM 2.9 37.22 0.215 7.44 15.15 13.42
1/2/2023 6:15:00 PM 2.88 37.184 0.223 7.43 14.55 13.41
1/2/2023 6:30:00 PM 2.86 37.148 0.223 7.42 16.1 13.41
1/2/2023 6:45:00 PM 2.85 37.13 0.237 7.42 14.11 13.39
1/2/2023 7:00:00 PM 2.83 37.094 0.238 7.42 14.35 13.4
1/2/2023 7:15:00 PM 2.82 37.076 0.238 7.42 16.12 13.4
1/2/2023 7:30:00 PM 2.81 37.058 0.238 7.41 13.61 13.4
1/2/2023 7:45:00 PM 2.8 37.04 0.237 7.4 15.4 13.39
1/2/2023 8:00:00 PM 2.8 37.04 0.238 7.4 13.31 13.4
1/2/2023 8:15:00 PM 2.79 37.022 0.238 7.4 15.45 13.39
1/2/2023 8:30:00 PM 2.79 37.022 0.238 7.4 14.86 13.4
1/2/2023 8:45:00 PM 2.79 37.022 0.238 7.39 15.79 13.39
1/2/2023 9:00:00 PM 2.79 37.022 0.238 7.39 15.34 13.4
1/2/2023 9:15:00 PM 2.79 37.022 0.237 7.39 13.56 13.4
1/2/2023 9:30:00 PM 2.79 37.022 0.236 7.39 15.19 13.4
1/2/2023 9:45:00 PM 2.8 37.04 0.236 7.38 16.32 13.39
1/2/2023 10:00:00 PM 2.8 37.04 0.217 7.38 14.54 13.4
1/2/2023 10:15:00 PM 2.81 37.058 0.216 7.38 112.32 13.38
1/2/2023 10:30:00 PM 2.81 37.058 0.216 7.38 274.78 13.39
1/2/2023 10:45:00 PM 2.82 37.076 0.216 7.38 260.36 13.37
1/2/2023 11:00:00 PM 2.82 37.076 0.216 7.38 51.33 13.39
1/2/2023 11:15:00 PM 2.83 37.094 0.233 7.38 57.77 13.38
1/2/2023 11:30:00 PM 2.83 37.094 0.232 7.37 35.62 13.38
1/2/2023 11:45:00 PM 2.83 37.094 0.233 7.37 10.78 13.38
1/3/2023 12:00:00 AM 2.83 37.094 0.233 7.37 8.71 13.37
1/3/2023 12:15:00 AM 2.83 37.094 0.219 7.37 10.18 13.38
1/3/2023 12:30:00 AM 2.82 37.076 0.223 7.36 6.65 13.38
1/3/2023 12:45:00 AM 2.83 37.094 0.224 7.37 6.87 13.37
1/3/2023 1:00:00 AM 2.83 37.094 0.223 7.36 6.77 13.37
1/3/2023 1:15:00 AM 2.82 37.076 0.223 7.37 6.43 13.35
1/3/2023 1:30:00 AM 2.83 37.094 0.223 7.37 6.28 13.36
1/3/2023 1:45:00 AM 2.83 37.094 0.225 7.37 6.17 13.35
1/3/2023 2:00:00 AM 2.83 37.094 0.226 7.37 8.06 13.35
1/3/2023 2:15:00 AM 2.83 37.094 0.226 7.37 8.33 13.37
1/3/2023 2:30:00 AM 2.83 37.094 0.225 7.36 9.12 13.36
1/3/2023 2:45:00 AM 2.83 37.094 0.225 7.36 9.65 13.35
1/3/2023 3:00:00 AM 2.83 37.094 0.225 7.36 8.53 13.36
1/3/2023 3:15:00 AM 2.84 37.112 0.214 7.36 10.77 13.35
1/3/2023 3:30:00 AM 2.84 37.112 0.213 7.36 11.75 13.35
1/3/2023 3:45:00 AM 2.84 37.112 0.239 7.35 5.97 13.36
1/3/2023 4:00:00 AM 2.84 37.112 0.239 7.36 5.68 13.34
1/3/2023 4:15:00 AM 2.84 37.112 0.239 7.36 5.73 13.35
1/3/2023 4:30:00 AM 2.85 37.13 0.239 7.35 5.61 13.32
1/3/2023 4:45:00 AM 2.85 37.13 0.238 7.36 5.71 13.33
1/3/2023 5:00:00 AM 2.86 37.148 0.239 7.35 5.62 13.33
1/3/2023 5:15:00 AM 2.86 37.148 0.239 7.36 5.86 13.33
1/3/2023 5:30:00 AM 2.86 37.148 0.239 7.35 5.72 13.32
1/3/2023 5:45:00 AM 2.86 37.148 0.239 7.35 5.9 13.32
1/3/2023 6:00:00 AM 2.86 37.148 0.238 7.36 5.65 13.31
1/3/2023 6:15:00 AM 2.87 37.166 0.238 7.35 5.72 13.32
1/3/2023 6:30:00 AM 2.86 37.148 0.239 7.35 5.68 13.31
1/3/2023 6:45:00 AM 2.86 37.148 0.239 7.35 5.73 13.3
1/3/2023 7:00:00 AM 2.86 37.148 0.239 7.35 5.72 13.3
1/3/2023 7:15:00 AM 2.86 37.148 0.239 7.35 5.77 13.31
1/3/2023 7:30:00 AM 2.86 37.148 0.239 7.34 5.74 13.31
1/3/2023 7:45:00 AM 2.86 37.148 0.239 7.34 5.62 13.31
1/3/2023 8:00:00 AM 2.86 37.148 0.239 7.35 5.72 13.31
1/3/2023 8:15:00 AM 2.87 37.166 0.239 7.35 5.76 13.31
1/3/2023 8:30:00 AM 2.87 37.166 0.239 7.34 5.6 13.33
1/3/2023 8:45:00 AM 2.88 37.184 0.238 7.35 5.77 13.35
1/3/2023 9:00:00 AM 2.89 37.202 0.238 7.35 5.79 13.35
1/3/2023 9:15:00 AM 3.27 37.886 0.236 7.58 4.54 12.76
1/3/2023 9:30:00 AM 3.28 37.904 0.236 7.43 5.44 12.76
1/3/2023 9:45:00 AM 3.29 37.922 0.236 7.4 3.88 12.77
1/3/2023 10:00:00 AM 3.3 37.94 0.236 7.39 3.63 12.78
1/3/2023 10:15:00 AM 3.33 37.994 0.236 7.39 5.11 12.79
1/3/2023 10:30:00 AM 3.36 38.048 0.236 7.39 4.42 12.79
1/3/2023 10:45:00 AM 3.39 38.102 0.236 7.4 4.67 12.78
1/3/2023 11:00:00 AM 3.42 38.156 0.236 7.4 5.06 12.77
1/3/2023 11:15:00 AM 3.44 38.192 0.236 7.4 5.04 12.77
1/3/2023 11:30:00 AM 3.47 38.246 0.236 7.41 5.64 12.76
1/3/2023 11:45:00 AM 3.5 38.3 0.237 7.41 4.89 12.76
1/3/2023 12:00:00 PM 3.54 38.372 0.239 7.42 4.94 12.78
1/3/2023 12:15:00 PM 3.59 38.462 0.24 7.43 5.87 12.77
1/3/2023 12:30:00 PM 3.63 38.534 0.241 7.44 6.97 12.78
1/3/2023 12:45:00 PM 3.67 38.606 0.242 7.44 6.9 12.79
1/3/2023 1:00:00 PM 3.73 38.714 0.244 7.45 7.73 12.78
1/3/2023 1:15:00 PM 3.77 38.786 0.245 7.45 9.28 12.76
1/3/2023 1:30:00 PM 3.8 38.84 0.246 7.46 9.56 12.73
1/3/2023 1:45:00 PM 3.85 38.93 0.246 7.46 11.17 12.69
1/3/2023 2:00:00 PM 3.88 38.984 0.246 7.45 11.28 12.67
1/3/2023 2:15:00 PM 3.9 39.02 0.245 7.45 11.86 12.62
1/3/2023 2:30:00 PM 3.93 39.074 0.245 7.45 12.2 12.58
1/3/2023 2:45:00 PM 3.94 39.092 0.245 7.44 13.67 12.58
1/3/2023 3:00:00 PM 3.94 39.092 0.246 7.44 12.98 12.56
1/3/2023 3:15:00 PM 3.94 39.092 0.248 7.44 13.38 12.55
1/3/2023 3:30:00 PM 3.94 39.092 0.25 7.43 13.63 12.53
1/3/2023 3:45:00 PM 3.96 39.128 0.253 7.43 12.42 12.51
1/3/2023 4:00:00 PM 3.97 39.146 0.256 7.43 11.85 12.51
1/3/2023 4:15:00 PM 3.97 39.146 0.261 7.44 10.87 12.49
1/3/2023 4:30:00 PM 3.98 39.164 0.267 7.43 11.24 12.48
1/3/2023 4:45:00 PM 3.98 39.164 0.272 7.43 10.51 12.47
1/3/2023 5:00:00 PM 3.98 39.164 0.275 7.43 10.5 12.46
1/3/2023 5:15:00 PM 3.97 39.146 0.275 7.43 10.4 12.46
1/3/2023 5:30:00 PM 3.96 39.128 0.272 7.42 10.1 12.46
1/3/2023 5:45:00 PM 3.95 39.11 0.269 7.42 10.11 12.47
1/3/2023 6:00:00 PM 3.93 39.074 0.265 7.42 9.56 12.47
1/3/2023 6:15:00 PM 3.91 39.038 0.261 7.42 9.48 12.48
1/3/2023 6:30:00 PM 3.9 39.02 0.258 7.42 8.92 12.49
1/3/2023 6:45:00 PM 3.89 39.002 0.255 7.42 8.7 12.47
1/3/2023 7:00:00 PM 3.87 38.966 0.252 7.41 8.61 12.48
1/3/2023 7:15:00 PM 3.85 38.93 0.25 7.41 8.91 12.5
1/3/2023 7:30:00 PM 3.84 38.912 0.249 7.41 8.31 12.51
1/3/2023 7:45:00 PM 3.82 38.876 0.247 7.41 8.07 12.52
1/3/2023 8:00:00 PM 3.81 38.858 0.246 7.41 8.22 12.52
1/3/2023 8:15:00 PM 3.81 38.858 0.245 7.41 8.06 12.53
1/3/2023 8:30:00 PM 3.8 38.84 0.243 7.41 7.54 12.53
1/3/2023 8:45:00 PM 3.78 38.804 0.242 7.41 7.85 12.54
1/3/2023 9:00:00 PM 3.77 38.786 0.241 7.41 7.57 12.55
1/3/2023 9:15:00 PM 3.76 38.768 0.24 7.41 7.6 12.54
1/3/2023 9:30:00 PM 3.75 38.75 0.239 7.41 7.63 12.54
1/3/2023 9:45:00 PM 3.76 38.768 0.238 7.4 7.61 12.55
1/3/2023 10:00:00 PM 3.77 38.786 0.238 7.4 7.86 12.55
1/3/2023 10:15:00 PM 3.78 38.804 0.237 7.4 7.64 12.54
1/3/2023 10:30:00 PM 3.78 38.804 0.236 7.4 7.27 12.54
1/3/2023 10:45:00 PM 3.77 38.786 0.236 7.4 7.26 12.54
1/3/2023 11:00:00 PM 3.77 38.786 0.235 7.4 7.02 12.54
1/3/2023 11:15:00 PM 3.79 38.822 0.235 7.4 7.2 12.54
1/3/2023 11:30:00 PM 3.78 38.804 0.234 7.4 7.03 12.54
1/3/2023 11:45:00 PM 3.78 38.804 0.234 7.4 7.32 12.54
1/4/2023 12:00:00 AM 3.77 38.786 0.233 7.4 7.28 12.54
1/4/2023 12:15:00 AM 3.76 38.768 0.233 7.4 7.19 12.54
1/4/2023 12:30:00 AM 3.76 38.768 0.233 7.4 7 12.55
1/4/2023 12:45:00 AM 3.76 38.768 0.233 7.4 6.79 12.55
1/4/2023 1:00:00 AM 3.76 38.768 0.233 7.4 6.65 12.54
1/4/2023 1:15:00 AM 3.75 38.75 0.232 7.4 6.8 12.55
1/4/2023 1:30:00 AM 3.75 38.75 0.232 7.4 6.22 12.55
1/4/2023 1:45:00 AM 3.75 38.75 0.232 7.4 6.4 12.55
1/4/2023 2:00:00 AM 3.75 38.75 0.231 7.4 6.66 12.55
1/4/2023 2:15:00 AM 3.75 38.75 0.231 7.4 6.43 12.55
1/4/2023 2:30:00 AM 3.75 38.75 0.231 7.4 6.53 12.56
1/4/2023 2:45:00 AM 3.75 38.75 0.231 7.4 6.22 12.57
1/4/2023 3:00:00 AM 3.74 38.732 0.231 7.39 6.27 12.56
1/4/2023 3:15:00 AM 3.73 38.714 0.231 7.4 5.83 12.57
1/4/2023 3:30:00 AM 3.72 38.696 0.231 7.4 5.9 12.57
1/4/2023 3:45:00 AM 3.71 38.678 0.231 7.4 5.93 12.57
1/4/2023 4:00:00 AM 3.7 38.66 0.23 7.4 5.84 12.56
1/4/2023 4:15:00 AM 3.69 38.642 0.23 7.4 5.94 12.57
1/4/2023 4:30:00 AM 3.67 38.606 0.23 7.39 6.2 12.58
1/4/2023 4:45:00 AM 3.65 38.57 0.231 7.39 5.94 12.58
1/4/2023 5:00:00 AM 3.63 38.534 0.231 7.39 5.71 12.59
1/4/2023 5:15:00 AM 3.62 38.516 0.231 7.39 5.6 12.59
1/4/2023 5:30:00 AM 3.6 38.48 0.231 7.39 5.77 12.6
1/4/2023 5:45:00 AM 3.59 38.462 0.231 7.39 5.88 12.6
1/4/2023 6:00:00 AM 3.58 38.444 0.23 7.39 5.69 12.61
1/4/2023 6:15:00 AM 3.56 38.408 0.23 7.39 5.55 12.61
1/4/2023 6:30:00 AM 3.55 38.39 0.231 7.39 5.55 12.62
1/4/2023 6:45:00 AM 3.54 38.372 0.231 7.38 5.37 12.62
1/4/2023 7:00:00 AM 3.53 38.354 0.231 7.38 5.45 12.63
1/4/2023 7:15:00 AM 3.53 38.354 0.231 7.38 5.54 12.63
1/4/2023 7:30:00 AM 3.52 38.336 0.231 7.38 5.45 12.63
1/4/2023 7:45:00 AM 3.52 38.336 0.231 7.38 5.42 12.64
1/4/2023 8:00:00 AM 3.51 38.318 0.231 7.38 5.47 12.65
1/4/2023 8:15:00 AM 3.51 38.318 0.23 7.38 5.31 12.67
1/4/2023 8:30:00 AM 3.52 38.336 0.23 7.39 5.66 12.7
1/4/2023 8:45:00 AM 3.54 38.372 0.23 7.4 5.11 12.72
1/4/2023 9:00:00 AM 3.55 38.39 0.23 7.4 5.66 12.74
1/4/2023 9:15:00 AM 3.56 38.408 0.23 7.4 5.14 12.77
1/4/2023 9:30:00 AM 3.57 38.426 0.23 7.41 5.24 12.8
1/4/2023 9:45:00 AM 3.59 38.462 0.229 7.42 5.08 12.82
1/4/2023 10:00:00 AM 3.62 38.516 0.229 7.43 5.08 12.85
1/4/2023 10:15:00 AM 3.65 38.57 0.229 7.44 5.3 12.87
1/4/2023 10:30:00 AM 3.69 38.642 0.229 7.45 5.18 12.88
1/4/2023 10:45:00 AM 3.72 38.696 0.229 7.45 5.27 12.89
1/4/2023 11:00:00 AM 3.77 38.786 0.229 7.46 5.17 12.89
1/4/2023 11:15:00 AM 3.82 38.876 0.229 7.47 5.25 12.9
1/4/2023 11:30:00 AM 3.87 38.966 0.229 7.48 5 12.9
1/4/2023 11:45:00 AM 3.92 39.056 0.229 7.49 5.18 12.91
1/4/2023 12:00:00 PM 3.97 39.146 0.229 7.49 5.05 12.9
1/4/2023 12:15:00 PM 4.02 39.236 0.229 7.5 4.91 12.89
1/4/2023 12:30:00 PM 4.07 39.326 0.229 7.51 4.88 12.9
1/4/2023 12:45:00 PM 4.11 39.398 0.228 7.52 4.97 12.88
1/4/2023 1:00:00 PM 4.14 39.452 0.228 7.52 4.9 12.87
1/4/2023 1:15:00 PM 4.16 39.488 0.228 7.52 4.94 12.84
1/4/2023 1:30:00 PM 4.19 39.542 0.227 7.52 4.74 12.82
1/4/2023 1:45:00 PM 4.21 39.578 0.227 7.52 5.02 12.81
1/4/2023 2:00:00 PM 4.23 39.614 0.227 7.53 4.82 12.81
1/4/2023 2:15:00 PM 4.24 39.632 0.226 7.53 5.03 12.79
1/4/2023 2:30:00 PM 4.25 39.65 0.226 7.53 4.79 12.78
1/4/2023 2:45:00 PM 4.25 39.65 0.226 7.53 4.84 12.74
1/4/2023 3:00:00 PM 4.25 39.65 0.226 7.52 4.9 12.74
1/4/2023 3:15:00 PM 4.24 39.632 0.226 7.52 4.81 12.71
1/4/2023 3:30:00 PM 4.23 39.614 0.226 7.52 4.66 12.69
1/4/2023 3:45:00 PM 4.21 39.578 0.226 7.51 4.62 12.65
1/4/2023 4:00:00 PM 4.19 39.542 0.226 7.49 4.72 12.61
1/4/2023 4:15:00 PM 4.17 39.506 0.226 7.48 4.66 12.59
1/4/2023 4:30:00 PM 4.15 39.47 0.226 7.47 4.66 12.56
1/4/2023 4:45:00 PM 4.13 39.434 0.226 7.46 4.6 12.54
1/4/2023 5:00:00 PM 4.11 39.398 0.226 7.45 4.6 12.5
1/4/2023 5:15:00 PM 4.09 39.362 0.226 7.45 4.56 12.5
1/4/2023 5:30:00 PM 4.08 39.344 0.226 7.43 4.78 12.48
1/4/2023 5:45:00 PM 4.06 39.308 0.226 7.43 4.63 12.47
1/4/2023 6:00:00 PM 4.04 39.272 0.227 7.42 4.8 12.47
1/4/2023 6:15:00 PM 4.03 39.254 0.227 7.42 4.57 12.45
1/4/2023 6:30:00 PM 4.03 39.254 0.227 7.41 4.67 12.45
1/4/2023 6:45:00 PM 4.04 39.272 0.227 7.41 4.54 12.45
1/4/2023 7:00:00 PM 4.04 39.272 0.227 7.41 4.7 12.45
1/4/2023 7:15:00 PM 4.04 39.272 0.226 7.41 4.73 12.45
1/4/2023 7:30:00 PM 4.05 39.29 0.226 7.41 4.45 12.44
1/4/2023 7:45:00 PM 4.05 39.29 0.226 7.41 4.43 12.44
1/4/2023 8:00:00 PM 4.07 39.326 0.226 7.41 4.47 12.44
1/4/2023 8:15:00 PM 4.09 39.362 0.225 7.41 4.62 12.43
1/4/2023 8:30:00 PM 4.11 39.398 0.225 7.41 4.65 12.41
1/4/2023 8:45:00 PM 4.14 39.452 0.224 7.42 4.41 12.4
1/4/2023 9:00:00 PM 4.15 39.47 0.224 7.42 4.53 12.4
1/4/2023 9:15:00 PM 4.17 39.506 0.223 7.42 4.47 12.4
1/4/2023 9:30:00 PM 4.18 39.524 0.223 7.41 4.62 12.38
1/4/2023 9:45:00 PM 4.19 39.542 0.223 7.42 4.72 12.37
1/4/2023 10:00:00 PM 4.21 39.578 0.223 7.42 4.64 12.38
1/4/2023 10:15:00 PM 4.22 39.596 0.223 7.41 4.45 12.37
1/4/2023 10:30:00 PM 4.22 39.596 0.223 7.42 4.67 12.37
1/4/2023 10:45:00 PM 4.23 39.614 0.222 7.41 4.45 12.37
1/4/2023 11:00:00 PM 4.26 39.668 0.222 7.42 4.56 12.36
1/4/2023 11:15:00 PM 4.26 39.668 0.222 7.42 4.64 12.37
1/4/2023 11:30:00 PM 4.26 39.668 0.222 7.42 4.53 12.35
1/4/2023 11:45:00 PM 4.26 39.668 0.222 7.41 4.6 12.36
1/5/2023 12:00:00 AM 4.26 39.668 0.222 7.41 4.49 12.36
1/5/2023 12:15:00 AM 4.27 39.686 0.222 7.41 4.6 12.36
1/5/2023 12:30:00 AM 4.27 39.686 0.222 7.41 4.37 12.36
1/5/2023 12:45:00 AM 4.27 39.686 0.222 7.41 4.51 12.36
1/5/2023 1:00:00 AM 4.26 39.668 0.222 7.42 4.37 12.35
1/5/2023 1:15:00 AM 4.25 39.65 0.221 7.42 4.43 12.36
1/5/2023 1:30:00 AM 4.25 39.65 0.221 7.41 4.54 12.36
1/5/2023 1:45:00 AM 4.24 39.632 0.221 7.41 4.47 12.35
1/5/2023 2:00:00 AM 4.23 39.614 0.221 7.41 4.6 12.37
1/5/2023 2:15:00 AM 4.21 39.578 0.221 7.41 4.46 12.36
1/5/2023 2:30:00 AM 4.19 39.542 0.221 7.41 4.54 12.38
1/5/2023 2:45:00 AM 4.17 39.506 0.22 7.41 4.64 12.39
1/5/2023 3:00:00 AM 4.14 39.452 0.22 7.41 4.43 12.38
1/5/2023 3:15:00 AM 4.12 39.416 0.22 7.41 4.31 12.39
1/5/2023 3:30:00 AM 4.1 39.38 0.22 7.4 4.33 12.4
1/5/2023 3:45:00 AM 4.07 39.326 0.22 7.4 4.24 12.41
1/5/2023 4:00:00 AM 4.06 39.308 0.22 7.4 4.4 12.42
1/5/2023 4:15:00 AM 4.04 39.272 0.22 7.4 4.49 12.43
1/5/2023 4:30:00 AM 4.02 39.236 0.219 7.39 4.46 12.45
1/5/2023 4:45:00 AM 3.99 39.182 0.219 7.4 4.42 12.44
1/5/2023 5:00:00 AM 3.96 39.128 0.219 7.4 4.5 12.45
1/5/2023 5:15:00 AM 3.94 39.092 0.219 7.4 4.43 12.47
1/5/2023 5:30:00 AM 3.91 39.038 0.219 7.39 4.37 12.47
1/5/2023 5:45:00 AM 3.89 39.002 0.219 7.39 4.15 12.48
1/5/2023 6:00:00 AM 3.87 38.966 0.219 7.39 4.28 12.48
1/5/2023 6:15:00 AM 3.85 38.93 0.219 7.39 4.4 12.49
1/5/2023 6:30:00 AM 3.82 38.876 0.219 7.39 4.27 12.51
1/5/2023 6:45:00 AM 3.8 38.84 0.219 7.39 4.24 12.51
1/5/2023 7:00:00 AM 3.77 38.786 0.219 7.39 4.47 12.52
1/5/2023 7:15:00 AM 3.75 38.75 0.219 7.39 4.28 12.52
1/5/2023 7:30:00 AM 3.72 38.696 0.219 7.39 4.18 12.54
1/5/2023 7:45:00 AM 3.7 38.66 0.219 7.39 4.45 12.55
1/5/2023 8:00:00 AM 3.68 38.624 0.219 7.4 4.34 12.56
1/5/2023 8:15:00 AM 3.67 38.606 0.219 7.4 4.2 12.59
1/5/2023 8:30:00 AM 3.65 38.57 0.219 7.41 4.15 12.6
1/5/2023 8:45:00 AM 3.64 38.552 0.219 7.41 4.26 12.65
1/5/2023 9:00:00 AM 3.65 38.57 0.219 7.42 4.27 12.69
1/5/2023 9:15:00 AM 3.66 38.588 0.219 7.43 4.3 12.73
1/5/2023 9:30:00 AM 3.69 38.642 0.219 7.44 4.19 12.78
1/5/2023 9:45:00 AM 3.72 38.696 0.219 7.45 4.12 12.81
1/5/2023 10:00:00 AM 3.73 38.714 0.219 7.46 4.3 12.83
1/5/2023 10:15:00 AM 3.75 38.75 0.219 7.47 4.23 12.83
1/5/2023 10:30:00 AM 3.78 38.804 0.219 7.47 4.07 12.85
1/5/2023 10:45:00 AM 3.84 38.912 0.219 7.48 4.12 12.85
1/5/2023 11:00:00 AM 3.9 39.02 0.219 7.49 4.18 12.87
1/5/2023 11:15:00 AM 3.97 39.146 0.219 7.51 4.11 12.88
1/5/2023 11:30:00 AM 4.02 39.236 0.219 7.52 3.98 12.88
1/5/2023 11:45:00 AM 4.07 39.326 0.219 7.52 3.95 12.87
1/5/2023 12:00:00 PM 4.16 39.488 0.219 7.53 4.08 12.87
1/5/2023 12:15:00 PM 4.23 39.614 0.219 7.54 3.92 12.86
1/5/2023 12:30:00 PM 4.3 39.74 0.219 7.55 4.01 12.85
1/5/2023 12:45:00 PM 4.35 39.83 0.219 7.56 4.02 12.84
1/5/2023 1:00:00 PM 4.39 39.902 0.219 7.56 3.77 12.81
1/5/2023 1:15:00 PM 4.43 39.974 0.219 7.57 3.97 12.8
1/5/2023 1:30:00 PM 4.47 40.046 0.218 7.56 3.96 12.77
1/5/2023 1:45:00 PM 4.48 40.064 0.218 7.57 3.88 12.74
1/5/2023 2:00:00 PM 4.49 40.082 0.218 7.57 3.92 12.73
1/5/2023 2:15:00 PM 4.5 40.1 0.218 7.56 3.99 12.71
1/5/2023 2:30:00 PM 4.51 40.118 0.218 7.56 3.96 12.69
1/5/2023 2:45:00 PM 4.51 40.118 0.218 7.56 3.96 12.68
1/5/2023 3:00:00 PM 4.5 40.1 0.219 7.56 3.94 12.66
1/5/2023 3:15:00 PM 4.5 40.1 0.218 7.56 3.91 12.66
1/5/2023 3:30:00 PM 4.5 40.1 0.218 7.56 4.14 12.65
1/5/2023 3:45:00 PM 4.49 40.082 0.218 7.56 3.88 12.65
1/5/2023 4:00:00 PM 4.48 40.064 0.218 7.55 3.97 12.62
1/5/2023 4:15:00 PM 4.46 40.028 0.218 7.54 3.97 12.59
1/5/2023 4:30:00 PM 4.44 39.992 0.218 7.53 3.88 12.56
1/5/2023 4:45:00 PM 4.4 39.92 0.218 7.52 4.26 12.53
1/5/2023 5:00:00 PM 4.36 39.848 0.218 7.5 4.14 12.49
1/5/2023 5:15:00 PM 4.32 39.776 0.218 7.49 3.92 12.47
1/5/2023 5:30:00 PM 4.28 39.704 0.218 7.48 3.99 12.45
1/5/2023 5:45:00 PM 4.25 39.65 0.218 7.47 4.01 12.44
1/5/2023 6:00:00 PM 4.22 39.596 0.218 7.46 4.16 12.43
1/5/2023 6:15:00 PM 4.18 39.524 0.218 7.45 5.88 12.42
1/5/2023 6:30:00 PM 4.15 39.47 0.218 7.45 4.14 12.42
1/5/2023 6:45:00 PM 4.12 39.416 0.219 7.44 4.21 12.43
1/5/2023 7:00:00 PM 4.08 39.344 0.219 7.44 4.14 12.43
1/5/2023 7:15:00 PM 4.05 39.29 0.219 7.43 4.1 12.43
1/5/2023 7:30:00 PM 4.01 39.218 0.219 7.43 4.21 12.43
1/5/2023 7:45:00 PM 3.98 39.164 0.219 7.43 4.12 12.44
1/5/2023 8:00:00 PM 3.95 39.11 0.219 7.42 4.32 12.45
1/5/2023 8:15:00 PM 3.93 39.074 0.219 7.42 4.21 12.47
1/5/2023 8:30:00 PM 3.91 39.038 0.219 7.42 4.14 12.46
1/5/2023 8:45:00 PM 3.9 39.02 0.219 7.42 4.13 12.46
1/5/2023 9:00:00 PM 3.89 39.002 0.219 7.42 4.16 12.48
1/5/2023 9:15:00 PM 3.88 38.984 0.219 7.42 4.15 12.48
1/5/2023 9:30:00 PM 3.87 38.966 0.219 7.42 4.18 12.48
1/5/2023 9:45:00 PM 3.87 38.966 0.219 7.42 4.16 12.48
1/5/2023 10:00:00 PM 3.86 38.948 0.218 7.42 4.2 12.49
1/5/2023 10:15:00 PM 3.86 38.948 0.22 7.42 4.19 12.48
1/5/2023 10:30:00 PM 3.85 38.93 0.22 7.42 3.98 12.5
1/5/2023 10:45:00 PM 3.85 38.93 0.22 7.41 4 12.5
1/5/2023 11:00:00 PM 3.85 38.93 0.22 7.41 4.11 12.49
1/5/2023 11:15:00 PM 3.85 38.93 0.221 7.41 4 12.49
1/5/2023 11:30:00 PM 3.84 38.912 0.221 7.41 4.13 12.51
1/5/2023 11:45:00 PM 3.84 38.912 0.221 7.41 4.21 12.5
1/6/2023 12:00:00 AM 3.84 38.912 0.221 7.41 4.1 12.49
1/6/2023 12:15:00 AM 3.84 38.912 0.221 7.41 4.05 12.5
1/6/2023 12:30:00 AM 3.84 38.912 0.221 7.41 3.94 12.49
1/6/2023 12:45:00 AM 3.83 38.894 0.221 7.41 4.11 12.49
1/6/2023 1:00:00 AM 3.83 38.894 0.221 7.41 4.2 12.49
1/6/2023 1:15:00 AM 3.82 38.876 0.221 7.41 4.26 12.5
1/6/2023 1:30:00 AM 3.82 38.876 0.221 7.41 4.09 12.5
1/6/2023 1:45:00 AM 3.81 38.858 0.222 7.41 4.13 12.5
1/6/2023 2:00:00 AM 3.81 38.858 0.221 7.41 4.03 12.5
1/6/2023 2:15:00 AM 3.8 38.84 0.221 7.41 4.27 12.51
1/6/2023 2:30:00 AM 3.79 38.822 0.222 7.41 4.19 12.51
1/6/2023 2:45:00 AM 3.77 38.786 0.222 7.4 4.46 12.5
1/6/2023 3:00:00 AM 3.76 38.768 0.221 7.41 4.23 12.51
1/6/2023 3:15:00 AM 3.75 38.75 0.222 7.4 4.58 12.51
1/6/2023 3:30:00 AM 3.73 38.714 0.221 7.4 4.25 12.52
1/6/2023 3:45:00 AM 3.72 38.696 0.221 7.4 4.28 12.52
1/6/2023 4:00:00 AM 3.71 38.678 0.221 7.4 4.08 12.52
1/6/2023 4:15:00 AM 3.7 38.66 0.221 7.4 4.27 12.52
1/6/2023 4:30:00 AM 3.69 38.642 0.221 7.4 4.38 12.52
1/6/2023 4:45:00 AM 3.67 38.606 0.221 7.4 4.1 12.53
1/6/2023 5:00:00 AM 3.66 38.588 0.221 7.4 4.19 12.53
1/6/2023 5:15:00 AM 3.66 38.588 0.221 7.4 4.17 12.53
1/6/2023 5:30:00 AM 3.64 38.552 0.22 7.4 4.17 12.54
1/6/2023 5:45:00 AM 3.63 38.534 0.221 7.4 4.14 12.54
1/6/2023 6:00:00 AM 3.62 38.516 0.221 7.4 4.14 12.54
1/6/2023 6:15:00 AM 3.61 38.498 0.221 7.4 3.89 12.55
1/6/2023 6:30:00 AM 3.6 38.48 0.221 7.4 3.94 12.54
1/6/2023 6:45:00 AM 3.59 38.462 0.221 7.4 4.04 12.56
1/6/2023 7:00:00 AM 3.58 38.444 0.221 7.4 4.09 12.56
1/6/2023 7:15:00 AM 3.57 38.426 0.221 7.4 4.06 12.56
1/6/2023 7:30:00 AM 3.56 38.408 0.221 7.4 4.23 12.57
1/6/2023 7:45:00 AM 3.56 38.408 0.222 7.4 4.32 12.58
1/6/2023 8:00:00 AM 3.56 38.408 0.222 7.4 4.23 12.6
1/6/2023 8:15:00 AM 3.56 38.408 0.222 7.41 4.08 12.63
1/6/2023 8:30:00 AM 3.57 38.426 0.222 7.41 3.92 12.65
1/6/2023 8:45:00 AM 3.58 38.444 0.222 7.42 4.13 12.66
1/6/2023 9:00:00 AM 3.6 38.48 0.221 7.42 4.1 12.69
1/6/2023 9:15:00 AM 3.63 38.534 0.221 7.43 4.08 12.73
1/6/2023 9:30:00 AM 3.65 38.57 0.221 7.44 4.21 12.76
1/6/2023 9:45:00 AM 3.68 38.624 0.221 7.45 4.08 12.79
1/6/2023 10:00:00 AM 3.72 38.696 0.22 7.46 4.22 12.82
1/6/2023 10:15:00 AM 3.75 38.75 0.22 7.47 3.82 12.84
1/6/2023 10:30:00 AM 3.8 38.84 0.22 7.48 3.89 12.87
1/6/2023 10:45:00 AM 3.84 38.912 0.22 7.49 3.84 12.89
1/6/2023 11:00:00 AM 3.87 38.966 0.22 7.5 3.88 12.88
1/6/2023 11:15:00 AM 3.89 39.002 0.219 7.51 3.75 12.87
1/6/2023 11:30:00 AM 3.91 39.038 0.219 7.51 3.89 12.84
1/6/2023 11:45:00 AM 3.93 39.074 0.219 7.51 3.68 12.82
1/6/2023 12:00:00 PM 3.95 39.11 0.218 7.51 3.77 12.81
1/6/2023 12:15:00 PM 3.98 39.164 0.219 7.52 3.82 12.8
1/6/2023 12:30:00 PM 4 39.2 0.218 7.52 3.76 12.79
1/6/2023 12:45:00 PM 4.03 39.254 0.218 7.53 3.86 12.8
1/6/2023 1:00:00 PM 4.06 39.308 0.219 7.54 3.72 12.81
1/6/2023 1:15:00 PM 4.07 39.326 0.218 7.54 3.88 12.83
1/6/2023 1:30:00 PM 4.08 39.344 0.218 7.54 3.78 12.79
1/6/2023 1:45:00 PM 4.09 39.362 0.218 7.55 4.01 12.81
1/6/2023 2:00:00 PM 4.1 39.38 0.218 7.55 3.8 12.81
1/6/2023 2:15:00 PM 4.11 39.398 0.218 7.56 3.89 12.82
1/6/2023 2:30:00 PM 4.12 39.416 0.218 7.56 3.73 12.83
1/6/2023 2:45:00 PM 4.12 39.416 0.218 7.56 3.96 12.81
1/6/2023 3:00:00 PM 4.13 39.434 0.217 7.56 3.89 12.82
1/6/2023 3:15:00 PM 4.15 39.47 0.217 7.57 4.09 12.82
1/6/2023 3:30:00 PM 4.14 39.452 0.217 7.57 3.99 12.81
1/6/2023 3:45:00 PM 4.12 39.416 0.217 7.56 4.02 12.79
1/6/2023 4:00:00 PM 4.09 39.362 0.217 7.56 4.11 12.77
1/6/2023 4:15:00 PM 4.06 39.308 0.217 7.55 3.92 12.74
1/6/2023 4:30:00 PM 4.01 39.218 0.217 7.54 4.03 12.71
1/6/2023 4:45:00 PM 3.98 39.164 0.218 7.53 3.98 12.67
1/6/2023 5:00:00 PM 3.96 39.128 0.218 7.51 4.12 12.63
1/6/2023 5:15:00 PM 3.94 39.092 0.218 7.5 5.24 12.61
1/6/2023 5:30:00 PM 3.91 39.038 0.218 7.49 3.89 12.6
1/6/2023 5:45:00 PM 3.89 39.002 0.218 7.48 3.83 12.59
1/6/2023 6:00:00 PM 3.86 38.948 0.218 7.47 4.09 12.57
1/6/2023 6:15:00 PM 3.84 38.912 0.218 7.47 3.98 12.57
1/6/2023 6:30:00 PM 3.82 38.876 0.218 7.46 4.19 12.57
1/6/2023 6:45:00 PM 3.8 38.84 0.218 7.46 4 12.56
1/6/2023 7:00:00 PM 3.79 38.822 0.218 7.45 4.1 12.57
1/6/2023 7:15:00 PM 3.77 38.786 0.218 7.45 3.93 12.57
1/6/2023 7:30:00 PM 3.76 38.768 0.218 7.45 4 12.57
1/6/2023 7:45:00 PM 3.75 38.75 0.218 7.45 4.04 12.58
1/6/2023 8:00:00 PM 3.74 38.732 0.218 7.44 3.95 12.57
1/6/2023 8:15:00 PM 3.74 38.732 0.218 7.44 4.06 12.58
1/6/2023 8:30:00 PM 3.73 38.714 0.218 7.44 4.19 12.58
1/6/2023 8:45:00 PM 3.73 38.714 0.219 7.44 4.03 12.58
1/6/2023 9:00:00 PM 3.72 38.696 0.219 7.44 3.87 12.58
1/6/2023 9:15:00 PM 3.71 38.678 0.219 7.44 4.14 12.59
1/6/2023 9:30:00 PM 3.7 38.66 0.219 7.44 4.15 12.59
1/6/2023 9:45:00 PM 3.7 38.66 0.22 7.44 3.94 12.59
1/6/2023 10:00:00 PM 3.69 38.642 0.22 7.43 4.16 12.59
1/6/2023 10:15:00 PM 3.68 38.624 0.221 7.43 4.26 12.6
1/6/2023 10:30:00 PM 3.67 38.606 0.221 7.43 4.21 12.6
1/6/2023 10:45:00 PM 3.66 38.588 0.221 7.43 4.04 12.61
1/6/2023 11:00:00 PM 3.65 38.57 0.221 7.43 4.24 12.61
1/6/2023 11:15:00 PM 3.65 38.57 0.221 7.43 4.18 12.61
1/6/2023 11:30:00 PM 3.64 38.552 0.221 7.43 4.13 12.61
1/6/2023 11:45:00 PM 3.63 38.534 0.221 7.43 4.3 12.62
1/7/2023 12:00:00 AM 3.63 38.534 0.221 7.43 4.16 12.62
1/7/2023 12:15:00 AM 3.62 38.516 0.221 7.43 4.1 12.62
1/7/2023 12:30:00 AM 3.62 38.516 0.221 7.43 4.03 12.62
1/7/2023 12:45:00 AM 3.61 38.498 0.221 7.43 4.08 12.61
1/7/2023 1:00:00 AM 3.61 38.498 0.221 7.43 4.12 12.61
1/7/2023 1:15:00 AM 3.61 38.498 0.221 7.43 4.03 12.62
1/7/2023 1:30:00 AM 3.61 38.498 0.22 7.43 3.98 12.62
1/7/2023 1:45:00 AM 3.6 38.48 0.22 7.43 4.18 12.62
1/7/2023 2:00:00 AM 3.6 38.48 0.22 7.43 4.07 12.62
1/7/2023 2:15:00 AM 3.6 38.48 0.219 7.43 4.23 12.61
1/7/2023 2:30:00 AM 3.6 38.48 0.219 7.43 4.36 12.62
1/7/2023 2:45:00 AM 3.6 38.48 0.219 7.43 4.22 12.61
1/7/2023 3:00:00 AM 3.59 38.462 0.219 7.43 4.33 12.62
1/7/2023 3:15:00 AM 3.59 38.462 0.219 7.43 4.14 12.62
1/7/2023 3:30:00 AM 3.58 38.444 0.219 7.43 4.46 12.62
1/7/2023 3:45:00 AM 3.58 38.444 0.219 7.43 4.27 12.62
1/7/2023 4:00:00 AM 3.57 38.426 0.219 7.43 4.06 12.63
1/7/2023 4:15:00 AM 3.56 38.408 0.219 7.43 4.41 12.63
1/7/2023 4:30:00 AM 3.56 38.408 0.218 7.42 4.33 12.63
1/7/2023 4:45:00 AM 3.55 38.39 0.219 7.43 4.51 12.63
1/7/2023 5:00:00 AM 3.55 38.39 0.219 7.42 4.34 12.64
1/7/2023 5:15:00 AM 3.54 38.372 0.218 7.42 4.66 12.64
1/7/2023 5:30:00 AM 3.54 38.372 0.218 7.43 4.23 12.63
1/7/2023 5:45:00 AM 3.53 38.354 0.218 7.42 4.47 12.64
1/7/2023 6:00:00 AM 3.52 38.336 0.218 7.42 4.31 12.64
1/7/2023 6:15:00 AM 3.52 38.336 0.218 7.43 4.1 12.65
1/7/2023 6:30:00 AM 3.52 38.336 0.218 7.43 3.99 12.64
1/7/2023 6:45:00 AM 3.51 38.318 0.218 7.42 3.94 12.65
1/7/2023 7:00:00 AM 3.51 38.318 0.218 7.42 4.05 12.65
1/7/2023 7:15:00 AM 3.51 38.318 0.217 7.42 4.15 12.66
1/7/2023 7:30:00 AM 3.51 38.318 0.218 7.42 3.95 12.66
1/7/2023 7:45:00 AM 3.51 38.318 0.217 7.42 4.1 12.66
1/7/2023 8:00:00 AM 3.51 38.318 0.218 7.42 4.1 12.66
1/7/2023 8:15:00 AM 3.51 38.318 0.218 7.43 3.86 12.68
1/7/2023 8:30:00 AM 3.52 38.336 0.217 7.43 3.87 12.69
1/7/2023 8:45:00 AM 3.52 38.336 0.217 7.43 4.06 12.71
1/7/2023 9:00:00 AM 3.53 38.354 0.217 7.44 4.13 12.74
1/7/2023 9:15:00 AM 3.54 38.372 0.216 7.45 3.95 12.76
1/7/2023 9:30:00 AM 3.55 38.39 0.216 7.46 4.53 12.81
1/7/2023 9:45:00 AM 3.57 38.426 0.216 7.47 4.05 12.83
1/7/2023 10:00:00 AM 3.59 38.462 0.216 7.48 3.93 12.87
1/7/2023 10:15:00 AM 3.63 38.534 0.216 7.49 3.99 12.92
1/7/2023 10:30:00 AM 3.65 38.57 0.216 7.5 4.01 12.95
1/7/2023 10:45:00 AM 3.66 38.588 0.216 7.51 4.07 12.95
1/7/2023 11:00:00 AM 3.68 38.624 0.215 7.52 4.09 12.96
1/7/2023 11:15:00 AM 3.7 38.66 0.216 7.52 4.1 12.97
1/7/2023 11:30:00 AM 3.72 38.696 0.215 7.53 3.91 12.98
1/7/2023 11:45:00 AM 3.76 38.768 0.215 7.54 3.86 12.99
1/7/2023 12:00:00 PM 3.8 38.84 0.215 7.55 4 13.01
1/7/2023 12:15:00 PM 3.84 38.912 0.216 7.56 3.97 13.03
1/7/2023 12:30:00 PM 3.86 38.948 0.216 7.56 3.93 13.04
1/7/2023 12:45:00 PM 3.88 38.984 0.215 7.57 3.73 13.01
1/7/2023 1:00:00 PM 3.89 39.002 0.217 7.57 3.88 12.99
1/7/2023 1:15:00 PM 3.91 39.038 0.216 7.57 3.93 12.98
1/7/2023 1:30:00 PM 3.95 39.11 0.217 7.57 4.02 12.99
1/7/2023 1:45:00 PM 3.98 39.164 0.217 7.59 3.99 13
1/7/2023 2:00:00 PM 4.02 39.236 0.216 7.59 3.71 13.04
1/7/2023 2:15:00 PM 4.05 39.29 0.216 7.6 3.79 13.04
1/7/2023 2:30:00 PM 4.06 39.308 0.216 7.6 3.84 13.03
1/7/2023 2:45:00 PM 4.07 39.326 0.216 7.61 4.04 13.04
1/7/2023 3:00:00 PM 4.07 39.326 0.216 7.62 3.82 13.02
1/7/2023 3:15:00 PM 4.07 39.326 0.216 7.61 4.03 13
1/7/2023 3:30:00 PM 4.07 39.326 0.216 7.6 3.87 12.98
1/7/2023 3:45:00 PM 4.06 39.308 0.216 7.59 3.78 12.93
1/7/2023 4:00:00 PM 4.06 39.308 0.216 7.59 3.97 12.91
1/7/2023 4:15:00 PM 4.04 39.272 0.216 7.58 3.93 12.88
1/7/2023 4:30:00 PM 4.03 39.254 0.216 7.57 3.86 12.83
1/7/2023 4:45:00 PM 4.02 39.236 0.216 7.55 3.84 12.77
1/7/2023 5:00:00 PM 4 39.2 0.217 7.53 4.01 12.73
1/7/2023 5:15:00 PM 3.99 39.182 0.216 7.52 4.01 12.7
1/7/2023 5:30:00 PM 3.98 39.164 0.217 7.51 4.1 12.66
1/7/2023 5:45:00 PM 3.96 39.128 0.217 7.5 3.96 12.64
1/7/2023 6:00:00 PM 3.94 39.092 0.217 7.49 4.04 12.62
1/7/2023 6:15:00 PM 3.93 39.074 0.217 7.48 4.11 12.6
1/7/2023 6:30:00 PM 3.91 39.038 0.216 7.48 4.01 12.6
1/7/2023 6:45:00 PM 3.9 39.02 0.217 7.47 3.93 12.59
1/7/2023 7:00:00 PM 3.86 38.948 0.217 7.47 3.84 12.58
1/7/2023 7:15:00 PM 3.83 38.894 0.217 7.46 4.07 12.6
1/7/2023 7:30:00 PM 3.81 38.858 0.217 7.46 4.23 12.6
1/7/2023 7:45:00 PM 3.8 38.84 0.217 7.46 4.26 12.58
1/7/2023 8:00:00 PM 3.78 38.804 0.217 7.46 3.92 12.59
1/7/2023 8:15:00 PM 3.76 38.768 0.217 7.45 3.95 12.6
1/7/2023 8:30:00 PM 3.75 38.75 0.218 7.45 4.05 12.61
1/7/2023 8:45:00 PM 3.74 38.732 0.218 7.45 4.22 12.61
1/7/2023 9:00:00 PM 3.73 38.714 0.218 7.45 4.33 12.62
1/7/2023 9:15:00 PM 3.71 38.678 0.218 7.45 4.1 12.62
1/7/2023 9:30:00 PM 3.7 38.66 0.218 7.45 4.28 12.63
1/7/2023 9:45:00 PM 3.68 38.624 0.218 7.45 4.06 12.63
1/7/2023 10:00:00 PM 3.66 38.588 0.218 7.45 3.88 12.64
1/7/2023 10:15:00 PM 3.65 38.57 0.219 7.45 4.2 12.65
1/7/2023 10:30:00 PM 3.64 38.552 0.219 7.45 4.02 12.65
1/7/2023 10:45:00 PM 3.63 38.534 0.219 7.45 4.12 12.65
1/7/2023 11:00:00 PM 3.62 38.516 0.219 7.45 4.03 12.66
1/7/2023 11:15:00 PM 3.61 38.498 0.219 7.45 4.09 12.66
1/7/2023 11:30:00 PM 3.59 38.462 0.22 7.45 4.22 12.67
1/7/2023 11:45:00 PM 3.58 38.444 0.22 7.44 4.09 12.67
1/8/2023 12:00:00 AM 3.57 38.426 0.22 7.44 3.95 12.68
1/8/2023 12:15:00 AM 3.56 38.408 0.22 7.45 4.23 12.69
1/8/2023 12:30:00 AM 3.55 38.39 0.22 7.44 4.06 12.69
1/8/2023 12:45:00 AM 3.54 38.372 0.221 7.44 3.88 12.69
1/8/2023 1:00:00 AM 3.52 38.336 0.221 7.44 3.79 12.7
1/8/2023 1:15:00 AM 3.51 38.318 0.221 7.44 4.1 12.7
1/8/2023 1:30:00 AM 3.49 38.282 0.221 7.44 4.2 12.7
1/8/2023 1:45:00 AM 3.48 38.264 0.221 7.44 3.77 12.71
1/8/2023 2:00:00 AM 3.45 38.21 0.221 7.44 3.91 12.72
1/8/2023 2:15:00 AM 3.41 38.138 0.22 7.44 3.95 12.72
1/8/2023 2:30:00 AM 3.38 38.084 0.22 7.44 3.89 12.73
1/8/2023 2:45:00 AM 3.34 38.012 0.22 7.44 3.98 12.74
1/8/2023 3:00:00 AM 3.31 37.958 0.22 7.44 4.03 12.75
1/8/2023 3:15:00 AM 3.28 37.904 0.219 7.44 3.83 12.76
1/8/2023 3:30:00 AM 3.24 37.832 0.219 7.44 3.69 12.77
1/8/2023 3:45:00 AM 3.21 37.778 0.218 7.44 3.95 12.78
1/8/2023 4:00:00 AM 3.17 37.706 0.218 7.44 3.78 12.79
1/8/2023 4:15:00 AM 3.14 37.652 0.217 7.44 3.71 12.8
1/8/2023 4:30:00 AM 3.1 37.58 0.217 7.43 3.93 12.81
1/8/2023 4:45:00 AM 3.07 37.526 0.217 7.43 4.07 12.83
1/8/2023 5:00:00 AM 3.04 37.472 0.216 7.43 3.73 12.85
1/8/2023 5:15:00 AM 3.01 37.418 0.216 7.43 3.88 12.85
1/8/2023 5:30:00 AM 2.99 37.382 0.216 7.43 3.62 12.86
1/8/2023 5:45:00 AM 2.98 37.364 0.216 7.43 3.7 12.87
1/8/2023 6:00:00 AM 2.96 37.328 0.216 7.43 3.74 12.89
1/8/2023 6:15:00 AM 2.95 37.31 0.215 7.43 3.89 12.89
1/8/2023 6:30:00 AM 2.92 37.256 0.215 7.43 3.73 12.89
1/8/2023 6:45:00 AM 2.9 37.22 0.215 7.43 3.69 12.9
1/8/2023 7:00:00 AM 2.88 37.184 0.216 7.43 3.8 12.91
1/8/2023 7:15:00 AM 2.85 37.13 0.216 7.43 3.81 12.91
1/8/2023 7:30:00 AM 2.84 37.112 0.216 7.43 3.74 12.92
1/8/2023 7:45:00 AM 2.83 37.094 0.216 7.44 3.66 12.95
1/8/2023 8:00:00 AM 2.81 37.058 0.216 7.44 3.73 12.97
1/8/2023 8:15:00 AM 2.81 37.058 0.216 7.44 3.9 13.01
1/8/2023 8:30:00 AM 2.81 37.058 0.216 7.46 3.62 13.05
1/8/2023 8:45:00 AM 2.82 37.076 0.216 7.46 3.72 13.11
1/8/2023 9:00:00 AM 2.83 37.094 0.216 7.48 3.63 13.15
1/8/2023 9:15:00 AM 2.82 37.076 0.216 7.49 3.58 13.18
1/8/2023 9:30:00 AM 2.83 37.094 0.216 7.5 3.6 13.23
1/8/2023 9:45:00 AM 2.88 37.184 0.216 7.51 3.8 13.27
1/8/2023 10:00:00 AM 2.91 37.238 0.216 7.53 3.7 13.32
1/8/2023 10:15:00 AM 2.95 37.31 0.215 7.54 3.42 13.37
1/8/2023 10:30:00 AM 2.99 37.382 0.215 7.56 3.54 13.39
1/8/2023 10:45:00 AM 3 37.4 0.215 7.57 3.66 13.39
1/8/2023 11:00:00 AM 3.02 37.436 0.214 7.57 3.64 13.39
1/8/2023 11:15:00 AM 3.05 37.49 0.214 7.58 3.7 13.39
1/8/2023 11:30:00 AM 3.11 37.598 0.214 7.58 3.54 13.38
1/8/2023 11:45:00 AM 3.17 37.706 0.213 7.59 3.68 13.38
1/8/2023 12:00:00 PM 3.23 37.814 0.213 7.6 3.54 13.37
1/8/2023 12:15:00 PM 3.3 37.94 0.213 7.6 3.61 13.36
1/8/2023 12:30:00 PM 3.37 38.066 0.213 7.61 3.59 13.34
1/8/2023 12:45:00 PM 3.42 38.156 0.213 7.61 3.67 13.32
1/8/2023 1:00:00 PM 3.46 38.228 0.213 7.61 3.55 13.3
1/8/2023 1:15:00 PM 3.5 38.3 0.213 7.62 3.63 13.29
1/8/2023 1:30:00 PM 3.54 38.372 0.213 7.62 3.69 13.26
1/8/2023 1:45:00 PM 3.57 38.426 0.213 7.62 3.68 13.24
1/8/2023 2:00:00 PM 3.59 38.462 0.213 7.62 3.69 13.21
1/8/2023 2:15:00 PM 3.62 38.516 0.213 7.62 3.81 13.18
1/8/2023 2:30:00 PM 3.63 38.534 0.213 7.62 3.55 13.16
1/8/2023 2:45:00 PM 3.64 38.552 0.213 7.61 3.59 13.13
1/8/2023 3:00:00 PM 3.64 38.552 0.212 7.61 3.45 13.12
1/8/2023 3:15:00 PM 3.63 38.534 0.212 7.61 3.44 13.09
1/8/2023 3:30:00 PM 3.61 38.498 0.212 7.6 3.58 13.06
1/8/2023 3:45:00 PM 3.58 38.444 0.212 7.59 3.55 13.02
1/8/2023 4:00:00 PM 3.55 38.39 0.213 7.57 3.58 12.98
1/8/2023 4:15:00 PM 3.51 38.318 0.212 7.56 3.37 12.96
1/8/2023 4:30:00 PM 3.47 38.246 0.212 7.55 3.54 12.93
1/8/2023 4:45:00 PM 3.43 38.174 0.213 7.54 3.62 12.9
1/8/2023 5:00:00 PM 3.39 38.102 0.213 7.53 3.75 12.87
1/8/2023 5:15:00 PM 3.35 38.03 0.214 7.51 3.73 12.84
1/8/2023 5:30:00 PM 3.31 37.958 0.214 7.5 3.69 12.82
1/8/2023 5:45:00 PM 3.26 37.868 0.214 7.49 3.69 12.81
1/8/2023 6:00:00 PM 3.22 37.796 0.215 7.48 3.56 12.79
1/8/2023 6:15:00 PM 3.17 37.706 0.215 7.48 3.66 12.78
1/8/2023 6:30:00 PM 3.13 37.634 0.215 7.47 3.72 12.79
1/8/2023 6:45:00 PM 3.1 37.58 0.215 7.46 3.76 12.79
1/8/2023 7:00:00 PM 3.07 37.526 0.215 7.46 3.7 12.79
1/8/2023 7:15:00 PM 3.03 37.454 0.215 7.45 3.75 12.8
1/8/2023 7:30:00 PM 2.99 37.382 0.215 7.45 3.76 12.8
1/8/2023 7:45:00 PM 2.96 37.328 0.215 7.45 3.66 12.8
1/8/2023 8:00:00 PM 2.93 37.274 0.215 7.44 3.71 12.8
1/8/2023 8:15:00 PM 2.89 37.202 0.215 7.44 3.57 12.82
1/8/2023 8:30:00 PM 2.86 37.148 0.215 7.44 3.65 12.82
1/8/2023 8:45:00 PM 2.83 37.094 0.215 7.44 3.61 12.83
1/8/2023 9:00:00 PM 2.81 37.058 0.215 7.44 3.69 12.83
1/8/2023 9:15:00 PM 2.78 37.004 0.215 7.44 3.53 12.84
1/8/2023 9:30:00 PM 2.75 36.95 0.215 7.43 3.46 12.85
1/8/2023 9:45:00 PM 2.73 36.914 0.215 7.43 3.57 12.85
1/8/2023 10:00:00 PM 2.7 36.86 0.215 7.43 3.61 12.85
1/8/2023 10:15:00 PM 2.68 36.824 0.215 7.43 3.62 12.86
1/8/2023 10:30:00 PM 2.66 36.788 0.216 7.43 3.74 12.87
1/8/2023 10:45:00 PM 2.63 36.734 0.215 7.43 3.54 12.88
1/8/2023 11:00:00 PM 2.61 36.698 0.216 7.42 3.58 12.88
1/8/2023 11:15:00 PM 2.61 36.698 0.216 7.42 3.59 12.88
1/8/2023 11:30:00 PM 2.61 36.698 0.216 7.42 3.62 12.89
1/8/2023 11:45:00 PM 2.62 36.716 0.216 7.42 3.58 12.89
1/9/2023 12:00:00 AM 2.62 36.716 0.216 7.42 3.66 12.89
1/9/2023 12:15:00 AM 2.63 36.734 0.216 7.42 3.73 12.88
1/9/2023 12:30:00 AM 2.64 36.752 0.215 7.42 3.63 12.88
1/9/2023 12:45:00 AM 2.65 36.77 0.215 7.42 3.59 12.88
1/9/2023 1:00:00 AM 2.66 36.788 0.215 7.42 3.57 12.87
1/9/2023 1:15:00 AM 2.68 36.824 0.215 7.42 3.68 12.88
1/9/2023 1:30:00 AM 2.69 36.842 0.215 7.42 4.02 12.86
1/9/2023 1:45:00 AM 2.7 36.86 0.215 7.42 3.74 12.85
1/9/2023 2:00:00 AM 2.72 36.896 0.215 7.42 3.64 12.84
1/9/2023 2:15:00 AM 2.74 36.932 0.215 7.42 3.6 12.84
1/9/2023 2:30:00 AM 2.75 36.95 0.215 7.42 3.69 12.83
1/9/2023 2:45:00 AM 2.76 36.968 0.215 7.42 3.6 12.83
1/9/2023 3:00:00 AM 2.77 36.986 0.215 7.42 3.58 12.81
1/9/2023 3:15:00 AM 2.79 37.022 0.215 7.42 3.76 12.82
1/9/2023 3:30:00 AM 2.8 37.04 0.215 7.42 3.45 12.82
1/9/2023 3:45:00 AM 2.81 37.058 0.215 7.42 3.53 12.8
1/9/2023 4:00:00 AM 2.82 37.076 0.215 7.42 3.59 12.79
1/9/2023 4:15:00 AM 2.82 37.076 0.215 7.42 3.57 12.79
1/9/2023 4:30:00 AM 2.82 37.076 0.215 7.42 3.6 12.78
1/9/2023 4:45:00 AM 2.83 37.094 0.215 7.42 3.47 12.78
1/9/2023 5:00:00 AM 2.83 37.094 0.215 7.42 3.63 12.78
1/9/2023 5:15:00 AM 2.83 37.094 0.215 7.42 3.5 12.78
1/9/2023 5:30:00 AM 2.82 37.076 0.215 7.42 3.69 12.77
1/9/2023 5:45:00 AM 2.8 37.04 0.215 7.42 3.53 12.77
1/9/2023 6:00:00 AM 2.78 37.004 0.215 7.42 3.64 12.78
1/9/2023 6:15:00 AM 2.75 36.95 0.215 7.42 3.45 12.78
1/9/2023 6:30:00 AM 2.73 36.914 0.215 7.42 3.51 12.78
1/9/2023 6:45:00 AM 2.71 36.878 0.215 7.42 3.65 12.79
1/9/2023 7:00:00 AM 2.69 36.842 0.215 7.42 3.62 12.79
1/9/2023 7:15:00 AM 2.67 36.806 0.215 7.42 3.48 12.81
1/9/2023 7:30:00 AM 2.65 36.77 0.214 7.42 3.55 12.81
1/9/2023 7:45:00 AM 2.63 36.734 0.214 7.42 3.59 12.83
1/9/2023 8:00:00 AM 2.62 36.716 0.214 7.42 3.58 12.86
1/9/2023 8:15:00 AM 2.63 36.734 0.214 7.43 3.61 12.9
1/9/2023 8:30:00 AM 2.64 36.752 0.214 7.44 3.43 12.94
1/9/2023 8:45:00 AM 2.66 36.788 0.214 7.44 3.67 12.97
1/9/2023 9:00:00 AM 2.68 36.824 0.214 7.45 3.62 13.02
1/9/2023 9:15:00 AM 2.71 36.878 0.214 7.46 3.49 13.08
1/9/2023 9:30:00 AM 2.74 36.932 0.214 7.48 3.5 13.11
1/9/2023 9:45:00 AM 2.77 36.986 0.214 7.49 3.59 13.15
1/9/2023 10:00:00 AM 2.8 37.04 0.214 7.5 3.6 13.17
1/9/2023 10:15:00 AM 2.83 37.094 0.214 7.51 3.49 13.2
1/9/2023 10:30:00 AM 2.86 37.148 0.214 7.53 3.49 13.23
1/9/2023 10:45:00 AM 2.89 37.202 0.214 7.54 3.43 13.25
1/9/2023 11:00:00 AM 2.93 37.274 0.214 7.55 3.57 13.26
1/9/2023 11:15:00 AM 2.97 37.346 0.214 7.56 3.47 13.27
1/9/2023 11:30:00 AM 3.02 37.436 0.214 7.57 3.35 13.28
1/9/2023 11:45:00 AM 3.08 37.544 0.214 7.58 3.49 13.29
1/9/2023 12:00:00 PM 3.15 37.67 0.214 7.6 3.38 13.31
1/9/2023 12:15:00 PM 3.21 37.778 0.214 7.61 3.46 13.32
1/9/2023 12:30:00 PM 3.28 37.904 0.214 7.62 3.34 13.32
1/9/2023 12:45:00 PM 3.36 38.048 0.214 7.64 3.58 13.33
1/9/2023 1:00:00 PM 3.44 38.192 0.214 7.64 3.55 13.29
1/9/2023 1:15:00 PM 3.48 38.264 0.214 7.64 3.43 13.27
1/9/2023 1:30:00 PM 3.5 38.3 0.214 7.64 3.33 13.24
1/9/2023 1:45:00 PM 3.53 38.354 0.214 7.65 3.35 13.21
1/9/2023 2:00:00 PM 3.55 38.39 0.214 7.64 3.25 13.19
1/9/2023 2:15:00 PM 3.56 38.408 0.214 7.64 3.41 13.16
1/9/2023 2:30:00 PM 3.57 38.426 0.214 7.64 3.34 13.14
1/9/2023 2:45:00 PM 3.57 38.426 0.214 7.64 3.29 13.11
1/9/2023 3:00:00 PM 3.57 38.426 0.214 7.63 3.46 13.09
1/9/2023 3:15:00 PM 3.57 38.426 0.214 7.63 3.51 13.06
1/9/2023 3:30:00 PM 3.57 38.426 0.214 7.62 3.42 13.03
1/9/2023 3:45:00 PM 3.56 38.408 0.214 7.62 3.47 13
1/9/2023 4:00:00 PM 3.54 38.372 0.214 7.6 3.45 12.97
1/9/2023 4:15:00 PM 3.51 38.318 0.214 7.59 3.55 12.94
1/9/2023 4:30:00 PM 3.47 38.246 0.214 7.58 3.49 12.9
1/9/2023 4:45:00 PM 3.43 38.174 0.214 7.57 3.41 12.85
1/9/2023 5:00:00 PM 3.39 38.102 0.214 7.55 3.38 12.81
1/9/2023 5:15:00 PM 3.35 38.03 0.214 7.54 3.38 12.78
1/9/2023 5:30:00 PM 3.31 37.958 0.214 7.52 3.47 12.75
1/9/2023 5:45:00 PM 3.27 37.886 0.214 7.51 3.4 12.73
1/9/2023 6:00:00 PM 3.22 37.796 0.214 7.5 3.41 12.71
1/9/2023 6:15:00 PM 3.18 37.724 0.214 7.49 3.52 12.7
1/9/2023 6:30:00 PM 3.14 37.652 0.214 7.48 3.53 12.7
1/9/2023 6:45:00 PM 3.1 37.58 0.214 7.48 3.58 12.7
1/9/2023 7:00:00 PM 3.06 37.508 0.214 7.47 3.41 12.7
1/9/2023 7:15:00 PM 3.02 37.436 0.214 7.47 3.5 12.71
1/9/2023 7:30:00 PM 2.98 37.364 0.214 7.46 3.53 12.72
1/9/2023 7:45:00 PM 2.94 37.292 0.214 7.46 3.48 12.73
1/9/2023 8:00:00 PM 2.9 37.22 0.214 7.45 3.4 12.73
1/9/2023 8:15:00 PM 2.86 37.148 0.214 7.45 3.45 12.73
1/9/2023 8:30:00 PM 2.83 37.094 0.214 7.45 3.5 12.75
1/9/2023 8:45:00 PM 2.79 37.022 0.214 7.45 3.44 12.76
1/9/2023 9:00:00 PM 2.76 36.968 0.214 7.44 3.56 12.76
1/9/2023 9:15:00 PM 2.73 36.914 0.215 7.44 3.51 12.77
1/9/2023 9:30:00 PM 2.72 36.896 0.214 7.44 3.43 12.78
1/9/2023 9:45:00 PM 2.71 36.878 0.214 7.44 3.39 12.79
1/9/2023 10:00:00 PM 2.7 36.86 0.215 7.44 3.42 12.81
1/9/2023 10:15:00 PM 2.7 36.86 0.214 7.44 3.49 12.81
1/9/2023 10:30:00 PM 2.7 36.86 0.215 7.43 3.48 12.81
1/9/2023 10:45:00 PM 2.69 36.842 0.215 7.43 3.47 12.81
1/9/2023 11:00:00 PM 2.7 36.86 0.216 7.43 3.33 12.82
1/9/2023 11:15:00 PM 2.7 36.86 0.216 7.43 3.56 12.81
1/9/2023 11:30:00 PM 2.71 36.878 0.216 7.43 3.43 12.82
1/9/2023 11:45:00 PM 2.73 36.914 0.216 7.43 3.46 12.82
1/10/2023 12:00:00 AM 2.74 36.932 0.216 7.43 3.6 12.82
1/10/2023 12:15:00 AM 2.76 36.968 0.217 7.43 3.47 12.81
1/10/2023 12:30:00 AM 2.78 37.004 0.216 7.43 3.36 12.81
1/10/2023 12:45:00 AM 2.81 37.058 0.216 7.43 3.33 12.8
1/10/2023 1:00:00 AM 2.83 37.094 0.216 7.43 3.47 12.78
1/10/2023 1:15:00 AM 2.86 37.148 0.216 7.43 3.36 12.78
1/10/2023 1:30:00 AM 2.88 37.184 0.217 7.43 3.34 12.77
1/10/2023 1:45:00 AM 2.9 37.22 0.217 7.43 3.37 12.77
1/10/2023 2:00:00 AM 2.93 37.274 0.217 7.43 3.4 12.75
1/10/2023 2:15:00 AM 2.95 37.31 0.216 7.43 3.42 12.75
1/10/2023 2:30:00 AM 2.98 37.364 0.216 7.44 3.51 12.74
1/10/2023 2:45:00 AM 3.01 37.418 0.215 7.44 3.48 12.73
1/10/2023 3:00:00 AM 3.03 37.454 0.216 7.44 3.42 12.72
1/10/2023 3:15:00 AM 3.05 37.49 0.215 7.44 3.47 12.71
1/10/2023 3:30:00 AM 3.07 37.526 0.214 7.44 3.45 12.71
1/10/2023 3:45:00 AM 3.09 37.562 0.214 7.44 3.36 12.71
1/10/2023 4:00:00 AM 3.11 37.598 0.214 7.44 3.39 12.7
1/10/2023 4:15:00 AM 3.12 37.616 0.214 7.44 3.24 12.7
1/10/2023 4:30:00 AM 3.14 37.652 0.214 7.44 3.35 12.69
1/10/2023 4:45:00 AM 3.15 37.67 0.214 7.44 3.28 12.68
1/10/2023 5:00:00 AM 3.16 37.688 0.214 7.44 3.35 12.68
1/10/2023 5:15:00 AM 3.18 37.724 0.214 7.44 3.42 12.68
1/10/2023 5:30:00 AM 3.19 37.742 0.213 7.44 3.32 12.67
1/10/2023 5:45:00 AM 3.2 37.76 0.214 7.44 3.38 12.67
1/10/2023 6:00:00 AM 3.21 37.778 0.213 7.44 3.33 12.67
1/10/2023 6:15:00 AM 3.21 37.778 0.213 7.44 3.43 12.67
1/10/2023 6:30:00 AM 3.22 37.796 0.213 7.44 3.39 12.66
1/10/2023 6:45:00 AM 3.23 37.814 0.213 7.44 3.36 12.66
1/10/2023 7:00:00 AM 3.24 37.832 0.213 7.44 3.36 12.66
1/10/2023 7:15:00 AM 3.25 37.85 0.212 7.44 3.31 12.67
1/10/2023 7:30:00 AM 3.26 37.868 0.212 7.44 3.38 12.66
1/10/2023 7:45:00 AM 3.26 37.868 0.212 7.44 3.34 12.66
1/10/2023 8:00:00 AM 3.27 37.886 0.212 7.44 3.28 12.67
1/10/2023 8:15:00 AM 3.28 37.904 0.212 7.44 3.27 12.68
1/10/2023 8:30:00 AM 3.29 37.922 0.212 7.45 3.52 12.69
1/10/2023 8:45:00 AM 3.3 37.94 0.212 7.45 3.37 12.72
1/10/2023 9:00:00 AM 3.31 37.958 0.213 7.46 3.19 12.75
1/10/2023 9:15:00 AM 3.32 37.976 0.212 7.47 3.33 12.77
1/10/2023 9:30:00 AM 3.33 37.994 0.213 7.47 3.33 12.8
1/10/2023 9:45:00 AM 3.33 37.994 0.212 7.48 3.34 12.82
1/10/2023 10:00:00 AM 3.35 38.03 0.212 7.49 3.51 12.85
1/10/2023 10:15:00 AM 3.36 38.048 0.213 7.49 3.38 12.87
1/10/2023 10:30:00 AM 3.36 38.048 0.212 7.5 3.18 12.9
1/10/2023 10:45:00 AM 3.32 37.976 0.213 7.51 3.22 12.9
1/10/2023 11:00:00 AM 3.26 37.868 0.213 7.51 3.36 12.93
1/10/2023 11:15:00 AM 3.25 37.85 0.213 7.52 3.26 12.97
1/10/2023 11:30:00 AM 3.27 37.886 0.213 7.53 3.23 13
1/10/2023 11:45:00 AM 3.31 37.958 0.213 7.54 3.1 13.03
1/10/2023 12:00:00 PM 3.35 38.03 0.213 7.55 3.1 13.06
1/10/2023 12:15:00 PM 3.39 38.102 0.213 7.56 3.23 13.07
1/10/2023 12:30:00 PM 3.43 38.174 0.213 7.57 3.14 13.09
1/10/2023 12:45:00 PM 3.47 38.246 0.214 7.58 3.23 13.1
1/10/2023 1:00:00 PM 3.48 38.264 0.214 7.58 3.2 13.08
1/10/2023 1:15:00 PM 3.49 38.282 0.215 7.57 3.1 13.04
1/10/2023 1:30:00 PM 3.49 38.282 0.214 7.57 3.2 13.02
1/10/2023 1:45:00 PM 3.51 38.318 0.214 7.57 3.15 13.01
1/10/2023 2:00:00 PM 3.53 38.354 0.214 7.58 3.18 13.03
1/10/2023 2:15:00 PM 3.54 38.372 0.214 7.58 3.19 13.03
1/10/2023 2:30:00 PM 3.55 38.39 0.215 7.58 3.18 13.02
1/10/2023 2:45:00 PM 3.56 38.408 0.216 7.58 3.23 13
1/10/2023 3:00:00 PM 3.56 38.408 0.216 7.58 3.18 12.98
1/10/2023 3:15:00 PM 3.57 38.426 0.215 7.58 3.19 12.98
1/10/2023 3:30:00 PM 3.58 38.444 0.216 7.58 3.19 12.97
1/10/2023 3:45:00 PM 3.59 38.462 0.215 7.58 3.19 12.96
1/10/2023 4:00:00 PM 3.59 38.462 0.215 7.57 3.2 12.93
1/10/2023 4:15:00 PM 3.58 38.444 0.215 7.56 3.19 12.89
1/10/2023 4:30:00 PM 3.57 38.426 0.216 7.55 3.14 12.85
1/10/2023 4:45:00 PM 3.56 38.408 0.216 7.54 3.29 12.8
1/10/2023 5:00:00 PM 3.55 38.39 0.217 7.53 3.2 12.77
1/10/2023 5:15:00 PM 3.54 38.372 0.216 7.52 3.24 12.73
1/10/2023 5:30:00 PM 3.53 38.354 0.216 7.51 3.19 12.71
1/10/2023 5:45:00 PM 3.52 38.336 0.217 7.5 3.16 12.69
1/10/2023 6:00:00 PM 3.51 38.318 0.217 7.49 3.16 12.68
1/10/2023 6:15:00 PM 3.51 38.318 0.217 7.48 3.23 12.66
1/10/2023 6:30:00 PM 3.49 38.282 0.217 7.48 3.2 12.65
1/10/2023 6:45:00 PM 3.48 38.264 0.218 7.48 3.22 12.65
1/10/2023 7:00:00 PM 3.47 38.246 0.217 7.47 3.19 12.65
1/10/2023 7:15:00 PM 3.46 38.228 0.217 7.47 3.19 12.64
1/10/2023 7:30:00 PM 3.45 38.21 0.217 7.47 3.2 12.64
1/10/2023 7:45:00 PM 3.43 38.174 0.217 7.46 3.23 12.64
1/10/2023 8:00:00 PM 3.42 38.156 0.218 7.46 3.35 12.64
1/10/2023 8:15:00 PM 3.41 38.138 0.218 7.46 3.21 12.65
1/10/2023 8:30:00 PM 3.4 38.12 0.217 7.46 3.17 12.65
1/10/2023 8:45:00 PM 3.39 38.102 0.218 7.45 3.23 12.65
1/10/2023 9:00:00 PM 3.38 38.084 0.218 7.45 3.2 12.65
1/10/2023 9:15:00 PM 3.37 38.066 0.218 7.45 3.25 12.65
1/10/2023 9:30:00 PM 3.36 38.048 0.218 7.45 3.22 12.66
1/10/2023 9:45:00 PM 3.35 38.03 0.218 7.45 3.15 12.66
1/10/2023 10:00:00 PM 3.35 38.03 0.218 7.45 3.12 12.66
1/10/2023 10:15:00 PM 3.34 38.012 0.219 7.45 3.18 12.67
1/10/2023 10:30:00 PM 3.33 37.994 0.219 7.44 3.25 12.67
1/10/2023 10:45:00 PM 3.32 37.976 0.219 7.45 3.23 12.67
1/10/2023 11:00:00 PM 3.32 37.976 0.219 7.45 3.24 12.68
1/10/2023 11:15:00 PM 3.31 37.958 0.219 7.44 3.2 12.69
1/10/2023 11:30:00 PM 3.31 37.958 0.219 7.44 3.16 12.69
1/10/2023 11:45:00 PM 3.3 37.94 0.218 7.44 3.18 12.69
1/11/2023 12:00:00 AM 3.3 37.94 0.218 7.44 3.12 12.69
1/11/2023 12:15:00 AM 3.29 37.922 0.218 7.44 3.22 12.69
1/11/2023 12:30:00 AM 3.28 37.904 0.218 7.44 3.11 12.69
1/11/2023 12:45:00 AM 3.28 37.904 0.218 7.44 3.18 12.7
1/11/2023 1:00:00 AM 3.27 37.886 0.218 7.44 3.39 12.7
1/11/2023 1:15:00 AM 3.26 37.868 0.217 7.44 3.26 12.7
1/11/2023 1:30:00 AM 3.26 37.868 0.217 7.44 3.1 12.7
1/11/2023 1:45:00 AM 3.25 37.85 0.217 7.44 3.23 12.7
1/11/2023 2:00:00 AM 3.25 37.85 0.217 7.44 3.14 12.7
1/11/2023 2:15:00 AM 3.25 37.85 0.217 7.44 3.23 12.7
1/11/2023 2:30:00 AM 3.24 37.832 0.217 7.44 3.25 12.71
1/11/2023 2:45:00 AM 3.24 37.832 0.217 7.44 3.11 12.71
1/11/2023 3:00:00 AM 3.24 37.832 0.217 7.44 3.19 12.71
1/11/2023 3:15:00 AM 3.24 37.832 0.217 7.44 3.17 12.72
1/11/2023 3:30:00 AM 3.24 37.832 0.217 7.43 3.21 12.72
1/11/2023 3:45:00 AM 3.24 37.832 0.217 7.43 3.16 12.72
1/11/2023 4:00:00 AM 3.23 37.814 0.217 7.43 3.17 12.72
1/11/2023 4:15:00 AM 3.23 37.814 0.217 7.43 3.12 12.72
1/11/2023 4:30:00 AM 3.23 37.814 0.217 7.43 3.23 12.72
1/11/2023 4:45:00 AM 3.23 37.814 0.217 7.43 3.11 12.72
1/11/2023 5:00:00 AM 3.23 37.814 0.217 7.43 3.33 12.72
1/11/2023 5:15:00 AM 3.23 37.814 0.216 7.43 3.16 12.72
1/11/2023 5:30:00 AM 3.23 37.814 0.216 7.43 3.21 12.72
1/11/2023 5:45:00 AM 3.23 37.814 0.216 7.44 3.28 12.72
1/11/2023 6:00:00 AM 3.23 37.814 0.216 7.44 3.17 12.72
1/11/2023 6:15:00 AM 3.22 37.796 0.216 7.44 3.15 12.72
1/11/2023 6:30:00 AM 3.22 37.796 0.216 7.43 3.23 12.72
1/11/2023 6:45:00 AM 3.22 37.796 0.215 7.44 3.17 12.72
1/11/2023 7:00:00 AM 3.21 37.778 0.216 7.44 3.15 12.73
1/11/2023 7:15:00 AM 3.21 37.778 0.217 7.43 3.41 12.73
1/11/2023 7:30:00 AM 3.2 37.76 0.217 7.44 3.33 12.74
1/11/2023 7:45:00 AM 3.19 37.742 0.216 7.44 3.3 12.75
1/11/2023 8:00:00 AM 3.19 37.742 0.216 7.44 3.26 12.78
1/11/2023 8:15:00 AM 3.2 37.76 0.216 7.45 3.12 12.83
1/11/2023 8:30:00 AM 3.21 37.778 0.216 7.46 3.24 12.88
1/11/2023 8:45:00 AM 3.22 37.796 0.216 7.48 3.2 12.94
1/11/2023 9:00:00 AM 3.24 37.832 0.217 7.49 3.18 13.01
1/11/2023 9:15:00 AM 3.27 37.886 0.217 7.51 3.39 13.07
1/11/2023 9:30:00 AM 3.31 37.958 0.216 7.53 3.02 13.14
1/11/2023 9:45:00 AM 3.35 38.03 0.217 7.55 3.16 13.19
1/11/2023 10:00:00 AM 3.39 38.102 0.216 7.57 3.09 13.25
1/11/2023 10:15:00 AM 3.42 38.156 0.217 7.59 3.22 13.28
1/11/2023 10:30:00 AM 3.47 38.246 0.216 7.6 3.15 13.32
1/11/2023 10:45:00 AM 3.52 38.336 0.216 7.62 3.1 13.35
1/11/2023 11:00:00 AM 3.57 38.426 0.216 7.64 3.02 13.36
1/11/2023 11:15:00 AM 3.64 38.552 0.215 7.65 3.01 13.38
1/11/2023 11:30:00 AM 3.72 38.696 0.215 7.66 3.08 13.39
1/11/2023 11:45:00 AM 3.78 38.804 0.215 7.68 3.13 13.4
1/11/2023 12:00:00 PM 3.83 38.894 0.215 7.69 3.07 13.37
1/11/2023 12:15:00 PM 3.88 38.984 0.215 7.7 3.1 13.38
1/11/2023 12:30:00 PM 3.95 39.11 0.215 7.71 3.12 13.37
1/11/2023 12:45:00 PM 4 39.2 0.215 7.72 3.01 13.36
1/11/2023 1:00:00 PM 4.08 39.344 0.215 7.73 3.04 13.35
1/11/2023 1:15:00 PM 4.14 39.452 0.215 7.73 3.09 13.35
1/11/2023 1:30:00 PM 4.19 39.542 0.215 7.74 3.02 13.31
1/11/2023 1:45:00 PM 4.22 39.596 0.215 7.75 3.03 13.3
1/11/2023 2:00:00 PM 4.25 39.65 0.215 7.75 3.14 13.28
1/11/2023 2:15:00 PM 4.28 39.704 0.215 7.75 2.97 13.25
1/11/2023 2:30:00 PM 4.3 39.74 0.215 7.75 3.17 13.22
1/11/2023 2:45:00 PM 4.33 39.794 0.214 7.75 3.04 13.2
1/11/2023 3:00:00 PM 4.34 39.812 0.214 7.76 2.97 13.18
1/11/2023 3:15:00 PM 4.34 39.812 0.215 7.75 3.07 13.15
1/11/2023 3:30:00 PM 4.34 39.812 0.215 7.75 3.02 13.13
1/11/2023 3:45:00 PM 4.33 39.794 0.215 7.73 2.99 13.1
1/11/2023 4:00:00 PM 4.31 39.758 0.215 7.72 2.95 13.05
1/11/2023 4:15:00 PM 4.29 39.722 0.215 7.7 3.02 12.99
1/11/2023 4:30:00 PM 4.26 39.668 0.215 7.67 3.04 12.91
1/11/2023 4:45:00 PM 4.22 39.596 0.214 7.65 3 12.84
1/11/2023 5:00:00 PM 4.18 39.524 0.215 7.62 3.03 12.77
1/11/2023 5:15:00 PM 4.14 39.452 0.215 7.6 3.14 12.71
1/11/2023 5:30:00 PM 4.11 39.398 0.215 7.58 3.05 12.66
1/11/2023 5:45:00 PM 4.06 39.308 0.215 7.56 3.23 12.63
1/11/2023 6:00:00 PM 4.02 39.236 0.215 7.54 3.01 12.6
1/11/2023 6:15:00 PM 3.99 39.182 0.215 7.53 3.09 12.59
1/11/2023 6:30:00 PM 3.95 39.11 0.216 7.52 3.16 12.57
1/11/2023 6:45:00 PM 3.9 39.02 0.217 7.51 3.05 12.55
1/11/2023 7:00:00 PM 3.85 38.93 0.217 7.5 3.14 12.55
1/11/2023 7:15:00 PM 3.8 38.84 0.217 7.5 3.15 12.56
1/11/2023 7:30:00 PM 3.75 38.75 0.217 7.49 3.04 12.57
1/11/2023 7:45:00 PM 3.71 38.678 0.217 7.48 3.15 12.56
1/11/2023 8:00:00 PM 3.67 38.606 0.217 7.48 2.96 12.57
1/11/2023 8:15:00 PM 3.64 38.552 0.217 7.47 3.11 12.58
1/11/2023 8:30:00 PM 3.61 38.498 0.217 7.47 3.12 12.58
1/11/2023 8:45:00 PM 3.58 38.444 0.217 7.47 3.09 12.59
1/11/2023 9:00:00 PM 3.56 38.408 0.217 7.46 2.98 12.6
1/11/2023 9:15:00 PM 3.54 38.372 0.217 7.46 3.22 12.61
1/11/2023 9:30:00 PM 3.53 38.354 0.217 7.46 3.21 12.61
1/11/2023 9:45:00 PM 3.52 38.336 0.218 7.46 3.12 12.62
1/11/2023 10:00:00 PM 3.51 38.318 0.217 7.45 3.12 12.62
1/11/2023 10:15:00 PM 3.5 38.3 0.217 7.46 3.3 12.63
1/11/2023 10:30:00 PM 3.49 38.282 0.217 7.45 3.07 12.64
1/11/2023 10:45:00 PM 3.49 38.282 0.217 7.45 3.3 12.63
1/11/2023 11:00:00 PM 3.48 38.264 0.217 7.45 3.11 12.64
1/11/2023 11:15:00 PM 3.48 38.264 0.217 7.45 3.22 12.64
1/11/2023 11:30:00 PM 3.48 38.264 0.217 7.45 3.1 12.64
1/11/2023 11:45:00 PM 3.47 38.246 0.217 7.45 3.14 12.64
1/12/2023 12:00:00 AM 3.47 38.246 0.217 7.45 3.11 12.64
1/12/2023 12:15:00 AM 3.47 38.246 0.217 7.45 3.04 12.64
1/12/2023 12:30:00 AM 3.47 38.246 0.216 7.45 3.1 12.63
1/12/2023 12:45:00 AM 3.48 38.264 0.216 7.45 3 12.64
1/12/2023 1:00:00 AM 3.48 38.264 0.216 7.45 3.02 12.63
1/12/2023 1:15:00 AM 3.48 38.264 0.216 7.45 3.06 12.63
1/12/2023 1:30:00 AM 3.48 38.264 0.216 7.45 3.15 12.62
1/12/2023 1:45:00 AM 3.47 38.246 0.216 7.45 3.01 12.62
1/12/2023 2:00:00 AM 3.48 38.264 0.216 7.45 3.04 12.63
1/12/2023 2:15:00 AM 3.48 38.264 0.215 7.45 3.03 12.62
1/12/2023 2:30:00 AM 3.48 38.264 0.215 7.45 3.08 12.62
1/12/2023 2:45:00 AM 3.48 38.264 0.215 7.45 3.02 12.61
1/12/2023 3:00:00 AM 3.49 38.282 0.215 7.44 3.07 12.62
1/12/2023 3:15:00 AM 3.49 38.282 0.215 7.45 3.06 12.62
1/12/2023 3:30:00 AM 3.49 38.282 0.215 7.44 3.04 12.61
1/12/2023 3:45:00 AM 3.49 38.282 0.215 7.44 3.05 12.62
1/12/2023 4:00:00 AM 3.49 38.282 0.215 7.44 3.06 12.61
1/12/2023 4:15:00 AM 3.49 38.282 0.214 7.44 3.02 12.61
1/12/2023 4:30:00 AM 3.49 38.282 0.214 7.44 3.02 12.61
1/12/2023 4:45:00 AM 3.49 38.282 0.214 7.44 3.14 12.61
1/12/2023 5:00:00 AM 3.49 38.282 0.214 7.44 2.99 12.61
1/12/2023 5:15:00 AM 3.49 38.282 0.214 7.44 3.09 12.61
1/12/2023 5:30:00 AM 3.49 38.282 0.213 7.44 2.95 12.6
1/12/2023 5:45:00 AM 3.48 38.264 0.213 7.44 3.06 12.6
1/12/2023 6:00:00 AM 3.49 38.282 0.213 7.44 3.06 12.6
1/12/2023 6:15:00 AM 3.5 38.3 0.213 7.44 2.95 12.6
1/12/2023 6:30:00 AM 3.5 38.3 0.214 7.44 2.97 12.6
1/12/2023 6:45:00 AM 3.5 38.3 0.213 7.44 3 12.6
1/12/2023 7:00:00 AM 3.51 38.318 0.213 7.44 3.07 12.6
1/12/2023 7:15:00 AM 3.52 38.336 0.214 7.44 3.06 12.6
1/12/2023 7:30:00 AM 3.53 38.354 0.214 7.44 2.93 12.6
1/12/2023 7:45:00 AM 3.54 38.372 0.214 7.44 2.97 12.59
1/12/2023 8:00:00 AM 3.55 38.39 0.213 7.44 2.93 12.6
1/12/2023 8:15:00 AM 3.56 38.408 0.213 7.44 3.05 12.59
1/12/2023 8:30:00 AM 3.57 38.426 0.213 7.45 2.91 12.62
1/12/2023 8:45:00 AM 3.59 38.462 0.212 7.45 2.94 12.64
1/12/2023 9:00:00 AM 3.61 38.498 0.212 7.46 2.96 12.66
1/12/2023 9:15:00 AM 3.63 38.534 0.212 7.47 2.98 12.69
1/12/2023 9:30:00 AM 3.65 38.57 0.212 7.48 2.89 12.72
1/12/2023 9:45:00 AM 3.67 38.606 0.212 7.48 2.9 12.74
1/12/2023 10:00:00 AM 3.7 38.66 0.212 7.49 2.93 12.74
1/12/2023 10:15:00 AM 3.72 38.696 0.212 7.5 2.89 12.77
1/12/2023 10:30:00 AM 3.75 38.75 0.212 7.5 2.96 12.77
1/12/2023 10:45:00 AM 3.79 38.822 0.212 7.52 3.07 12.84
1/12/2023 11:00:00 AM 3.83 38.894 0.212 7.53 2.93 12.85
1/12/2023 11:15:00 AM 3.86 38.948 0.212 7.54 2.91 12.87
1/12/2023 11:30:00 AM 3.9 39.02 0.213 7.55 2.91 12.88
1/12/2023 11:45:00 AM 3.94 39.092 0.212 7.56 3.03 12.9
1/12/2023 12:00:00 PM 3.97 39.146 0.211 7.57 2.96 12.9
1/12/2023 12:15:00 PM 4.01 39.218 0.21 7.57 2.89 12.9
1/12/2023 12:30:00 PM 4.04 39.272 0.21 7.58 2.94 12.89
1/12/2023 12:45:00 PM 4.08 39.344 0.211 7.58 3.01 12.87
1/12/2023 1:00:00 PM 4.11 39.398 0.211 7.59 2.9 12.85
1/12/2023 1:15:00 PM 4.14 39.452 0.211 7.58 2.88 12.83
1/12/2023 1:30:00 PM 4.17 39.506 0.211 7.59 2.95 12.81
1/12/2023 1:45:00 PM 4.2 39.56 0.212 7.58 2.87 12.79
1/12/2023 2:00:00 PM 4.22 39.596 0.212 7.58 2.89 12.76
1/12/2023 2:15:00 PM 4.24 39.632 0.212 7.57 2.85 12.71
1/12/2023 2:30:00 PM 4.26 39.668 0.212 7.57 2.9 12.7
1/12/2023 2:45:00 PM 4.29 39.722 0.212 7.57 2.81 12.68
1/12/2023 3:00:00 PM 4.31 39.758 0.212 7.57 2.87 12.65
1/12/2023 3:15:00 PM 4.33 39.794 0.211 7.57 2.89 12.65
1/12/2023 3:30:00 PM 4.35 39.83 0.211 7.57 2.84 12.62
1/12/2023 3:45:00 PM 4.37 39.866 0.211 7.56 2.83 12.6
1/12/2023 4:00:00 PM 4.39 39.902 0.211 7.56 2.86 12.58
1/12/2023 4:15:00 PM 4.4 39.92 0.212 7.55 2.85 12.54
1/12/2023 4:30:00 PM 4.4 39.92 0.212 7.55 2.84 12.5
1/12/2023 4:45:00 PM 4.42 39.956 0.211 7.53 2.98 12.44
1/12/2023 5:00:00 PM 4.42 39.956 0.21 7.52 3.06 12.4
1/12/2023 5:15:00 PM 4.43 39.974 0.21 7.51 3.44 12.36
1/12/2023 5:30:00 PM 4.43 39.974 0.211 7.5 4.29 12.32
1/12/2023 5:45:00 PM 4.44 39.992 0.211 7.49 4.19 12.3
1/12/2023 6:00:00 PM 4.44 39.992 0.211 7.49 4.15 12.28
1/12/2023 6:15:00 PM 4.44 39.992 0.212 7.48 4.13 12.26
1/12/2023 6:30:00 PM 4.44 39.992 0.212 7.47 4.12 12.24
1/12/2023 6:45:00 PM 4.46 40.028 0.212 7.47 3.83 12.22
1/12/2023 7:00:00 PM 4.47 40.046 0.213 7.47 3.96 12.22
1/12/2023 7:15:00 PM 4.49 40.082 0.216 7.47 4.39 12.2
1/12/2023 7:30:00 PM 4.5 40.1 0.217 7.47 4.61 12.19
1/12/2023 7:45:00 PM 4.51 40.118 0.218 7.47 4.42 12.18
1/12/2023 8:00:00 PM 4.51 40.118 0.218 7.47 4.35 12.18
1/12/2023 8:15:00 PM 4.51 40.118 0.219 7.47 4.26 12.17
1/12/2023 8:30:00 PM 4.52 40.136 0.219 7.47 4.75 12.16
1/12/2023 8:45:00 PM 4.52 40.136 0.223 7.46 4.99 12.16
1/12/2023 9:00:00 PM 4.52 40.136 0.226 7.46 5.11 12.16
1/12/2023 9:15:00 PM 4.52 40.136 0.227 7.46 5.27 12.16
1/12/2023 9:30:00 PM 4.53 40.154 0.228 7.46 5.4 12.15
1/12/2023 9:45:00 PM 4.54 40.172 0.231 7.46 6.35 12.15
1/12/2023 10:00:00 PM 4.55 40.19 0.232 7.46 6.35 12.14
1/12/2023 10:15:00 PM 4.56 40.208 0.231 7.46 6.09 12.14
1/12/2023 10:30:00 PM 4.57 40.226 0.233 7.46 5.89 12.13
1/12/2023 10:45:00 PM 4.58 40.244 0.233 7.46 5.73 12.12
1/12/2023 11:00:00 PM 4.59 40.262 0.233 7.46 5.63 12.11
1/12/2023 11:15:00 PM 4.6 40.28 0.233 7.46 5.69 12.11
1/12/2023 11:30:00 PM 4.61 40.298 0.235 7.46 260.63 12.11
1/12/2023 11:45:00 PM 4.6 40.28 0.236 7.45 5.57 12.1
1/13/2023 12:00:00 AM 4.6 40.28 0.237 7.45 5.75 12.11
1/13/2023 12:15:00 AM 4.59 40.262 0.237 7.45 6.05 12.11
1/13/2023 12:30:00 AM 4.59 40.262 0.238 7.45 6.17 12.11
1/13/2023 12:45:00 AM 4.59 40.262 0.239 7.45 6.54 12.11
1/13/2023 1:00:00 AM 4.6 40.28 0.241 7.45 5.97 12.11
1/13/2023 1:15:00 AM 4.6 40.28 0.244 7.45 5.96 12.1
1/13/2023 1:30:00 AM 4.61 40.298 0.248 7.45 6.58 12.09
1/13/2023 1:45:00 AM 4.62 40.316 0.251 7.45 6.48 12.09
1/13/2023 2:00:00 AM 4.63 40.334 0.252 7.45 7.51 12.09
1/13/2023 2:15:00 AM 4.63 40.334 0.251 7.45 7.36 12.09
1/13/2023 2:30:00 AM 4.63 40.334 0.248 7.44 7.85 12.09
1/13/2023 2:45:00 AM 4.63 40.334 0.245 7.44 8.48 12.09
1/13/2023 3:00:00 AM 4.63 40.334 0.241 7.44 8.98 12.1
1/13/2023 3:15:00 AM 4.63 40.334 0.238 7.44 9.01 12.09
1/13/2023 3:30:00 AM 4.63 40.334 0.236 7.43 9.42 12.09
1/13/2023 3:45:00 AM 4.64 40.352 0.234 7.44 9.43 12.09
1/13/2023 4:00:00 AM 4.66 40.388 0.233 7.44 9.57 12.08
1/13/2023 4:15:00 AM 4.67 40.406 0.232 7.44 10.61 12.08
1/13/2023 4:30:00 AM 4.69 40.442 0.231 7.44 10.73 12.07
1/13/2023 4:45:00 AM 4.71 40.478 0.23 7.44 10.67 12.07
1/13/2023 5:00:00 AM 4.74 40.532 0.23 7.44 11.07 12.06
1/13/2023 5:15:00 AM 4.77 40.586 0.229 7.44 10.85 12.06
1/13/2023 5:30:00 AM 4.79 40.622 0.23 7.45 10.83 12.05
1/13/2023 5:45:00 AM 4.81 40.658 0.229 7.44 10.73 12.04
1/13/2023 6:00:00 AM 4.83 40.694 0.229 7.45 10.88 12.04
1/13/2023 6:15:00 AM 4.85 40.73 0.23 7.45 10.76 12.04
1/13/2023 6:30:00 AM 4.86 40.748 0.23 7.45 10.82 12.04
1/13/2023 6:45:00 AM 4.87 40.766 0.232 7.45 10.2 12.04
1/13/2023 7:00:00 AM 4.88 40.784 0.232 7.45 10.28 12.03
1/13/2023 7:15:00 AM 4.88 40.784 0.233 7.45 10.07 12.04
1/13/2023 7:30:00 AM 4.88 40.784 0.233 7.45 9.77 12.04
1/13/2023 7:45:00 AM 4.88 40.784 0.232 7.45 9.42 12.04
1/13/2023 8:00:00 AM 4.88 40.784 0.232 7.45 9.33 12.05
1/13/2023 8:15:00 AM 4.88 40.784 0.231 7.45 8.67 12.05
1/13/2023 8:30:00 AM 4.85 40.73 0.229 7.45 8.56 12.06
1/13/2023 8:45:00 AM 4.83 40.694 0.228 7.45 8.33 12.08
1/13/2023 9:00:00 AM 4.8 40.64 0.226 7.46 7.8 12.1
1/13/2023 9:15:00 AM 4.76 40.568 0.224 7.46 7.97 12.12
1/13/2023 9:30:00 AM 4.74 40.532 0.222 7.46 7.62 12.14
1/13/2023 9:45:00 AM 4.7 40.46 0.22 7.46 7.26 12.17
1/13/2023 10:00:00 AM 4.67 40.406 0.219 7.47 7.29 12.2
1/13/2023 10:15:00 AM 4.64 40.352 0.217 7.47 7.12 12.25
1/13/2023 10:30:00 AM 4.61 40.298 0.217 7.48 6.73 12.31
1/13/2023 10:45:00 AM 4.58 40.244 0.216 7.49 6.53 12.35
1/13/2023 11:00:00 AM 4.55 40.19 0.215 7.5 6.62 12.39
1/13/2023 11:15:00 AM 4.51 40.118 0.216 7.51 6.25 12.42
1/13/2023 11:30:00 AM 4.48 40.064 0.215 7.51 6.24 12.47
1/13/2023 11:45:00 AM 4.46 40.028 0.214 7.52 6.37 12.49
1/13/2023 12:00:00 PM 4.43 39.974 0.215 7.53 6.3 12.52
1/13/2023 12:15:00 PM 4.4 39.92 0.214 7.53 6.31 12.53
1/13/2023 12:30:00 PM 4.37 39.866 0.214 7.53 6.01 12.54
1/13/2023 12:45:00 PM 4.34 39.812 0.215 7.53 6.1 12.55
1/13/2023 1:00:00 PM 4.33 39.794 0.214 7.53 5.94 12.57
1/13/2023 1:15:00 PM 4.3 39.74 0.215 7.53 5.71 12.56
1/13/2023 1:30:00 PM 4.28 39.704 0.215 7.53 5.81 12.56
1/13/2023 1:45:00 PM 4.26 39.668 0.216 7.53 5.72 12.55
1/13/2023 2:00:00 PM 4.24 39.632 0.216 7.52 5.88 12.55
1/13/2023 2:15:00 PM 4.22 39.596 0.217 7.52 5.74 12.56
1/13/2023 2:30:00 PM 4.2 39.56 0.217 7.52 5.7 12.56
1/13/2023 2:45:00 PM 4.19 39.542 0.217 7.52 5.33 12.55
1/13/2023 3:00:00 PM 4.16 39.488 0.218 7.52 5.54 12.54
1/13/2023 3:15:00 PM 4.14 39.452 0.218 7.51 5.55 12.54
1/13/2023 3:30:00 PM 4.11 39.398 0.219 7.51 5.42 12.53
1/13/2023 3:45:00 PM 4.09 39.362 0.22 7.51 5.43 12.52
1/13/2023 4:00:00 PM 4.07 39.326 0.22 7.5 5.56 12.52
1/13/2023 4:15:00 PM 4.05 39.29 0.22 7.5 5.58 12.51
1/13/2023 4:30:00 PM 4.02 39.236 0.221 7.49 5.42 12.5
1/13/2023 4:45:00 PM 3.99 39.182 0.221 7.48 5.61 12.49
1/13/2023 5:00:00 PM 3.96 39.128 0.221 7.48 5.63 12.47
1/13/2023 5:15:00 PM 3.93 39.074 0.222 7.47 5.46 12.47
1/13/2023 5:30:00 PM 3.91 39.038 0.222 7.47 5.65 12.46
1/13/2023 5:45:00 PM 3.89 39.002 0.221 7.46 5.51 12.47
1/13/2023 6:00:00 PM 3.87 38.966 0.221 7.46 5.31 12.46
1/13/2023 6:15:00 PM 3.84 38.912 0.22 7.45 5.3 12.47
1/13/2023 6:30:00 PM 3.83 38.894 0.22 7.45 5.43 12.48
1/13/2023 6:45:00 PM 3.81 38.858 0.219 7.45 5.39 12.47
1/13/2023 7:00:00 PM 3.78 38.804 0.218 7.45 5.23 12.48
1/13/2023 7:15:00 PM 3.76 38.768 0.217 7.45 5.22 12.48
1/13/2023 7:30:00 PM 3.75 38.75 0.217 7.45 4.95 12.49
1/13/2023 7:45:00 PM 3.73 38.714 0.217 7.44 5.11 12.5
1/13/2023 8:00:00 PM 3.71 38.678 0.217 7.44 5.2 12.5
1/13/2023 8:15:00 PM 3.7 38.66 0.217 7.44 5.2 12.51
1/13/2023 8:30:00 PM 3.68 38.624 0.216 7.44 5.05 12.52
1/13/2023 8:45:00 PM 3.66 38.588 0.216 7.44 4.94 12.52
1/13/2023 9:00:00 PM 3.65 38.57 0.216 7.44 5.24 12.53
1/13/2023 9:15:00 PM 3.63 38.534 0.216 7.44 4.91 12.53
1/13/2023 9:30:00 PM 3.61 38.498 0.215 7.44 4.84 12.54
1/13/2023 9:45:00 PM 3.59 38.462 0.215 7.44 4.8 12.55
1/13/2023 10:00:00 PM 3.57 38.426 0.215 7.44 5.13 12.55
1/13/2023 10:15:00 PM 3.56 38.408 0.215 7.44 4.91 12.56
1/13/2023 10:30:00 PM 3.54 38.372 0.215 7.44 4.79 12.56
1/13/2023 10:45:00 PM 3.52 38.336 0.215 7.44 4.93 12.57
1/13/2023 11:00:00 PM 3.5 38.3 0.214 7.44 4.75 12.58
1/13/2023 11:15:00 PM 3.48 38.264 0.214 7.44 4.87 12.58
1/13/2023 11:30:00 PM 3.46 38.228 0.214 7.44 4.95 12.59
1/13/2023 11:45:00 PM 3.43 38.174 0.214 7.44 4.9 12.6
1/14/2023 12:00:00 AM 3.41 38.138 0.214 7.44 4.73 12.6
1/14/2023 12:15:00 AM 3.39 38.102 0.214 7.44 4.6 12.61
1/14/2023 12:30:00 AM 3.37 38.066 0.214 7.44 4.79 12.61
1/14/2023 12:45:00 AM 3.35 38.03 0.214 7.44 4.78 12.62
1/14/2023 1:00:00 AM 3.33 37.994 0.214 7.44 4.58 12.62
1/14/2023 1:15:00 AM 3.31 37.958 0.214 7.44 4.68 12.63
1/14/2023 1:30:00 AM 3.29 37.922 0.214 7.44 4.7 12.64
1/14/2023 1:45:00 AM 3.26 37.868 0.214 7.43 4.61 12.64
1/14/2023 2:00:00 AM 3.24 37.832 0.214 7.44 4.49 12.65
1/14/2023 2:15:00 AM 3.21 37.778 0.213 7.44 4.45 12.66
1/14/2023 2:30:00 AM 3.2 37.76 0.213 7.44 4.7 12.67
1/14/2023 2:45:00 AM 3.18 37.724 0.213 7.44 4.44 12.68
1/14/2023 3:00:00 AM 3.16 37.688 0.213 7.44 4.61 12.69
1/14/2023 3:15:00 AM 3.13 37.634 0.212 7.44 4.34 12.7
1/14/2023 3:30:00 AM 3.12 37.616 0.212 7.44 4.73 12.7
1/14/2023 3:45:00 AM 3.1 37.58 0.212 7.44 4.56 12.71
1/14/2023 4:00:00 AM 3.09 37.562 0.212 7.44 4.46 12.71
1/14/2023 4:15:00 AM 3.06 37.508 0.212 7.44 4.35 12.72
1/14/2023 4:30:00 AM 3.03 37.454 0.212 7.43 4.46 12.73
1/14/2023 4:45:00 AM 3 37.4 0.212 7.43 4.4 12.74
1/14/2023 5:00:00 AM 2.98 37.364 0.212 7.44 4.57 12.75
1/14/2023 5:15:00 AM 2.96 37.328 0.212 7.44 4.19 12.76
1/14/2023 5:30:00 AM 2.94 37.292 0.212 7.43 4.41 12.76
1/14/2023 5:45:00 AM 2.91 37.238 0.213 7.44 4.32 12.77
1/14/2023 6:00:00 AM 2.88 37.184 0.213 7.43 4.12 12.78
1/14/2023 6:15:00 AM 2.86 37.148 0.213 7.44 4.24 12.8
1/14/2023 6:30:00 AM 2.84 37.112 0.213 7.44 4.33 12.8
1/14/2023 6:45:00 AM 2.81 37.058 0.213 7.44 4.2 12.8
1/14/2023 7:00:00 AM 2.79 37.022 0.213 7.44 4.11 12.81
1/14/2023 7:15:00 AM 2.77 36.986 0.213 7.44 4.13 12.82
1/14/2023 7:30:00 AM 2.75 36.95 0.213 7.43 4.01 12.83
1/14/2023 7:45:00 AM 2.73 36.914 0.213 7.44 3.96 12.84
1/14/2023 8:00:00 AM 2.71 36.878 0.213 7.44 4 12.86
1/14/2023 8:15:00 AM 2.7 36.86 0.213 7.44 4.06 12.87
1/14/2023 8:30:00 AM 2.68 36.824 0.213 7.45 4.01 12.9
1/14/2023 8:45:00 AM 2.66 36.788 0.213 7.45 3.97 12.94
1/14/2023 9:00:00 AM 2.64 36.752 0.213 7.46 3.74 12.97
1/14/2023 9:15:00 AM 2.64 36.752 0.213 7.46 3.77 13
1/14/2023 9:30:00 AM 2.63 36.734 0.213 7.47 3.78 13.04
1/14/2023 9:45:00 AM 2.64 36.752 0.213 7.48 3.75 13.07
1/14/2023 10:00:00 AM 2.64 36.752 0.213 7.49 3.72 13.13
1/14/2023 10:15:00 AM 2.65 36.77 0.213 7.5 3.72 13.18
1/14/2023 10:30:00 AM 2.65 36.77 0.213 7.52 3.82 13.22
1/14/2023 10:45:00 AM 2.67 36.806 0.213 7.53 3.76 13.25
1/14/2023 11:00:00 AM 2.68 36.824 0.214 7.54 3.76 13.28
1/14/2023 11:15:00 AM 2.7 36.86 0.214 7.55 3.8 13.3
1/14/2023 11:30:00 AM 2.7 36.86 0.214 7.56 3.67 13.34
1/14/2023 11:45:00 AM 2.73 36.914 0.214 7.57 3.64 13.35
1/14/2023 12:00:00 PM 2.73 36.914 0.214 7.58 3.69 13.36
1/14/2023 12:15:00 PM 2.74 36.932 0.213 7.59 3.7 13.39
1/14/2023 12:30:00 PM 2.76 36.968 0.213 7.6 3.69 13.38
1/14/2023 12:45:00 PM 2.76 36.968 0.214 7.6 3.65 13.4
1/14/2023 1:00:00 PM 2.77 36.986 0.214 7.61 3.5 13.4
1/14/2023 1:15:00 PM 2.78 37.004 0.214 7.61 3.54 13.41
1/14/2023 1:30:00 PM 2.8 37.04 0.214 7.62 3.54 13.42
1/14/2023 1:45:00 PM 2.81 37.058 0.214 7.62 3.56 13.41
1/14/2023 2:00:00 PM 2.81 37.058 0.214 7.63 3.56 13.41
1/14/2023 2:15:00 PM 2.82 37.076 0.214 7.63 3.59 13.41
1/14/2023 2:30:00 PM 2.83 37.094 0.214 7.63 3.53 13.41
1/14/2023 2:45:00 PM 2.82 37.076 0.214 7.63 3.57 13.39
1/14/2023 3:00:00 PM 2.82 37.076 0.214 7.63 3.48 13.38
1/14/2023 3:15:00 PM 2.8 37.04 0.215 7.62 3.59 13.34
1/14/2023 3:30:00 PM 2.78 37.004 0.215 7.61 3.53 13.32
1/14/2023 3:45:00 PM 2.77 36.986 0.215 7.6 3.51 13.27
1/14/2023 4:00:00 PM 2.74 36.932 0.215 7.59 3.48 13.23
1/14/2023 4:15:00 PM 2.71 36.878 0.215 7.57 3.55 13.2
1/14/2023 4:30:00 PM 2.68 36.824 0.216 7.56 3.46 13.17
1/14/2023 4:45:00 PM 2.66 36.788 0.216 7.55 3.73 13.13
1/14/2023 5:00:00 PM 2.63 36.734 0.217 7.54 3.54 13.1
1/14/2023 5:15:00 PM 2.6 36.68 0.217 7.52 3.65 13.06
1/14/2023 5:30:00 PM 2.57 36.626 0.217 7.51 3.67 13.05
1/14/2023 5:45:00 PM 2.54 36.572 0.218 7.5 3.58 13.03
1/14/2023 6:00:00 PM 2.51 36.518 0.218 7.49 3.75 13.03
1/14/2023 6:15:00 PM 2.48 36.464 0.218 7.49 3.7 13.01
1/14/2023 6:30:00 PM 2.44 36.392 0.218 7.48 3.54 13.02
1/14/2023 6:45:00 PM 2.41 36.338 0.218 7.48 3.49 13.02
1/14/2023 7:00:00 PM 2.37 36.266 0.219 7.47 3.74 13.02
1/14/2023 7:15:00 PM 2.34 36.212 0.219 7.47 3.54 13.03
1/14/2023 7:30:00 PM 2.31 36.158 0.219 7.46 3.63 13.03
1/14/2023 7:45:00 PM 2.28 36.104 0.219 7.46 3.58 13.04
1/14/2023 8:00:00 PM 2.25 36.05 0.219 7.46 3.6 13.05
1/14/2023 8:15:00 PM 2.23 36.014 0.219 7.46 3.51 13.06
1/14/2023 8:30:00 PM 2.21 35.978 0.219 7.46 3.54 13.06
1/14/2023 8:45:00 PM 2.19 35.942 0.219 7.45 3.48 13.07
1/14/2023 9:00:00 PM 2.16 35.888 0.218 7.45 3.64 13.08
1/14/2023 9:15:00 PM 2.14 35.852 0.218 7.45 3.48 13.09
1/14/2023 9:30:00 PM 2.12 35.816 0.218 7.45 3.58 13.1
1/14/2023 9:45:00 PM 2.1 35.78 0.218 7.45 3.54 13.11
1/14/2023 10:00:00 PM 2.08 35.744 0.218 7.45 3.55 13.11
1/14/2023 10:15:00 PM 2.07 35.726 0.218 7.45 3.51 13.11
1/14/2023 10:30:00 PM 2.05 35.69 0.217 7.45 3.41 13.11
1/14/2023 10:45:00 PM 2.04 35.672 0.217 7.45 3.51 13.12
1/14/2023 11:00:00 PM 2.03 35.654 0.217 7.45 3.5 13.12
1/14/2023 11:15:00 PM 2.01 35.618 0.218 7.44 3.58 13.13
1/14/2023 11:30:00 PM 2.01 35.618 0.218 7.44 3.49 13.13
1/14/2023 11:45:00 PM 2 35.6 0.218 7.44 3.58 13.14
1/15/2023 12:00:00 AM 1.99 35.582 0.218 7.44 3.46 13.14
1/15/2023 12:15:00 AM 1.99 35.582 0.218 7.44 3.48 13.15
1/15/2023 12:30:00 AM 1.98 35.564 0.218 7.44 3.54 13.15
1/15/2023 12:45:00 AM 1.97 35.546 0.218 7.44 3.43 13.15
1/15/2023 1:00:00 AM 1.97 35.546 0.218 7.45 3.49 13.16
1/15/2023 1:15:00 AM 1.96 35.528 0.218 7.44 3.59 13.16
1/15/2023 1:30:00 AM 1.96 35.528 0.218 7.44 3.51 13.16
1/15/2023 1:45:00 AM 1.96 35.528 0.218 7.44 3.49 13.17
1/15/2023 2:00:00 AM 1.96 35.528 0.218 7.44 3.44 13.16
1/15/2023 2:15:00 AM 1.96 35.528 0.218 7.44 3.42 13.17
1/15/2023 2:30:00 AM 1.96 35.528 0.218 7.44 3.48 13.17
1/15/2023 2:45:00 AM 1.96 35.528 0.218 7.44 3.51 13.18
1/15/2023 3:00:00 AM 1.96 35.528 0.218 7.44 3.37 13.17
1/15/2023 3:15:00 AM 1.96 35.528 0.218 7.44 3.42 13.18
1/15/2023 3:30:00 AM 1.95 35.51 0.218 7.44 3.32 13.17
1/15/2023 3:45:00 AM 1.94 35.492 0.218 7.44 3.27 13.19
1/15/2023 4:00:00 AM 1.93 35.474 0.218 7.44 3.45 13.18
1/15/2023 4:15:00 AM 1.92 35.456 0.218 7.44 3.4 13.19
1/15/2023 4:30:00 AM 1.9 35.42 0.218 7.44 3.41 13.19
1/15/2023 4:45:00 AM 1.88 35.384 0.218 7.44 3.29 13.2
1/15/2023 5:00:00 AM 1.86 35.348 0.218 7.44 3.3 13.2
1/15/2023 5:15:00 AM 1.84 35.312 0.218 7.44 3.27 13.21
1/15/2023 5:30:00 AM 1.81 35.258 0.218 7.44 3.4 13.22
1/15/2023 5:45:00 AM 1.78 35.204 0.218 7.44 3.41 13.23
1/15/2023 6:00:00 AM 1.76 35.168 0.218 7.44 3.21 13.24
1/15/2023 6:15:00 AM 1.73 35.114 0.218 7.44 3.33 13.25
1/15/2023 6:30:00 AM 1.7 35.06 0.218 7.44 3.27 13.26
1/15/2023 6:45:00 AM 1.67 35.006 0.218 7.44 3.26 13.27
1/15/2023 7:00:00 AM 1.64 34.952 0.218 7.44 3.38 13.28
1/15/2023 7:15:00 AM 1.61 34.898 0.218 7.44 3.36 13.29
1/15/2023 7:30:00 AM 1.59 34.862 0.219 7.44 3.38 13.3
1/15/2023 7:45:00 AM 1.56 34.808 0.219 7.43 3.33 13.33
1/15/2023 8:00:00 AM 1.54 34.772 0.219 7.44 3.23 13.36
1/15/2023 8:15:00 AM 1.54 34.772 0.219 7.44 3.21 13.4
1/15/2023 8:30:00 AM 1.54 34.772 0.219 7.46 3.28 13.45
1/15/2023 8:45:00 AM 1.55 34.79 0.219 7.47 3.23 13.5
1/15/2023 9:00:00 AM 1.57 34.826 0.219 7.49 3.28 13.56
1/15/2023 9:15:00 AM 1.59 34.862 0.219 7.5 3.22 13.62
1/15/2023 9:30:00 AM 1.61 34.898 0.219 7.51 3.23 13.66
1/15/2023 9:45:00 AM 1.61 34.898 0.219 7.52 3.25 13.68
1/15/2023 10:00:00 AM 1.61 34.898 0.219 7.53 3.23 13.7
1/15/2023 10:15:00 AM 1.63 34.934 0.219 7.54 3.31 13.73
1/15/2023 10:30:00 AM 1.66 34.988 0.219 7.55 3.25 13.75
1/15/2023 10:45:00 AM 1.7 35.06 0.219 7.55 3.31 13.76
1/15/2023 11:00:00 AM 1.74 35.132 0.219 7.56 3.23 13.78
1/15/2023 11:15:00 AM 1.8 35.24 0.219 7.57 3.13 13.78
1/15/2023 11:30:00 AM 1.86 35.348 0.219 7.58 3.39 13.79
1/15/2023 11:45:00 AM 1.92 35.456 0.219 7.59 3.22 13.79
1/15/2023 12:00:00 PM 1.99 35.582 0.219 7.6 3.25 13.78
1/15/2023 12:15:00 PM 2.06 35.708 0.219 7.6 3.32 13.77
1/15/2023 12:30:00 PM 2.14 35.852 0.219 7.61 3.19 13.76
1/15/2023 12:45:00 PM 2.21 35.978 0.218 7.61 3.22 13.74
1/15/2023 1:00:00 PM 2.27 36.086 0.218 7.62 3.11 13.72
1/15/2023 1:15:00 PM 2.33 36.194 0.219 7.62 3.06 13.7
1/15/2023 1:30:00 PM 2.38 36.284 0.219 7.62 3.2 13.67
1/15/2023 1:45:00 PM 2.4 36.32 0.219 7.62 3.14 13.65
1/15/2023 2:00:00 PM 2.43 36.374 0.219 7.63 3.13 13.63
1/15/2023 2:15:00 PM 2.46 36.428 0.219 7.63 3.2 13.6
1/15/2023 2:30:00 PM 2.48 36.464 0.219 7.62 3.13 13.57
1/15/2023 2:45:00 PM 2.51 36.518 0.219 7.62 3.13 13.55
1/15/2023 3:00:00 PM 2.52 36.536 0.219 7.62 3.1 13.53
1/15/2023 3:15:00 PM 2.51 36.518 0.22 7.62 3.14 13.5
1/15/2023 3:30:00 PM 2.51 36.518 0.22 7.62 3.14 13.48
1/15/2023 3:45:00 PM 2.49 36.482 0.22 7.61 3.24 13.46
1/15/2023 4:00:00 PM 2.46 36.428 0.22 7.6 3.13 13.44
1/15/2023 4:15:00 PM 2.42 36.356 0.22 7.6 3.19 13.41
1/15/2023 4:30:00 PM 2.38 36.284 0.22 7.59 3.19 13.38
1/15/2023 4:45:00 PM 2.34 36.212 0.22 7.57 3.14 13.35
1/15/2023 5:00:00 PM 2.3 36.14 0.22 7.56 3.22 13.32
1/15/2023 5:15:00 PM 2.25 36.05 0.22 7.54 3.14 13.29
1/15/2023 5:30:00 PM 2.21 35.978 0.221 7.53 3.18 13.26
1/15/2023 5:45:00 PM 2.16 35.888 0.221 7.52 3.24 13.24
1/15/2023 6:00:00 PM 2.12 35.816 0.221 7.51 3.22 13.23
1/15/2023 6:15:00 PM 2.07 35.726 0.22 7.5 3.26 13.23
1/15/2023 6:30:00 PM 2.03 35.654 0.22 7.5 3.2 13.22
1/15/2023 6:45:00 PM 1.99 35.582 0.22 7.49 3.21 13.23
1/15/2023 7:00:00 PM 1.95 35.51 0.22 7.48 3.4 13.22
1/15/2023 7:15:00 PM 1.91 35.438 0.22 7.48 3.29 13.23
1/15/2023 7:30:00 PM 1.87 35.366 0.221 7.48 3.32 13.24
1/15/2023 7:45:00 PM 1.85 35.33 0.221 7.47 3.19 13.24
1/15/2023 8:00:00 PM 1.81 35.258 0.22 7.47 3.22 13.24
1/15/2023 8:15:00 PM 1.79 35.222 0.22 7.47 3.31 13.25
1/15/2023 8:30:00 PM 1.75 35.15 0.221 7.46 3.23 13.25
1/15/2023 8:45:00 PM 1.72 35.096 0.221 7.46 3.19 13.26
1/15/2023 9:00:00 PM 1.7 35.06 0.221 7.46 3.13 13.28
1/15/2023 9:15:00 PM 1.68 35.024 0.221 7.46 3.17 13.28
1/15/2023 9:30:00 PM 1.66 34.988 0.221 7.46 3.2 13.29
1/15/2023 9:45:00 PM 1.65 34.97 0.221 7.46 3.11 13.29
1/15/2023 10:00:00 PM 1.64 34.952 0.221 7.46 3.14 13.3
1/15/2023 10:15:00 PM 1.62 34.916 0.221 7.46 3.22 13.31
1/15/2023 10:30:00 PM 1.61 34.898 0.221 7.46 3.33 13.31
1/15/2023 10:45:00 PM 1.6 34.88 0.221 7.46 3.21 13.31
1/15/2023 11:00:00 PM 1.59 34.862 0.221 7.46 3.17 13.32
1/15/2023 11:15:00 PM 1.56 34.808 0.221 7.46 3.05 13.32
1/15/2023 11:30:00 PM 1.53 34.754 0.221 7.45 3.16 13.33
1/15/2023 11:45:00 PM 1.51 34.718 0.221 7.45 3.15 13.33
1/16/2023 12:00:00 AM 1.49 34.682 0.221 7.45 3.15 13.33
1/16/2023 12:15:00 AM 1.47 34.646 0.221 7.45 4.09 13.34
1/16/2023 12:30:00 AM 1.45 34.61 0.221 7.45 3.09 13.34
1/16/2023 12:45:00 AM 1.43 34.574 0.221 7.45 3.14 13.34
1/16/2023 1:00:00 AM 1.4 34.52 0.221 7.45 3.21 13.35
1/16/2023 1:15:00 AM 1.38 34.484 0.221 7.45 3.27 13.36
1/16/2023 1:30:00 AM 1.36 34.448 0.221 7.45 3.12 13.37
1/16/2023 1:45:00 AM 1.34 34.412 0.221 7.45 3.2 13.37
1/16/2023 2:00:00 AM 1.33 34.394 0.221 7.45 3.18 13.37
1/16/2023 2:15:00 AM 1.32 34.376 0.221 7.45 3.15 13.39
1/16/2023 2:30:00 AM 1.31 34.358 0.221 7.45 3.14 13.39
1/16/2023 2:45:00 AM 1.3 34.34 0.221 7.45 3.08 13.39
1/16/2023 3:00:00 AM 1.29 34.322 0.221 7.45 3.18 13.41
1/16/2023 3:15:00 AM 1.26 34.268 0.221 7.45 3.08 13.41
1/16/2023 3:30:00 AM 1.24 34.232 0.221 7.45 3.06 13.41
1/16/2023 3:45:00 AM 1.22 34.196 0.221 7.45 3.13 13.42
1/16/2023 4:00:00 AM 1.19 34.142 0.22 7.45 3.2 13.42
1/16/2023 4:15:00 AM 1.18 34.124 0.22 7.45 3.11 13.43
1/16/2023 4:30:00 AM 1.16 34.088 0.22 7.45 3.27 13.44
1/16/2023 4:45:00 AM 1.15 34.07 0.22 7.44 3.14 13.44
1/16/2023 5:00:00 AM 1.14 34.052 0.219 7.44 3.14 13.44
1/16/2023 5:15:00 AM 1.13 34.034 0.219 7.44 3.23 13.45
1/16/2023 5:30:00 AM 1.11 33.998 0.219 7.44 3.2 13.45
1/16/2023 5:45:00 AM 1.09 33.962 0.218 7.44 3.08 13.46
1/16/2023 6:00:00 AM 1.07 33.926 0.218 7.44 3.06 13.46
1/16/2023 6:15:00 AM 1.05 33.89 0.218 7.43 3.18 13.46
1/16/2023 6:30:00 AM 1.04 33.872 0.217 7.43 3.22 13.46
1/16/2023 6:45:00 AM 1.03 33.854 0.217 7.43 3.09 13.47
1/16/2023 7:00:00 AM 1.01 33.818 0.217 7.43 3.09 13.48
1/16/2023 7:15:00 AM 1 33.8 0.217 7.43 3.17 13.48
1/16/2023 7:30:00 AM 0.98 33.764 0.217 7.43 3.11 13.49
1/16/2023 7:45:00 AM 0.97 33.746 0.217 7.44 3.13 13.51
1/16/2023 8:00:00 AM 0.96 33.728 0.217 7.44 3.1 13.53
1/16/2023 8:15:00 AM 0.95 33.71 0.217 7.45 3.11 13.57
1/16/2023 8:30:00 AM 0.94 33.692 0.217 7.45 3